<?xml version="1.0" encoding="UTF-8" standalone="no" ?>
<gpx xmlns="http://www.topografix.com/GPX/1/1" xmlns:xsi="http://www.w3.org/2001/XMLSchema-instance" xsi:schemaLocation="http://www.topografix.com/GPX/1/1 http://www.topografix.com/GPX/1/1/gpx.xsd" version="1.1" creator="VisuGPX - https://www.visugpx.com">
  <metadata>
    <name>Allonnes, le gué de Louet</name>
    <desc><![CDATA[Circuit balisé]]></desc>
  </metadata>
  <trk>
    <name><![CDATA[2011-11-25 14:07]]></name>
    <desc><![CDATA[]]></desc>
    <trkseg>
      <trkpt lat="47.32964" lon="0.02227">
        <ele>106</ele>
        <time>2011-11-25T13:07:50Z</time>
      </trkpt>
      <trkpt lat="47.32963" lon="0.02234">
        <ele>105</ele>
        <time>2011-11-25T13:07:57Z</time>
      </trkpt>
      <trkpt lat="47.32961" lon="0.02241">
        <ele>105</ele>
        <time>2011-11-25T13:08:02Z</time>
      </trkpt>
      <trkpt lat="47.32958" lon="0.02247">
        <ele>104</ele>
        <time>2011-11-25T13:08:08Z</time>
      </trkpt>
      <trkpt lat="47.32956" lon="0.02254">
        <ele>104</ele>
        <time>2011-11-25T13:08:13Z</time>
      </trkpt>
      <trkpt lat="47.32954" lon="0.0226">
        <ele>103</ele>
        <time>2011-11-25T13:08:19Z</time>
      </trkpt>
      <trkpt lat="47.32952" lon="0.02267">
        <ele>103</ele>
        <time>2011-11-25T13:08:25Z</time>
      </trkpt>
      <trkpt lat="47.32949" lon="0.02274">
        <ele>103</ele>
        <time>2011-11-25T13:08:30Z</time>
      </trkpt>
      <trkpt lat="47.32947" lon="0.02281">
        <ele>102</ele>
        <time>2011-11-25T13:08:35Z</time>
      </trkpt>
      <trkpt lat="47.32944" lon="0.02288">
        <ele>102</ele>
        <time>2011-11-25T13:08:41Z</time>
      </trkpt>
      <trkpt lat="47.32943" lon="0.02294">
        <ele>102</ele>
        <time>2011-11-25T13:08:47Z</time>
      </trkpt>
      <trkpt lat="47.32941" lon="0.023">
        <ele>102</ele>
        <time>2011-11-25T13:08:53Z</time>
      </trkpt>
      <trkpt lat="47.32939" lon="0.02307">
        <ele>102</ele>
        <time>2011-11-25T13:09:01Z</time>
      </trkpt>
      <trkpt lat="47.32938" lon="0.02314">
        <ele>102</ele>
        <time>2011-11-25T13:09:08Z</time>
      </trkpt>
      <trkpt lat="47.32938" lon="0.0232">
        <ele>102</ele>
        <time>2011-11-25T13:09:17Z</time>
      </trkpt>
      <trkpt lat="47.32941" lon="0.02325">
        <ele>102</ele>
        <time>2011-11-25T13:09:40Z</time>
      </trkpt>
      <trkpt lat="47.32944" lon="0.02319">
        <ele>101</ele>
        <time>2011-11-25T13:13:12Z</time>
      </trkpt>
      <trkpt lat="47.32948" lon="0.02315">
        <ele>101</ele>
        <time>2011-11-25T13:13:23Z</time>
      </trkpt>
      <trkpt lat="47.32952" lon="0.02312">
        <ele>101</ele>
        <time>2011-11-25T13:13:54Z</time>
      </trkpt>
      <trkpt lat="47.32947" lon="0.0231">
        <ele>101</ele>
        <time>2011-11-25T13:14:04Z</time>
      </trkpt>
      <trkpt lat="47.32942" lon="0.02311">
        <ele>100</ele>
        <time>2011-11-25T13:14:08Z</time>
      </trkpt>
      <trkpt lat="47.32937" lon="0.02316">
        <ele>100</ele>
        <time>2011-11-25T13:14:12Z</time>
      </trkpt>
      <trkpt lat="47.32933" lon="0.0232">
        <ele>100</ele>
        <time>2011-11-25T13:14:16Z</time>
      </trkpt>
      <trkpt lat="47.32929" lon="0.02326">
        <ele>99</ele>
        <time>2011-11-25T13:14:21Z</time>
      </trkpt>
      <trkpt lat="47.32926" lon="0.0233">
        <ele>99</ele>
        <time>2011-11-25T13:14:26Z</time>
      </trkpt>
      <trkpt lat="47.32923" lon="0.02335">
        <ele>99</ele>
        <time>2011-11-25T13:14:30Z</time>
      </trkpt>
      <trkpt lat="47.3292" lon="0.02341">
        <ele>98</ele>
        <time>2011-11-25T13:14:34Z</time>
      </trkpt>
      <trkpt lat="47.32916" lon="0.02347">
        <ele>98</ele>
        <time>2011-11-25T13:14:39Z</time>
      </trkpt>
      <trkpt lat="47.32912" lon="0.02353">
        <ele>97</ele>
        <time>2011-11-25T13:14:44Z</time>
      </trkpt>
      <trkpt lat="47.32909" lon="0.0236">
        <ele>97</ele>
        <time>2011-11-25T13:14:49Z</time>
      </trkpt>
      <trkpt lat="47.32906" lon="0.02366">
        <ele>97</ele>
        <time>2011-11-25T13:14:54Z</time>
      </trkpt>
      <trkpt lat="47.32903" lon="0.02371">
        <ele>96</ele>
        <time>2011-11-25T13:14:58Z</time>
      </trkpt>
      <trkpt lat="47.329" lon="0.02377">
        <ele>96</ele>
        <time>2011-11-25T13:15:02Z</time>
      </trkpt>
      <trkpt lat="47.32898" lon="0.02383">
        <ele>96</ele>
        <time>2011-11-25T13:15:06Z</time>
      </trkpt>
      <trkpt lat="47.32896" lon="0.0239">
        <ele>96</ele>
        <time>2011-11-25T13:15:11Z</time>
      </trkpt>
      <trkpt lat="47.32893" lon="0.02397">
        <ele>96</ele>
        <time>2011-11-25T13:15:16Z</time>
      </trkpt>
      <trkpt lat="47.32891" lon="0.02404">
        <ele>96</ele>
        <time>2011-11-25T13:15:21Z</time>
      </trkpt>
      <trkpt lat="47.32888" lon="0.02411">
        <ele>96</ele>
        <time>2011-11-25T13:15:26Z</time>
      </trkpt>
      <trkpt lat="47.32885" lon="0.02418">
        <ele>96</ele>
        <time>2011-11-25T13:15:31Z</time>
      </trkpt>
      <trkpt lat="47.32883" lon="0.02424">
        <ele>96</ele>
        <time>2011-11-25T13:15:36Z</time>
      </trkpt>
      <trkpt lat="47.3288" lon="0.02431">
        <ele>96</ele>
        <time>2011-11-25T13:15:41Z</time>
      </trkpt>
      <trkpt lat="47.32877" lon="0.02437">
        <ele>96</ele>
        <time>2011-11-25T13:15:46Z</time>
      </trkpt>
      <trkpt lat="47.32874" lon="0.02442">
        <ele>96</ele>
        <time>2011-11-25T13:15:50Z</time>
      </trkpt>
      <trkpt lat="47.32871" lon="0.02448">
        <ele>96</ele>
        <time>2011-11-25T13:15:54Z</time>
      </trkpt>
      <trkpt lat="47.32868" lon="0.02454">
        <ele>96</ele>
        <time>2011-11-25T13:15:58Z</time>
      </trkpt>
      <trkpt lat="47.32865" lon="0.02459">
        <ele>96</ele>
        <time>2011-11-25T13:16:02Z</time>
      </trkpt>
      <trkpt lat="47.32861" lon="0.02464">
        <ele>96</ele>
        <time>2011-11-25T13:16:06Z</time>
      </trkpt>
      <trkpt lat="47.32857" lon="0.0247">
        <ele>96</ele>
        <time>2011-11-25T13:16:11Z</time>
      </trkpt>
      <trkpt lat="47.32853" lon="0.02474">
        <ele>96</ele>
        <time>2011-11-25T13:16:16Z</time>
      </trkpt>
      <trkpt lat="47.32849" lon="0.0248">
        <ele>96</ele>
        <time>2011-11-25T13:16:21Z</time>
      </trkpt>
      <trkpt lat="47.32846" lon="0.02486">
        <ele>96</ele>
        <time>2011-11-25T13:16:26Z</time>
      </trkpt>
      <trkpt lat="47.32843" lon="0.02492">
        <ele>96</ele>
        <time>2011-11-25T13:16:31Z</time>
      </trkpt>
      <trkpt lat="47.32839" lon="0.02498">
        <ele>96</ele>
        <time>2011-11-25T13:16:36Z</time>
      </trkpt>
      <trkpt lat="47.32837" lon="0.02505">
        <ele>97</ele>
        <time>2011-11-25T13:16:41Z</time>
      </trkpt>
      <trkpt lat="47.32836" lon="0.02513">
        <ele>97</ele>
        <time>2011-11-25T13:16:46Z</time>
      </trkpt>
      <trkpt lat="47.32836" lon="0.0252">
        <ele>97</ele>
        <time>2011-11-25T13:16:50Z</time>
      </trkpt>
      <trkpt lat="47.32838" lon="0.02528">
        <ele>97</ele>
        <time>2011-11-25T13:16:54Z</time>
      </trkpt>
      <trkpt lat="47.32839" lon="0.02534">
        <ele>97</ele>
        <time>2011-11-25T13:16:58Z</time>
      </trkpt>
      <trkpt lat="47.32841" lon="0.0254">
        <ele>97</ele>
        <time>2011-11-25T13:17:02Z</time>
      </trkpt>
      <trkpt lat="47.32845" lon="0.02545">
        <ele>97</ele>
        <time>2011-11-25T13:17:06Z</time>
      </trkpt>
      <trkpt lat="47.32848" lon="0.0255">
        <ele>97</ele>
        <time>2011-11-25T13:17:10Z</time>
      </trkpt>
      <trkpt lat="47.32852" lon="0.02554">
        <ele>97</ele>
        <time>2011-11-25T13:17:14Z</time>
      </trkpt>
      <trkpt lat="47.32855" lon="0.02558">
        <ele>97</ele>
        <time>2011-11-25T13:17:18Z</time>
      </trkpt>
      <trkpt lat="47.32859" lon="0.02562">
        <ele>98</ele>
        <time>2011-11-25T13:17:22Z</time>
      </trkpt>
      <trkpt lat="47.32863" lon="0.02566">
        <ele>98</ele>
        <time>2011-11-25T13:17:27Z</time>
      </trkpt>
      <trkpt lat="47.32867" lon="0.02571">
        <ele>98</ele>
        <time>2011-11-25T13:17:32Z</time>
      </trkpt>
      <trkpt lat="47.32871" lon="0.02575">
        <ele>98</ele>
        <time>2011-11-25T13:17:36Z</time>
      </trkpt>
      <trkpt lat="47.32874" lon="0.0258">
        <ele>98</ele>
        <time>2011-11-25T13:17:40Z</time>
      </trkpt>
      <trkpt lat="47.32878" lon="0.02585">
        <ele>98</ele>
        <time>2011-11-25T13:17:44Z</time>
      </trkpt>
      <trkpt lat="47.32882" lon="0.02589">
        <ele>98</ele>
        <time>2011-11-25T13:17:48Z</time>
      </trkpt>
      <trkpt lat="47.32887" lon="0.02593">
        <ele>98</ele>
        <time>2011-11-25T13:17:52Z</time>
      </trkpt>
      <trkpt lat="47.32891" lon="0.02597">
        <ele>98</ele>
        <time>2011-11-25T13:17:56Z</time>
      </trkpt>
      <trkpt lat="47.32895" lon="0.02601">
        <ele>98</ele>
        <time>2011-11-25T13:18:00Z</time>
      </trkpt>
      <trkpt lat="47.32899" lon="0.02605">
        <ele>98</ele>
        <time>2011-11-25T13:18:04Z</time>
      </trkpt>
      <trkpt lat="47.32903" lon="0.02609">
        <ele>98</ele>
        <time>2011-11-25T13:18:08Z</time>
      </trkpt>
      <trkpt lat="47.32907" lon="0.02612">
        <ele>99</ele>
        <time>2011-11-25T13:18:12Z</time>
      </trkpt>
      <trkpt lat="47.3291" lon="0.02616">
        <ele>99</ele>
        <time>2011-11-25T13:18:16Z</time>
      </trkpt>
      <trkpt lat="47.32915" lon="0.02621">
        <ele>99</ele>
        <time>2011-11-25T13:18:21Z</time>
      </trkpt>
      <trkpt lat="47.32919" lon="0.02626">
        <ele>99</ele>
        <time>2011-11-25T13:18:26Z</time>
      </trkpt>
      <trkpt lat="47.32923" lon="0.02631">
        <ele>99</ele>
        <time>2011-11-25T13:18:31Z</time>
      </trkpt>
      <trkpt lat="47.32927" lon="0.02635">
        <ele>99</ele>
        <time>2011-11-25T13:18:35Z</time>
      </trkpt>
      <trkpt lat="47.3293" lon="0.0264">
        <ele>99</ele>
        <time>2011-11-25T13:18:39Z</time>
      </trkpt>
      <trkpt lat="47.32935" lon="0.02645">
        <ele>100</ele>
        <time>2011-11-25T13:18:44Z</time>
      </trkpt>
      <trkpt lat="47.32938" lon="0.02649">
        <ele>100</ele>
        <time>2011-11-25T13:18:48Z</time>
      </trkpt>
      <trkpt lat="47.32942" lon="0.02653">
        <ele>100</ele>
        <time>2011-11-25T13:18:52Z</time>
      </trkpt>
      <trkpt lat="47.32946" lon="0.02657">
        <ele>100</ele>
        <time>2011-11-25T13:18:57Z</time>
      </trkpt>
      <trkpt lat="47.32951" lon="0.02662">
        <ele>100</ele>
        <time>2011-11-25T13:19:02Z</time>
      </trkpt>
      <trkpt lat="47.32955" lon="0.02666">
        <ele>100</ele>
        <time>2011-11-25T13:19:06Z</time>
      </trkpt>
      <trkpt lat="47.32959" lon="0.0267">
        <ele>100</ele>
        <time>2011-11-25T13:19:11Z</time>
      </trkpt>
      <trkpt lat="47.32963" lon="0.02675">
        <ele>101</ele>
        <time>2011-11-25T13:19:16Z</time>
      </trkpt>
      <trkpt lat="47.32967" lon="0.0268">
        <ele>101</ele>
        <time>2011-11-25T13:19:21Z</time>
      </trkpt>
      <trkpt lat="47.32971" lon="0.02685">
        <ele>101</ele>
        <time>2011-11-25T13:19:26Z</time>
      </trkpt>
      <trkpt lat="47.32976" lon="0.0269">
        <ele>101</ele>
        <time>2011-11-25T13:19:31Z</time>
      </trkpt>
      <trkpt lat="47.32979" lon="0.02696">
        <ele>101</ele>
        <time>2011-11-25T13:19:36Z</time>
      </trkpt>
      <trkpt lat="47.32982" lon="0.02701">
        <ele>101</ele>
        <time>2011-11-25T13:19:41Z</time>
      </trkpt>
      <trkpt lat="47.32986" lon="0.02706">
        <ele>101</ele>
        <time>2011-11-25T13:19:46Z</time>
      </trkpt>
      <trkpt lat="47.3299" lon="0.02709">
        <ele>101</ele>
        <time>2011-11-25T13:19:50Z</time>
      </trkpt>
      <trkpt lat="47.32994" lon="0.02713">
        <ele>101</ele>
        <time>2011-11-25T13:19:54Z</time>
      </trkpt>
      <trkpt lat="47.32998" lon="0.02718">
        <ele>101</ele>
        <time>2011-11-25T13:19:58Z</time>
      </trkpt>
      <trkpt lat="47.33002" lon="0.02723">
        <ele>101</ele>
        <time>2011-11-25T13:20:02Z</time>
      </trkpt>
      <trkpt lat="47.33006" lon="0.02728">
        <ele>101</ele>
        <time>2011-11-25T13:20:06Z</time>
      </trkpt>
      <trkpt lat="47.33009" lon="0.02733">
        <ele>101</ele>
        <time>2011-11-25T13:20:10Z</time>
      </trkpt>
      <trkpt lat="47.33013" lon="0.02738">
        <ele>101</ele>
        <time>2011-11-25T13:20:15Z</time>
      </trkpt>
      <trkpt lat="47.33017" lon="0.02743">
        <ele>102</ele>
        <time>2011-11-25T13:20:20Z</time>
      </trkpt>
      <trkpt lat="47.33021" lon="0.02749">
        <ele>102</ele>
        <time>2011-11-25T13:20:25Z</time>
      </trkpt>
      <trkpt lat="47.33024" lon="0.02755">
        <ele>102</ele>
        <time>2011-11-25T13:20:30Z</time>
      </trkpt>
      <trkpt lat="47.33028" lon="0.02759">
        <ele>102</ele>
        <time>2011-11-25T13:20:34Z</time>
      </trkpt>
      <trkpt lat="47.33031" lon="0.02764">
        <ele>102</ele>
        <time>2011-11-25T13:20:38Z</time>
      </trkpt>
      <trkpt lat="47.33035" lon="0.02768">
        <ele>102</ele>
        <time>2011-11-25T13:20:42Z</time>
      </trkpt>
      <trkpt lat="47.33038" lon="0.02774">
        <ele>102</ele>
        <time>2011-11-25T13:20:46Z</time>
      </trkpt>
      <trkpt lat="47.33041" lon="0.02778">
        <ele>102</ele>
        <time>2011-11-25T13:20:50Z</time>
      </trkpt>
      <trkpt lat="47.33046" lon="0.02783">
        <ele>102</ele>
        <time>2011-11-25T13:20:55Z</time>
      </trkpt>
      <trkpt lat="47.33049" lon="0.02787">
        <ele>102</ele>
        <time>2011-11-25T13:20:59Z</time>
      </trkpt>
      <trkpt lat="47.33053" lon="0.02792">
        <ele>102</ele>
        <time>2011-11-25T13:21:03Z</time>
      </trkpt>
      <trkpt lat="47.33056" lon="0.02796">
        <ele>102</ele>
        <time>2011-11-25T13:21:07Z</time>
      </trkpt>
      <trkpt lat="47.33061" lon="0.028">
        <ele>102</ele>
        <time>2011-11-25T13:21:12Z</time>
      </trkpt>
      <trkpt lat="47.33065" lon="0.02805">
        <ele>102</ele>
        <time>2011-11-25T13:21:17Z</time>
      </trkpt>
      <trkpt lat="47.33069" lon="0.0281">
        <ele>102</ele>
        <time>2011-11-25T13:21:22Z</time>
      </trkpt>
      <trkpt lat="47.33073" lon="0.02815">
        <ele>102</ele>
        <time>2011-11-25T13:21:27Z</time>
      </trkpt>
      <trkpt lat="47.33076" lon="0.0282">
        <ele>103</ele>
        <time>2011-11-25T13:21:31Z</time>
      </trkpt>
      <trkpt lat="47.3308" lon="0.02824">
        <ele>103</ele>
        <time>2011-11-25T13:21:35Z</time>
      </trkpt>
      <trkpt lat="47.33083" lon="0.02829">
        <ele>103</ele>
        <time>2011-11-25T13:21:39Z</time>
      </trkpt>
      <trkpt lat="47.33087" lon="0.02834">
        <ele>103</ele>
        <time>2011-11-25T13:21:44Z</time>
      </trkpt>
      <trkpt lat="47.33089" lon="0.0284">
        <ele>103</ele>
        <time>2011-11-25T13:21:49Z</time>
      </trkpt>
      <trkpt lat="47.33092" lon="0.02846">
        <ele>103</ele>
        <time>2011-11-25T13:21:56Z</time>
      </trkpt>
      <trkpt lat="47.33096" lon="0.02848">
        <ele>103</ele>
        <time>2011-11-25T13:22:02Z</time>
      </trkpt>
      <trkpt lat="47.331" lon="0.02851">
        <ele>103</ele>
        <time>2011-11-25T13:22:07Z</time>
      </trkpt>
      <trkpt lat="47.33104" lon="0.02857">
        <ele>103</ele>
        <time>2011-11-25T13:22:12Z</time>
      </trkpt>
      <trkpt lat="47.33108" lon="0.02862">
        <ele>103</ele>
        <time>2011-11-25T13:22:16Z</time>
      </trkpt>
      <trkpt lat="47.33111" lon="0.02868">
        <ele>103</ele>
        <time>2011-11-25T13:22:20Z</time>
      </trkpt>
      <trkpt lat="47.33114" lon="0.02874">
        <ele>104</ele>
        <time>2011-11-25T13:22:24Z</time>
      </trkpt>
      <trkpt lat="47.33117" lon="0.0288">
        <ele>104</ele>
        <time>2011-11-25T13:22:28Z</time>
      </trkpt>
      <trkpt lat="47.33119" lon="0.02885">
        <ele>104</ele>
        <time>2011-11-25T13:22:32Z</time>
      </trkpt>
      <trkpt lat="47.33122" lon="0.0289">
        <ele>104</ele>
        <time>2011-11-25T13:22:36Z</time>
      </trkpt>
      <trkpt lat="47.33126" lon="0.02896">
        <ele>104</ele>
        <time>2011-11-25T13:22:40Z</time>
      </trkpt>
      <trkpt lat="47.33128" lon="0.02901">
        <ele>104</ele>
        <time>2011-11-25T13:22:44Z</time>
      </trkpt>
      <trkpt lat="47.33132" lon="0.02906">
        <ele>104</ele>
        <time>2011-11-25T13:22:48Z</time>
      </trkpt>
      <trkpt lat="47.33135" lon="0.02911">
        <ele>104</ele>
        <time>2011-11-25T13:22:52Z</time>
      </trkpt>
      <trkpt lat="47.33138" lon="0.02917">
        <ele>104</ele>
        <time>2011-11-25T13:22:56Z</time>
      </trkpt>
      <trkpt lat="47.33141" lon="0.02923">
        <ele>104</ele>
        <time>2011-11-25T13:23:00Z</time>
      </trkpt>
      <trkpt lat="47.33144" lon="0.02928">
        <ele>104</ele>
        <time>2011-11-25T13:23:04Z</time>
      </trkpt>
      <trkpt lat="47.33147" lon="0.02934">
        <ele>104</ele>
        <time>2011-11-25T13:23:08Z</time>
      </trkpt>
      <trkpt lat="47.3315" lon="0.0294">
        <ele>104</ele>
        <time>2011-11-25T13:23:12Z</time>
      </trkpt>
      <trkpt lat="47.33152" lon="0.02946">
        <ele>104</ele>
        <time>2011-11-25T13:23:16Z</time>
      </trkpt>
      <trkpt lat="47.33155" lon="0.02952">
        <ele>104</ele>
        <time>2011-11-25T13:23:20Z</time>
      </trkpt>
      <trkpt lat="47.33158" lon="0.02957">
        <ele>104</ele>
        <time>2011-11-25T13:23:24Z</time>
      </trkpt>
      <trkpt lat="47.33161" lon="0.02963">
        <ele>104</ele>
        <time>2011-11-25T13:23:28Z</time>
      </trkpt>
      <trkpt lat="47.33164" lon="0.02969">
        <ele>104</ele>
        <time>2011-11-25T13:23:32Z</time>
      </trkpt>
      <trkpt lat="47.33167" lon="0.02974">
        <ele>104</ele>
        <time>2011-11-25T13:23:36Z</time>
      </trkpt>
      <trkpt lat="47.3317" lon="0.0298">
        <ele>104</ele>
        <time>2011-11-25T13:23:40Z</time>
      </trkpt>
      <trkpt lat="47.33173" lon="0.02986">
        <ele>104</ele>
        <time>2011-11-25T13:23:44Z</time>
      </trkpt>
      <trkpt lat="47.33176" lon="0.02991">
        <ele>104</ele>
        <time>2011-11-25T13:23:48Z</time>
      </trkpt>
      <trkpt lat="47.33178" lon="0.02997">
        <ele>103</ele>
        <time>2011-11-25T13:23:52Z</time>
      </trkpt>
      <trkpt lat="47.33182" lon="0.03002">
        <ele>103</ele>
        <time>2011-11-25T13:23:56Z</time>
      </trkpt>
      <trkpt lat="47.33185" lon="0.03008">
        <ele>103</ele>
        <time>2011-11-25T13:24:00Z</time>
      </trkpt>
      <trkpt lat="47.33189" lon="0.03013">
        <ele>103</ele>
        <time>2011-11-25T13:24:04Z</time>
      </trkpt>
      <trkpt lat="47.33192" lon="0.03018">
        <ele>103</ele>
        <time>2011-11-25T13:24:08Z</time>
      </trkpt>
      <trkpt lat="47.33195" lon="0.03024">
        <ele>103</ele>
        <time>2011-11-25T13:24:12Z</time>
      </trkpt>
      <trkpt lat="47.33198" lon="0.03029">
        <ele>102</ele>
        <time>2011-11-25T13:24:16Z</time>
      </trkpt>
      <trkpt lat="47.33201" lon="0.03035">
        <ele>102</ele>
        <time>2011-11-25T13:24:20Z</time>
      </trkpt>
      <trkpt lat="47.33205" lon="0.0304">
        <ele>102</ele>
        <time>2011-11-25T13:24:24Z</time>
      </trkpt>
      <trkpt lat="47.33208" lon="0.03046">
        <ele>102</ele>
        <time>2011-11-25T13:24:28Z</time>
      </trkpt>
      <trkpt lat="47.33211" lon="0.03052">
        <ele>102</ele>
        <time>2011-11-25T13:24:32Z</time>
      </trkpt>
      <trkpt lat="47.33214" lon="0.03058">
        <ele>102</ele>
        <time>2011-11-25T13:24:36Z</time>
      </trkpt>
      <trkpt lat="47.33217" lon="0.03064">
        <ele>102</ele>
        <time>2011-11-25T13:24:40Z</time>
      </trkpt>
      <trkpt lat="47.33221" lon="0.0307">
        <ele>102</ele>
        <time>2011-11-25T13:24:44Z</time>
      </trkpt>
      <trkpt lat="47.33224" lon="0.03075">
        <ele>102</ele>
        <time>2011-11-25T13:24:48Z</time>
      </trkpt>
      <trkpt lat="47.33228" lon="0.03081">
        <ele>101</ele>
        <time>2011-11-25T13:24:52Z</time>
      </trkpt>
      <trkpt lat="47.33231" lon="0.03087">
        <ele>101</ele>
        <time>2011-11-25T13:24:56Z</time>
      </trkpt>
      <trkpt lat="47.33234" lon="0.03092">
        <ele>101</ele>
        <time>2011-11-25T13:25:00Z</time>
      </trkpt>
      <trkpt lat="47.33237" lon="0.03099">
        <ele>101</ele>
        <time>2011-11-25T13:25:04Z</time>
      </trkpt>
      <trkpt lat="47.3324" lon="0.03105">
        <ele>101</ele>
        <time>2011-11-25T13:25:08Z</time>
      </trkpt>
      <trkpt lat="47.33242" lon="0.03111">
        <ele>101</ele>
        <time>2011-11-25T13:25:12Z</time>
      </trkpt>
      <trkpt lat="47.33245" lon="0.03116">
        <ele>101</ele>
        <time>2011-11-25T13:25:16Z</time>
      </trkpt>
      <trkpt lat="47.33248" lon="0.03122">
        <ele>101</ele>
        <time>2011-11-25T13:25:20Z</time>
      </trkpt>
      <trkpt lat="47.33252" lon="0.03127">
        <ele>101</ele>
        <time>2011-11-25T13:25:24Z</time>
      </trkpt>
      <trkpt lat="47.33255" lon="0.03132">
        <ele>101</ele>
        <time>2011-11-25T13:25:28Z</time>
      </trkpt>
      <trkpt lat="47.33258" lon="0.03138">
        <ele>101</ele>
        <time>2011-11-25T13:25:32Z</time>
      </trkpt>
      <trkpt lat="47.33262" lon="0.03144">
        <ele>101</ele>
        <time>2011-11-25T13:25:36Z</time>
      </trkpt>
      <trkpt lat="47.33266" lon="0.03149">
        <ele>101</ele>
        <time>2011-11-25T13:25:40Z</time>
      </trkpt>
      <trkpt lat="47.33269" lon="0.03154">
        <ele>102</ele>
        <time>2011-11-25T13:25:44Z</time>
      </trkpt>
      <trkpt lat="47.33273" lon="0.0316">
        <ele>102</ele>
        <time>2011-11-25T13:25:48Z</time>
      </trkpt>
      <trkpt lat="47.33276" lon="0.03165">
        <ele>102</ele>
        <time>2011-11-25T13:25:52Z</time>
      </trkpt>
      <trkpt lat="47.33279" lon="0.03171">
        <ele>102</ele>
        <time>2011-11-25T13:25:56Z</time>
      </trkpt>
      <trkpt lat="47.33282" lon="0.03176">
        <ele>102</ele>
        <time>2011-11-25T13:26:00Z</time>
      </trkpt>
      <trkpt lat="47.33286" lon="0.03181">
        <ele>102</ele>
        <time>2011-11-25T13:26:04Z</time>
      </trkpt>
      <trkpt lat="47.33289" lon="0.03187">
        <ele>102</ele>
        <time>2011-11-25T13:26:08Z</time>
      </trkpt>
      <trkpt lat="47.33292" lon="0.03192">
        <ele>102</ele>
        <time>2011-11-25T13:26:12Z</time>
      </trkpt>
      <trkpt lat="47.33295" lon="0.03197">
        <ele>102</ele>
        <time>2011-11-25T13:26:16Z</time>
      </trkpt>
      <trkpt lat="47.33299" lon="0.03202">
        <ele>102</ele>
        <time>2011-11-25T13:26:20Z</time>
      </trkpt>
      <trkpt lat="47.33303" lon="0.03208">
        <ele>102</ele>
        <time>2011-11-25T13:26:24Z</time>
      </trkpt>
      <trkpt lat="47.33307" lon="0.03213">
        <ele>102</ele>
        <time>2011-11-25T13:26:28Z</time>
      </trkpt>
      <trkpt lat="47.3331" lon="0.03218">
        <ele>102</ele>
        <time>2011-11-25T13:26:32Z</time>
      </trkpt>
      <trkpt lat="47.33314" lon="0.03224">
        <ele>102</ele>
        <time>2011-11-25T13:26:36Z</time>
      </trkpt>
      <trkpt lat="47.33318" lon="0.03229">
        <ele>102</ele>
        <time>2011-11-25T13:26:40Z</time>
      </trkpt>
      <trkpt lat="47.33321" lon="0.03234">
        <ele>102</ele>
        <time>2011-11-25T13:26:44Z</time>
      </trkpt>
      <trkpt lat="47.33324" lon="0.0324">
        <ele>102</ele>
        <time>2011-11-25T13:26:48Z</time>
      </trkpt>
      <trkpt lat="47.33328" lon="0.03245">
        <ele>103</ele>
        <time>2011-11-25T13:26:52Z</time>
      </trkpt>
      <trkpt lat="47.33332" lon="0.03251">
        <ele>103</ele>
        <time>2011-11-25T13:26:56Z</time>
      </trkpt>
      <trkpt lat="47.33336" lon="0.03256">
        <ele>103</ele>
        <time>2011-11-25T13:27:00Z</time>
      </trkpt>
      <trkpt lat="47.3334" lon="0.03262">
        <ele>103</ele>
        <time>2011-11-25T13:27:04Z</time>
      </trkpt>
      <trkpt lat="47.33344" lon="0.03268">
        <ele>103</ele>
        <time>2011-11-25T13:27:08Z</time>
      </trkpt>
      <trkpt lat="47.33347" lon="0.03273">
        <ele>103</ele>
        <time>2011-11-25T13:27:12Z</time>
      </trkpt>
      <trkpt lat="47.33351" lon="0.03278">
        <ele>103</ele>
        <time>2011-11-25T13:27:16Z</time>
      </trkpt>
      <trkpt lat="47.33354" lon="0.03284">
        <ele>103</ele>
        <time>2011-11-25T13:27:20Z</time>
      </trkpt>
      <trkpt lat="47.33358" lon="0.03289">
        <ele>103</ele>
        <time>2011-11-25T13:27:24Z</time>
      </trkpt>
      <trkpt lat="47.33362" lon="0.03294">
        <ele>103</ele>
        <time>2011-11-25T13:27:28Z</time>
      </trkpt>
      <trkpt lat="47.33366" lon="0.03299">
        <ele>103</ele>
        <time>2011-11-25T13:27:32Z</time>
      </trkpt>
      <trkpt lat="47.33369" lon="0.03304">
        <ele>103</ele>
        <time>2011-11-25T13:27:36Z</time>
      </trkpt>
      <trkpt lat="47.33372" lon="0.03309">
        <ele>103</ele>
        <time>2011-11-25T13:27:40Z</time>
      </trkpt>
      <trkpt lat="47.33376" lon="0.03314">
        <ele>103</ele>
        <time>2011-11-25T13:27:44Z</time>
      </trkpt>
      <trkpt lat="47.33379" lon="0.0332">
        <ele>103</ele>
        <time>2011-11-25T13:27:48Z</time>
      </trkpt>
      <trkpt lat="47.33382" lon="0.03324">
        <ele>103</ele>
        <time>2011-11-25T13:27:52Z</time>
      </trkpt>
      <trkpt lat="47.33386" lon="0.03329">
        <ele>104</ele>
        <time>2011-11-25T13:27:56Z</time>
      </trkpt>
      <trkpt lat="47.3339" lon="0.03334">
        <ele>104</ele>
        <time>2011-11-25T13:28:00Z</time>
      </trkpt>
      <trkpt lat="47.33393" lon="0.03338">
        <ele>104</ele>
        <time>2011-11-25T13:28:04Z</time>
      </trkpt>
      <trkpt lat="47.33397" lon="0.03344">
        <ele>104</ele>
        <time>2011-11-25T13:28:09Z</time>
      </trkpt>
      <trkpt lat="47.334" lon="0.03349">
        <ele>104</ele>
        <time>2011-11-25T13:28:13Z</time>
      </trkpt>
      <trkpt lat="47.33403" lon="0.03354">
        <ele>104</ele>
        <time>2011-11-25T13:28:17Z</time>
      </trkpt>
      <trkpt lat="47.33407" lon="0.03358">
        <ele>104</ele>
        <time>2011-11-25T13:28:21Z</time>
      </trkpt>
      <trkpt lat="47.33411" lon="0.03364">
        <ele>104</ele>
        <time>2011-11-25T13:28:25Z</time>
      </trkpt>
      <trkpt lat="47.33414" lon="0.0337">
        <ele>104</ele>
        <time>2011-11-25T13:28:29Z</time>
      </trkpt>
      <trkpt lat="47.33418" lon="0.03375">
        <ele>104</ele>
        <time>2011-11-25T13:28:33Z</time>
      </trkpt>
      <trkpt lat="47.33421" lon="0.0338">
        <ele>104</ele>
        <time>2011-11-25T13:28:37Z</time>
      </trkpt>
      <trkpt lat="47.33424" lon="0.03386">
        <ele>104</ele>
        <time>2011-11-25T13:28:41Z</time>
      </trkpt>
      <trkpt lat="47.33427" lon="0.03391">
        <ele>104</ele>
        <time>2011-11-25T13:28:45Z</time>
      </trkpt>
      <trkpt lat="47.3343" lon="0.03396">
        <ele>104</ele>
        <time>2011-11-25T13:28:49Z</time>
      </trkpt>
      <trkpt lat="47.33433" lon="0.03401">
        <ele>104</ele>
        <time>2011-11-25T13:28:53Z</time>
      </trkpt>
      <trkpt lat="47.33436" lon="0.03406">
        <ele>104</ele>
        <time>2011-11-25T13:28:57Z</time>
      </trkpt>
      <trkpt lat="47.33439" lon="0.03413">
        <ele>105</ele>
        <time>2011-11-25T13:29:01Z</time>
      </trkpt>
      <trkpt lat="47.3344" lon="0.03419">
        <ele>105</ele>
        <time>2011-11-25T13:29:05Z</time>
      </trkpt>
      <trkpt lat="47.33443" lon="0.03426">
        <ele>105</ele>
        <time>2011-11-25T13:29:09Z</time>
      </trkpt>
      <trkpt lat="47.33445" lon="0.03433">
        <ele>105</ele>
        <time>2011-11-25T13:29:13Z</time>
      </trkpt>
      <trkpt lat="47.33448" lon="0.03439">
        <ele>105</ele>
        <time>2011-11-25T13:29:17Z</time>
      </trkpt>
      <trkpt lat="47.3345" lon="0.03445">
        <ele>105</ele>
        <time>2011-11-25T13:29:21Z</time>
      </trkpt>
      <trkpt lat="47.33453" lon="0.0345">
        <ele>105</ele>
        <time>2011-11-25T13:29:25Z</time>
      </trkpt>
      <trkpt lat="47.33456" lon="0.03456">
        <ele>105</ele>
        <time>2011-11-25T13:29:29Z</time>
      </trkpt>
      <trkpt lat="47.33459" lon="0.03461">
        <ele>105</ele>
        <time>2011-11-25T13:29:33Z</time>
      </trkpt>
      <trkpt lat="47.33464" lon="0.03466">
        <ele>105</ele>
        <time>2011-11-25T13:29:37Z</time>
      </trkpt>
      <trkpt lat="47.33467" lon="0.03471">
        <ele>106</ele>
        <time>2011-11-25T13:29:41Z</time>
      </trkpt>
      <trkpt lat="47.33471" lon="0.03476">
        <ele>106</ele>
        <time>2011-11-25T13:29:45Z</time>
      </trkpt>
      <trkpt lat="47.33474" lon="0.03481">
        <ele>106</ele>
        <time>2011-11-25T13:29:49Z</time>
      </trkpt>
      <trkpt lat="47.33477" lon="0.03486">
        <ele>106</ele>
        <time>2011-11-25T13:29:53Z</time>
      </trkpt>
      <trkpt lat="47.3348" lon="0.0349">
        <ele>106</ele>
        <time>2011-11-25T13:29:57Z</time>
      </trkpt>
      <trkpt lat="47.33484" lon="0.03496">
        <ele>106</ele>
        <time>2011-11-25T13:30:02Z</time>
      </trkpt>
      <trkpt lat="47.33488" lon="0.03501">
        <ele>106</ele>
        <time>2011-11-25T13:30:06Z</time>
      </trkpt>
      <trkpt lat="47.3349" lon="0.03506">
        <ele>106</ele>
        <time>2011-11-25T13:30:10Z</time>
      </trkpt>
      <trkpt lat="47.33494" lon="0.03511">
        <ele>106</ele>
        <time>2011-11-25T13:30:14Z</time>
      </trkpt>
      <trkpt lat="47.33496" lon="0.03517">
        <ele>106</ele>
        <time>2011-11-25T13:30:18Z</time>
      </trkpt>
      <trkpt lat="47.33497" lon="0.03524">
        <ele>106</ele>
        <time>2011-11-25T13:30:35Z</time>
      </trkpt>
      <trkpt lat="47.335" lon="0.03529">
        <ele>107</ele>
        <time>2011-11-25T13:30:52Z</time>
      </trkpt>
      <trkpt lat="47.33504" lon="0.03535">
        <ele>107</ele>
        <time>2011-11-25T13:30:57Z</time>
      </trkpt>
      <trkpt lat="47.33507" lon="0.03541">
        <ele>107</ele>
        <time>2011-11-25T13:31:01Z</time>
      </trkpt>
      <trkpt lat="47.3351" lon="0.03546">
        <ele>107</ele>
        <time>2011-11-25T13:31:05Z</time>
      </trkpt>
      <trkpt lat="47.33513" lon="0.03552">
        <ele>107</ele>
        <time>2011-11-25T13:31:09Z</time>
      </trkpt>
      <trkpt lat="47.33516" lon="0.03557">
        <ele>108</ele>
        <time>2011-11-25T13:31:13Z</time>
      </trkpt>
      <trkpt lat="47.33519" lon="0.03562">
        <ele>108</ele>
        <time>2011-11-25T13:31:17Z</time>
      </trkpt>
      <trkpt lat="47.33522" lon="0.03567">
        <ele>108</ele>
        <time>2011-11-25T13:31:21Z</time>
      </trkpt>
      <trkpt lat="47.33525" lon="0.03572">
        <ele>108</ele>
        <time>2011-11-25T13:31:25Z</time>
      </trkpt>
      <trkpt lat="47.33529" lon="0.03578">
        <ele>108</ele>
        <time>2011-11-25T13:31:30Z</time>
      </trkpt>
      <trkpt lat="47.33532" lon="0.03584">
        <ele>108</ele>
        <time>2011-11-25T13:31:35Z</time>
      </trkpt>
      <trkpt lat="47.33536" lon="0.03589">
        <ele>108</ele>
        <time>2011-11-25T13:31:40Z</time>
      </trkpt>
      <trkpt lat="47.33539" lon="0.03594">
        <ele>108</ele>
        <time>2011-11-25T13:31:44Z</time>
      </trkpt>
      <trkpt lat="47.33542" lon="0.036">
        <ele>108</ele>
        <time>2011-11-25T13:31:48Z</time>
      </trkpt>
      <trkpt lat="47.33544" lon="0.03606">
        <ele>109</ele>
        <time>2011-11-25T13:31:52Z</time>
      </trkpt>
      <trkpt lat="47.33547" lon="0.03612">
        <ele>109</ele>
        <time>2011-11-25T13:31:56Z</time>
      </trkpt>
      <trkpt lat="47.33549" lon="0.03619">
        <ele>109</ele>
        <time>2011-11-25T13:32:00Z</time>
      </trkpt>
      <trkpt lat="47.33552" lon="0.03626">
        <ele>109</ele>
        <time>2011-11-25T13:32:04Z</time>
      </trkpt>
      <trkpt lat="47.33554" lon="0.03632">
        <ele>109</ele>
        <time>2011-11-25T13:32:08Z</time>
      </trkpt>
      <trkpt lat="47.33557" lon="0.03638">
        <ele>109</ele>
        <time>2011-11-25T13:32:12Z</time>
      </trkpt>
      <trkpt lat="47.33559" lon="0.03645">
        <ele>109</ele>
        <time>2011-11-25T13:32:16Z</time>
      </trkpt>
      <trkpt lat="47.3356" lon="0.03652">
        <ele>109</ele>
        <time>2011-11-25T13:32:20Z</time>
      </trkpt>
      <trkpt lat="47.33558" lon="0.03658">
        <ele>110</ele>
        <time>2011-11-25T13:32:37Z</time>
      </trkpt>
      <trkpt lat="47.3356" lon="0.03665">
        <ele>110</ele>
        <time>2011-11-25T13:32:43Z</time>
      </trkpt>
      <trkpt lat="47.33563" lon="0.0367">
        <ele>110</ele>
        <time>2011-11-25T13:32:54Z</time>
      </trkpt>
      <trkpt lat="47.33566" lon="0.03674">
        <ele>110</ele>
        <time>2011-11-25T13:33:04Z</time>
      </trkpt>
      <trkpt lat="47.33565" lon="0.0368">
        <ele>110</ele>
        <time>2011-11-25T13:34:00Z</time>
      </trkpt>
      <trkpt lat="47.33565" lon="0.03687">
        <ele>110</ele>
        <time>2011-11-25T13:34:06Z</time>
      </trkpt>
      <trkpt lat="47.33567" lon="0.03694">
        <ele>110</ele>
        <time>2011-11-25T13:34:10Z</time>
      </trkpt>
      <trkpt lat="47.33568" lon="0.03702">
        <ele>111</ele>
        <time>2011-11-25T13:34:15Z</time>
      </trkpt>
      <trkpt lat="47.33568" lon="0.03709">
        <ele>111</ele>
        <time>2011-11-25T13:34:19Z</time>
      </trkpt>
      <trkpt lat="47.33569" lon="0.03717">
        <ele>111</ele>
        <time>2011-11-25T13:34:24Z</time>
      </trkpt>
      <trkpt lat="47.33569" lon="0.03724">
        <ele>112</ele>
        <time>2011-11-25T13:34:30Z</time>
      </trkpt>
      <trkpt lat="47.33569" lon="0.03732">
        <ele>112</ele>
        <time>2011-11-25T13:34:35Z</time>
      </trkpt>
      <trkpt lat="47.33568" lon="0.03739">
        <ele>112</ele>
        <time>2011-11-25T13:34:40Z</time>
      </trkpt>
      <trkpt lat="47.33568" lon="0.03746">
        <ele>112</ele>
        <time>2011-11-25T13:34:45Z</time>
      </trkpt>
      <trkpt lat="47.33568" lon="0.03753">
        <ele>112</ele>
        <time>2011-11-25T13:34:50Z</time>
      </trkpt>
      <trkpt lat="47.33568" lon="0.03761">
        <ele>113</ele>
        <time>2011-11-25T13:34:55Z</time>
      </trkpt>
      <trkpt lat="47.33569" lon="0.03767">
        <ele>113</ele>
        <time>2011-11-25T13:34:59Z</time>
      </trkpt>
      <trkpt lat="47.33569" lon="0.03774">
        <ele>113</ele>
        <time>2011-11-25T13:35:03Z</time>
      </trkpt>
      <trkpt lat="47.3357" lon="0.03781">
        <ele>113</ele>
        <time>2011-11-25T13:35:07Z</time>
      </trkpt>
      <trkpt lat="47.33571" lon="0.03788">
        <ele>113</ele>
        <time>2011-11-25T13:35:11Z</time>
      </trkpt>
      <trkpt lat="47.33573" lon="0.03795">
        <ele>113</ele>
        <time>2011-11-25T13:35:16Z</time>
      </trkpt>
      <trkpt lat="47.33574" lon="0.03803">
        <ele>113</ele>
        <time>2011-11-25T13:35:21Z</time>
      </trkpt>
      <trkpt lat="47.33576" lon="0.03811">
        <ele>114</ele>
        <time>2011-11-25T13:35:26Z</time>
      </trkpt>
      <trkpt lat="47.33577" lon="0.03817">
        <ele>114</ele>
        <time>2011-11-25T13:35:30Z</time>
      </trkpt>
      <trkpt lat="47.33578" lon="0.03825">
        <ele>114</ele>
        <time>2011-11-25T13:35:35Z</time>
      </trkpt>
      <trkpt lat="47.3358" lon="0.03832">
        <ele>114</ele>
        <time>2011-11-25T13:35:40Z</time>
      </trkpt>
      <trkpt lat="47.3358" lon="0.03839">
        <ele>114</ele>
        <time>2011-11-25T13:35:45Z</time>
      </trkpt>
      <trkpt lat="47.3358" lon="0.03847">
        <ele>114</ele>
        <time>2011-11-25T13:35:50Z</time>
      </trkpt>
      <trkpt lat="47.33581" lon="0.03853">
        <ele>114</ele>
        <time>2011-11-25T13:35:54Z</time>
      </trkpt>
      <trkpt lat="47.33582" lon="0.0386">
        <ele>114</ele>
        <time>2011-11-25T13:35:58Z</time>
      </trkpt>
      <trkpt lat="47.33584" lon="0.03866">
        <ele>114</ele>
        <time>2011-11-25T13:36:02Z</time>
      </trkpt>
      <trkpt lat="47.33585" lon="0.03874">
        <ele>114</ele>
        <time>2011-11-25T13:36:07Z</time>
      </trkpt>
      <trkpt lat="47.33585" lon="0.03881">
        <ele>114</ele>
        <time>2011-11-25T13:36:11Z</time>
      </trkpt>
      <trkpt lat="47.33586" lon="0.03888">
        <ele>114</ele>
        <time>2011-11-25T13:36:15Z</time>
      </trkpt>
      <trkpt lat="47.33588" lon="0.03896">
        <ele>114</ele>
        <time>2011-11-25T13:36:19Z</time>
      </trkpt>
      <trkpt lat="47.3359" lon="0.03904">
        <ele>114</ele>
        <time>2011-11-25T13:36:23Z</time>
      </trkpt>
      <trkpt lat="47.33591" lon="0.03911">
        <ele>114</ele>
        <time>2011-11-25T13:36:27Z</time>
      </trkpt>
      <trkpt lat="47.33592" lon="0.03918">
        <ele>114</ele>
        <time>2011-11-25T13:36:31Z</time>
      </trkpt>
      <trkpt lat="47.33594" lon="0.03926">
        <ele>114</ele>
        <time>2011-11-25T13:36:36Z</time>
      </trkpt>
      <trkpt lat="47.33596" lon="0.03933">
        <ele>114</ele>
        <time>2011-11-25T13:36:41Z</time>
      </trkpt>
      <trkpt lat="47.33598" lon="0.0394">
        <ele>114</ele>
        <time>2011-11-25T13:36:46Z</time>
      </trkpt>
      <trkpt lat="47.336" lon="0.03946">
        <ele>114</ele>
        <time>2011-11-25T13:36:51Z</time>
      </trkpt>
      <trkpt lat="47.33602" lon="0.03952">
        <ele>114</ele>
        <time>2011-11-25T13:36:56Z</time>
      </trkpt>
      <trkpt lat="47.33604" lon="0.03958">
        <ele>114</ele>
        <time>2011-11-25T13:37:01Z</time>
      </trkpt>
      <trkpt lat="47.33607" lon="0.03965">
        <ele>114</ele>
        <time>2011-11-25T13:37:06Z</time>
      </trkpt>
      <trkpt lat="47.33609" lon="0.03971">
        <ele>114</ele>
        <time>2011-11-25T13:37:11Z</time>
      </trkpt>
      <trkpt lat="47.33612" lon="0.03978">
        <ele>114</ele>
        <time>2011-11-25T13:37:16Z</time>
      </trkpt>
      <trkpt lat="47.33614" lon="0.03984">
        <ele>114</ele>
        <time>2011-11-25T13:37:21Z</time>
      </trkpt>
      <trkpt lat="47.33616" lon="0.0399">
        <ele>114</ele>
        <time>2011-11-25T13:37:26Z</time>
      </trkpt>
      <trkpt lat="47.33618" lon="0.03996">
        <ele>114</ele>
        <time>2011-11-25T13:37:31Z</time>
      </trkpt>
      <trkpt lat="47.33621" lon="0.04003">
        <ele>114</ele>
        <time>2011-11-25T13:37:36Z</time>
      </trkpt>
      <trkpt lat="47.33624" lon="0.04009">
        <ele>114</ele>
        <time>2011-11-25T13:37:41Z</time>
      </trkpt>
      <trkpt lat="47.33626" lon="0.04016">
        <ele>114</ele>
        <time>2011-11-25T13:37:46Z</time>
      </trkpt>
      <trkpt lat="47.33629" lon="0.04022">
        <ele>114</ele>
        <time>2011-11-25T13:37:51Z</time>
      </trkpt>
      <trkpt lat="47.33632" lon="0.04027">
        <ele>114</ele>
        <time>2011-11-25T13:37:56Z</time>
      </trkpt>
      <trkpt lat="47.33636" lon="0.04028">
        <ele>114</ele>
        <time>2011-11-25T13:38:08Z</time>
      </trkpt>
      <trkpt lat="47.33639" lon="0.04034">
        <ele>113</ele>
        <time>2011-11-25T13:38:14Z</time>
      </trkpt>
      <trkpt lat="47.33642" lon="0.0404">
        <ele>113</ele>
        <time>2011-11-25T13:38:19Z</time>
      </trkpt>
      <trkpt lat="47.33644" lon="0.04046">
        <ele>112</ele>
        <time>2011-11-25T13:38:24Z</time>
      </trkpt>
      <trkpt lat="47.33647" lon="0.04051">
        <ele>112</ele>
        <time>2011-11-25T13:38:28Z</time>
      </trkpt>
      <trkpt lat="47.33649" lon="0.04058">
        <ele>112</ele>
        <time>2011-11-25T13:38:34Z</time>
      </trkpt>
      <trkpt lat="47.33651" lon="0.04064">
        <ele>111</ele>
        <time>2011-11-25T13:38:39Z</time>
      </trkpt>
      <trkpt lat="47.33654" lon="0.04071">
        <ele>111</ele>
        <time>2011-11-25T13:38:44Z</time>
      </trkpt>
      <trkpt lat="47.33656" lon="0.04077">
        <ele>110</ele>
        <time>2011-11-25T13:38:49Z</time>
      </trkpt>
      <trkpt lat="47.33658" lon="0.04082">
        <ele>110</ele>
        <time>2011-11-25T13:38:54Z</time>
      </trkpt>
      <trkpt lat="47.3366" lon="0.04089">
        <ele>110</ele>
        <time>2011-11-25T13:38:59Z</time>
      </trkpt>
      <trkpt lat="47.33662" lon="0.04096">
        <ele>110</ele>
        <time>2011-11-25T13:39:04Z</time>
      </trkpt>
      <trkpt lat="47.33665" lon="0.04102">
        <ele>110</ele>
        <time>2011-11-25T13:39:09Z</time>
      </trkpt>
      <trkpt lat="47.33668" lon="0.04108">
        <ele>109</ele>
        <time>2011-11-25T13:39:14Z</time>
      </trkpt>
      <trkpt lat="47.33672" lon="0.04114">
        <ele>108</ele>
        <time>2011-11-25T13:39:19Z</time>
      </trkpt>
      <trkpt lat="47.33676" lon="0.0412">
        <ele>108</ele>
        <time>2011-11-25T13:39:23Z</time>
      </trkpt>
      <trkpt lat="47.33679" lon="0.04125">
        <ele>108</ele>
        <time>2011-11-25T13:39:26Z</time>
      </trkpt>
      <trkpt lat="47.33682" lon="0.0413">
        <ele>108</ele>
        <time>2011-11-25T13:39:29Z</time>
      </trkpt>
      <trkpt lat="47.33686" lon="0.04136">
        <ele>107</ele>
        <time>2011-11-25T13:39:33Z</time>
      </trkpt>
      <trkpt lat="47.33689" lon="0.04141">
        <ele>107</ele>
        <time>2011-11-25T13:39:37Z</time>
      </trkpt>
      <trkpt lat="47.33692" lon="0.04147">
        <ele>107</ele>
        <time>2011-11-25T13:39:41Z</time>
      </trkpt>
      <trkpt lat="47.33695" lon="0.04152">
        <ele>107</ele>
        <time>2011-11-25T13:39:45Z</time>
      </trkpt>
      <trkpt lat="47.33698" lon="0.04158">
        <ele>107</ele>
        <time>2011-11-25T13:39:50Z</time>
      </trkpt>
      <trkpt lat="47.33701" lon="0.04166">
        <ele>107</ele>
        <time>2011-11-25T13:39:54Z</time>
      </trkpt>
      <trkpt lat="47.33703" lon="0.04173">
        <ele>107</ele>
        <time>2011-11-25T13:39:58Z</time>
      </trkpt>
      <trkpt lat="47.33704" lon="0.04181">
        <ele>107</ele>
        <time>2011-11-25T13:40:02Z</time>
      </trkpt>
      <trkpt lat="47.33706" lon="0.04187">
        <ele>107</ele>
        <time>2011-11-25T13:40:06Z</time>
      </trkpt>
      <trkpt lat="47.33707" lon="0.04193">
        <ele>107</ele>
        <time>2011-11-25T13:40:13Z</time>
      </trkpt>
      <trkpt lat="47.3371" lon="0.042">
        <ele>106</ele>
        <time>2011-11-25T13:40:19Z</time>
      </trkpt>
      <trkpt lat="47.33712" lon="0.04206">
        <ele>106</ele>
        <time>2011-11-25T13:40:24Z</time>
      </trkpt>
      <trkpt lat="47.33715" lon="0.04211">
        <ele>106</ele>
        <time>2011-11-25T13:40:29Z</time>
      </trkpt>
      <trkpt lat="47.33718" lon="0.04217">
        <ele>106</ele>
        <time>2011-11-25T13:40:33Z</time>
      </trkpt>
      <trkpt lat="47.33721" lon="0.04223">
        <ele>106</ele>
        <time>2011-11-25T13:40:37Z</time>
      </trkpt>
      <trkpt lat="47.33724" lon="0.0423">
        <ele>106</ele>
        <time>2011-11-25T13:40:41Z</time>
      </trkpt>
      <trkpt lat="47.33726" lon="0.04236">
        <ele>106</ele>
        <time>2011-11-25T13:40:44Z</time>
      </trkpt>
      <trkpt lat="47.33728" lon="0.04243">
        <ele>106</ele>
        <time>2011-11-25T13:40:47Z</time>
      </trkpt>
      <trkpt lat="47.33732" lon="0.04247">
        <ele>106</ele>
        <time>2011-11-25T13:40:53Z</time>
      </trkpt>
      <trkpt lat="47.33737" lon="0.04249">
        <ele>107</ele>
        <time>2011-11-25T13:41:04Z</time>
      </trkpt>
      <trkpt lat="47.33739" lon="0.04256">
        <ele>107</ele>
        <time>2011-11-25T13:41:42Z</time>
      </trkpt>
      <trkpt lat="47.33741" lon="0.04261">
        <ele>107</ele>
        <time>2011-11-25T13:41:56Z</time>
      </trkpt>
      <trkpt lat="47.33746" lon="0.04264">
        <ele>107</ele>
        <time>2011-11-25T13:42:11Z</time>
      </trkpt>
      <trkpt lat="47.3375" lon="0.0426">
        <ele>107</ele>
        <time>2011-11-25T13:42:20Z</time>
      </trkpt>
      <trkpt lat="47.33753" lon="0.04256">
        <ele>107</ele>
        <time>2011-11-25T13:42:29Z</time>
      </trkpt>
      <trkpt lat="47.33757" lon="0.04251">
        <ele>106</ele>
        <time>2011-11-25T13:42:37Z</time>
      </trkpt>
      <trkpt lat="47.3376" lon="0.04246">
        <ele>106</ele>
        <time>2011-11-25T13:42:44Z</time>
      </trkpt>
      <trkpt lat="47.33763" lon="0.04239">
        <ele>106</ele>
        <time>2011-11-25T13:42:50Z</time>
      </trkpt>
      <trkpt lat="47.33766" lon="0.04232">
        <ele>106</ele>
        <time>2011-11-25T13:42:56Z</time>
      </trkpt>
      <trkpt lat="47.33768" lon="0.04225">
        <ele>106</ele>
        <time>2011-11-25T13:43:01Z</time>
      </trkpt>
      <trkpt lat="47.3377" lon="0.04219">
        <ele>106</ele>
        <time>2011-11-25T13:43:05Z</time>
      </trkpt>
      <trkpt lat="47.33771" lon="0.04212">
        <ele>106</ele>
        <time>2011-11-25T13:43:09Z</time>
      </trkpt>
      <trkpt lat="47.33772" lon="0.04205">
        <ele>106</ele>
        <time>2011-11-25T13:43:13Z</time>
      </trkpt>
      <trkpt lat="47.33774" lon="0.04198">
        <ele>106</ele>
        <time>2011-11-25T13:43:17Z</time>
      </trkpt>
      <trkpt lat="47.33775" lon="0.04191">
        <ele>106</ele>
        <time>2011-11-25T13:43:21Z</time>
      </trkpt>
      <trkpt lat="47.33776" lon="0.04185">
        <ele>106</ele>
        <time>2011-11-25T13:43:25Z</time>
      </trkpt>
      <trkpt lat="47.33778" lon="0.04178">
        <ele>106</ele>
        <time>2011-11-25T13:43:29Z</time>
      </trkpt>
      <trkpt lat="47.3378" lon="0.0417">
        <ele>106</ele>
        <time>2011-11-25T13:43:33Z</time>
      </trkpt>
      <trkpt lat="47.33782" lon="0.04163">
        <ele>106</ele>
        <time>2011-11-25T13:43:36Z</time>
      </trkpt>
      <trkpt lat="47.33785" lon="0.04155">
        <ele>106</ele>
        <time>2011-11-25T13:43:39Z</time>
      </trkpt>
      <trkpt lat="47.33787" lon="0.04148">
        <ele>106</ele>
        <time>2011-11-25T13:43:42Z</time>
      </trkpt>
      <trkpt lat="47.3379" lon="0.04141">
        <ele>106</ele>
        <time>2011-11-25T13:43:45Z</time>
      </trkpt>
      <trkpt lat="47.33792" lon="0.04134">
        <ele>106</ele>
        <time>2011-11-25T13:43:48Z</time>
      </trkpt>
      <trkpt lat="47.33795" lon="0.04128">
        <ele>106</ele>
        <time>2011-11-25T13:43:51Z</time>
      </trkpt>
      <trkpt lat="47.33798" lon="0.04121">
        <ele>106</ele>
        <time>2011-11-25T13:43:55Z</time>
      </trkpt>
      <trkpt lat="47.33802" lon="0.04114">
        <ele>106</ele>
        <time>2011-11-25T13:43:58Z</time>
      </trkpt>
      <trkpt lat="47.33805" lon="0.04108">
        <ele>106</ele>
        <time>2011-11-25T13:44:01Z</time>
      </trkpt>
      <trkpt lat="47.33808" lon="0.04101">
        <ele>106</ele>
        <time>2011-11-25T13:44:04Z</time>
      </trkpt>
      <trkpt lat="47.33811" lon="0.04095">
        <ele>106</ele>
        <time>2011-11-25T13:44:07Z</time>
      </trkpt>
      <trkpt lat="47.33814" lon="0.04088">
        <ele>106</ele>
        <time>2011-11-25T13:44:10Z</time>
      </trkpt>
      <trkpt lat="47.33818" lon="0.04082">
        <ele>106</ele>
        <time>2011-11-25T13:44:13Z</time>
      </trkpt>
      <trkpt lat="47.33821" lon="0.04076">
        <ele>106</ele>
        <time>2011-11-25T13:44:16Z</time>
      </trkpt>
      <trkpt lat="47.33824" lon="0.04069">
        <ele>106</ele>
        <time>2011-11-25T13:44:19Z</time>
      </trkpt>
      <trkpt lat="47.33827" lon="0.04063">
        <ele>106</ele>
        <time>2011-11-25T13:44:22Z</time>
      </trkpt>
      <trkpt lat="47.3383" lon="0.04057">
        <ele>106</ele>
        <time>2011-11-25T13:44:25Z</time>
      </trkpt>
      <trkpt lat="47.33832" lon="0.04051">
        <ele>106</ele>
        <time>2011-11-25T13:44:28Z</time>
      </trkpt>
      <trkpt lat="47.33835" lon="0.04045">
        <ele>106</ele>
        <time>2011-11-25T13:44:31Z</time>
      </trkpt>
      <trkpt lat="47.33838" lon="0.0404">
        <ele>106</ele>
        <time>2011-11-25T13:44:34Z</time>
      </trkpt>
      <trkpt lat="47.3384" lon="0.04034">
        <ele>106</ele>
        <time>2011-11-25T13:44:37Z</time>
      </trkpt>
      <trkpt lat="47.33843" lon="0.04026">
        <ele>106</ele>
        <time>2011-11-25T13:44:41Z</time>
      </trkpt>
      <trkpt lat="47.33846" lon="0.04021">
        <ele>106</ele>
        <time>2011-11-25T13:44:44Z</time>
      </trkpt>
      <trkpt lat="47.33848" lon="0.04015">
        <ele>106</ele>
        <time>2011-11-25T13:44:53Z</time>
      </trkpt>
      <trkpt lat="47.3385" lon="0.04008">
        <ele>106</ele>
        <time>2011-11-25T13:44:57Z</time>
      </trkpt>
      <trkpt lat="47.33853" lon="0.04003">
        <ele>105</ele>
        <time>2011-11-25T13:45:01Z</time>
      </trkpt>
      <trkpt lat="47.33856" lon="0.03996">
        <ele>105</ele>
        <time>2011-11-25T13:45:07Z</time>
      </trkpt>
      <trkpt lat="47.33858" lon="0.0399">
        <ele>105</ele>
        <time>2011-11-25T13:45:12Z</time>
      </trkpt>
      <trkpt lat="47.3386" lon="0.03984">
        <ele>105</ele>
        <time>2011-11-25T13:45:17Z</time>
      </trkpt>
      <trkpt lat="47.33863" lon="0.03977">
        <ele>105</ele>
        <time>2011-11-25T13:45:21Z</time>
      </trkpt>
      <trkpt lat="47.33866" lon="0.0397">
        <ele>105</ele>
        <time>2011-11-25T13:45:25Z</time>
      </trkpt>
      <trkpt lat="47.33868" lon="0.03963">
        <ele>105</ele>
        <time>2011-11-25T13:45:29Z</time>
      </trkpt>
      <trkpt lat="47.33871" lon="0.03956">
        <ele>104</ele>
        <time>2011-11-25T13:45:33Z</time>
      </trkpt>
      <trkpt lat="47.33874" lon="0.03948">
        <ele>104</ele>
        <time>2011-11-25T13:45:37Z</time>
      </trkpt>
      <trkpt lat="47.33877" lon="0.03942">
        <ele>104</ele>
        <time>2011-11-25T13:45:40Z</time>
      </trkpt>
      <trkpt lat="47.33879" lon="0.03936">
        <ele>104</ele>
        <time>2011-11-25T13:45:43Z</time>
      </trkpt>
      <trkpt lat="47.33882" lon="0.0393">
        <ele>104</ele>
        <time>2011-11-25T13:45:46Z</time>
      </trkpt>
      <trkpt lat="47.33884" lon="0.03925">
        <ele>104</ele>
        <time>2011-11-25T13:45:49Z</time>
      </trkpt>
      <trkpt lat="47.33888" lon="0.03918">
        <ele>104</ele>
        <time>2011-11-25T13:45:53Z</time>
      </trkpt>
      <trkpt lat="47.3389" lon="0.03911">
        <ele>104</ele>
        <time>2011-11-25T13:45:57Z</time>
      </trkpt>
      <trkpt lat="47.33893" lon="0.03905">
        <ele>104</ele>
        <time>2011-11-25T13:46:01Z</time>
      </trkpt>
      <trkpt lat="47.33895" lon="0.03898">
        <ele>103</ele>
        <time>2011-11-25T13:46:05Z</time>
      </trkpt>
      <trkpt lat="47.33897" lon="0.03891">
        <ele>103</ele>
        <time>2011-11-25T13:46:09Z</time>
      </trkpt>
      <trkpt lat="47.33899" lon="0.03884">
        <ele>103</ele>
        <time>2011-11-25T13:46:13Z</time>
      </trkpt>
      <trkpt lat="47.33901" lon="0.03877">
        <ele>103</ele>
        <time>2011-11-25T13:46:17Z</time>
      </trkpt>
      <trkpt lat="47.33903" lon="0.03871">
        <ele>103</ele>
        <time>2011-11-25T13:46:21Z</time>
      </trkpt>
      <trkpt lat="47.33905" lon="0.03864">
        <ele>103</ele>
        <time>2011-11-25T13:46:25Z</time>
      </trkpt>
      <trkpt lat="47.33907" lon="0.03858">
        <ele>103</ele>
        <time>2011-11-25T13:46:29Z</time>
      </trkpt>
      <trkpt lat="47.3391" lon="0.03852">
        <ele>103</ele>
        <time>2011-11-25T13:46:32Z</time>
      </trkpt>
      <trkpt lat="47.33912" lon="0.03845">
        <ele>103</ele>
        <time>2011-11-25T13:46:34Z</time>
      </trkpt>
      <trkpt lat="47.33914" lon="0.03838">
        <ele>103</ele>
        <time>2011-11-25T13:46:36Z</time>
      </trkpt>
      <trkpt lat="47.33917" lon="0.0383">
        <ele>103</ele>
        <time>2011-11-25T13:46:39Z</time>
      </trkpt>
      <trkpt lat="47.33919" lon="0.03823">
        <ele>103</ele>
        <time>2011-11-25T13:46:43Z</time>
      </trkpt>
      <trkpt lat="47.33921" lon="0.03817">
        <ele>103</ele>
        <time>2011-11-25T13:46:47Z</time>
      </trkpt>
      <trkpt lat="47.33924" lon="0.03811">
        <ele>103</ele>
        <time>2011-11-25T13:46:50Z</time>
      </trkpt>
      <trkpt lat="47.33926" lon="0.03804">
        <ele>102</ele>
        <time>2011-11-25T13:46:54Z</time>
      </trkpt>
      <trkpt lat="47.33925" lon="0.03796">
        <ele>102</ele>
        <time>2011-11-25T13:46:59Z</time>
      </trkpt>
      <trkpt lat="47.33924" lon="0.0379">
        <ele>102</ele>
        <time>2011-11-25T13:47:03Z</time>
      </trkpt>
      <trkpt lat="47.33922" lon="0.03783">
        <ele>102</ele>
        <time>2011-11-25T13:47:07Z</time>
      </trkpt>
      <trkpt lat="47.3392" lon="0.03776">
        <ele>102</ele>
        <time>2011-11-25T13:47:11Z</time>
      </trkpt>
      <trkpt lat="47.33917" lon="0.03769">
        <ele>102</ele>
        <time>2011-11-25T13:47:16Z</time>
      </trkpt>
      <trkpt lat="47.33914" lon="0.03762">
        <ele>101</ele>
        <time>2011-11-25T13:47:21Z</time>
      </trkpt>
      <trkpt lat="47.33912" lon="0.03756">
        <ele>101</ele>
        <time>2011-11-25T13:47:25Z</time>
      </trkpt>
      <trkpt lat="47.3391" lon="0.0375">
        <ele>101</ele>
        <time>2011-11-25T13:47:29Z</time>
      </trkpt>
      <trkpt lat="47.33908" lon="0.03743">
        <ele>101</ele>
        <time>2011-11-25T13:47:33Z</time>
      </trkpt>
      <trkpt lat="47.33906" lon="0.03737">
        <ele>101</ele>
        <time>2011-11-25T13:47:37Z</time>
      </trkpt>
      <trkpt lat="47.33903" lon="0.03731">
        <ele>100</ele>
        <time>2011-11-25T13:47:41Z</time>
      </trkpt>
      <trkpt lat="47.33901" lon="0.03725">
        <ele>100</ele>
        <time>2011-11-25T13:47:45Z</time>
      </trkpt>
      <trkpt lat="47.33899" lon="0.03719">
        <ele>100</ele>
        <time>2011-11-25T13:47:49Z</time>
      </trkpt>
      <trkpt lat="47.33896" lon="0.03712">
        <ele>100</ele>
        <time>2011-11-25T13:47:53Z</time>
      </trkpt>
      <trkpt lat="47.33893" lon="0.03706">
        <ele>100</ele>
        <time>2011-11-25T13:47:57Z</time>
      </trkpt>
      <trkpt lat="47.33891" lon="0.037">
        <ele>100</ele>
        <time>2011-11-25T13:48:01Z</time>
      </trkpt>
      <trkpt lat="47.33889" lon="0.03692">
        <ele>100</ele>
        <time>2011-11-25T13:48:06Z</time>
      </trkpt>
      <trkpt lat="47.33888" lon="0.03685">
        <ele>100</ele>
        <time>2011-11-25T13:48:13Z</time>
      </trkpt>
      <trkpt lat="47.33888" lon="0.03678">
        <ele>99</ele>
        <time>2011-11-25T13:48:19Z</time>
      </trkpt>
      <trkpt lat="47.3389" lon="0.03671">
        <ele>99</ele>
        <time>2011-11-25T13:48:25Z</time>
      </trkpt>
      <trkpt lat="47.33894" lon="0.03667">
        <ele>99</ele>
        <time>2011-11-25T13:48:30Z</time>
      </trkpt>
      <trkpt lat="47.33898" lon="0.03664">
        <ele>99</ele>
        <time>2011-11-25T13:48:35Z</time>
      </trkpt>
      <trkpt lat="47.33902" lon="0.0366">
        <ele>99</ele>
        <time>2011-11-25T13:48:40Z</time>
      </trkpt>
      <trkpt lat="47.33906" lon="0.03656">
        <ele>99</ele>
        <time>2011-11-25T13:48:46Z</time>
      </trkpt>
      <trkpt lat="47.3391" lon="0.03651">
        <ele>99</ele>
        <time>2011-11-25T13:48:52Z</time>
      </trkpt>
      <trkpt lat="47.33914" lon="0.03646">
        <ele>99</ele>
        <time>2011-11-25T13:48:57Z</time>
      </trkpt>
      <trkpt lat="47.33917" lon="0.03642">
        <ele>99</ele>
        <time>2011-11-25T13:49:02Z</time>
      </trkpt>
      <trkpt lat="47.33921" lon="0.03637">
        <ele>99</ele>
        <time>2011-11-25T13:49:07Z</time>
      </trkpt>
      <trkpt lat="47.33925" lon="0.03631">
        <ele>99</ele>
        <time>2011-11-25T13:49:12Z</time>
      </trkpt>
      <trkpt lat="47.33928" lon="0.03624">
        <ele>99</ele>
        <time>2011-11-25T13:49:17Z</time>
      </trkpt>
      <trkpt lat="47.33931" lon="0.03618">
        <ele>99</ele>
        <time>2011-11-25T13:49:22Z</time>
      </trkpt>
      <trkpt lat="47.33934" lon="0.03613">
        <ele>99</ele>
        <time>2011-11-25T13:49:37Z</time>
      </trkpt>
      <trkpt lat="47.33939" lon="0.03609">
        <ele>100</ele>
        <time>2011-11-25T13:49:44Z</time>
      </trkpt>
      <trkpt lat="47.33942" lon="0.03604">
        <ele>100</ele>
        <time>2011-11-25T13:49:49Z</time>
      </trkpt>
      <trkpt lat="47.33945" lon="0.03598">
        <ele>100</ele>
        <time>2011-11-25T13:49:53Z</time>
      </trkpt>
      <trkpt lat="47.33948" lon="0.03592">
        <ele>100</ele>
        <time>2011-11-25T13:49:58Z</time>
      </trkpt>
      <trkpt lat="47.3395" lon="0.03585">
        <ele>100</ele>
        <time>2011-11-25T13:50:02Z</time>
      </trkpt>
      <trkpt lat="47.33952" lon="0.03579">
        <ele>100</ele>
        <time>2011-11-25T13:50:10Z</time>
      </trkpt>
      <trkpt lat="47.33955" lon="0.03574">
        <ele>100</ele>
        <time>2011-11-25T13:50:18Z</time>
      </trkpt>
      <trkpt lat="47.33958" lon="0.03568">
        <ele>100</ele>
        <time>2011-11-25T13:50:24Z</time>
      </trkpt>
      <trkpt lat="47.3396" lon="0.03562">
        <ele>100</ele>
        <time>2011-11-25T13:50:29Z</time>
      </trkpt>
      <trkpt lat="47.33964" lon="0.03556">
        <ele>99</ele>
        <time>2011-11-25T13:50:34Z</time>
      </trkpt>
      <trkpt lat="47.33967" lon="0.03551">
        <ele>99</ele>
        <time>2011-11-25T13:50:38Z</time>
      </trkpt>
      <trkpt lat="47.3397" lon="0.03545">
        <ele>99</ele>
        <time>2011-11-25T13:50:42Z</time>
      </trkpt>
      <trkpt lat="47.33975" lon="0.03539">
        <ele>98</ele>
        <time>2011-11-25T13:50:46Z</time>
      </trkpt>
      <trkpt lat="47.33979" lon="0.03535">
        <ele>98</ele>
        <time>2011-11-25T13:50:49Z</time>
      </trkpt>
      <trkpt lat="47.33983" lon="0.03531">
        <ele>98</ele>
        <time>2011-11-25T13:50:52Z</time>
      </trkpt>
      <trkpt lat="47.33987" lon="0.03528">
        <ele>98</ele>
        <time>2011-11-25T13:50:55Z</time>
      </trkpt>
      <trkpt lat="47.33992" lon="0.03524">
        <ele>98</ele>
        <time>2011-11-25T13:50:59Z</time>
      </trkpt>
      <trkpt lat="47.33997" lon="0.03522">
        <ele>98</ele>
        <time>2011-11-25T13:51:03Z</time>
      </trkpt>
      <trkpt lat="47.34002" lon="0.03518">
        <ele>98</ele>
        <time>2011-11-25T13:51:07Z</time>
      </trkpt>
      <trkpt lat="47.34007" lon="0.03512">
        <ele>98</ele>
        <time>2011-11-25T13:51:11Z</time>
      </trkpt>
      <trkpt lat="47.3401" lon="0.03508">
        <ele>99</ele>
        <time>2011-11-25T13:51:14Z</time>
      </trkpt>
      <trkpt lat="47.34014" lon="0.03502">
        <ele>99</ele>
        <time>2011-11-25T13:51:17Z</time>
      </trkpt>
      <trkpt lat="47.34017" lon="0.03497">
        <ele>99</ele>
        <time>2011-11-25T13:51:20Z</time>
      </trkpt>
      <trkpt lat="47.3402" lon="0.03492">
        <ele>99</ele>
        <time>2011-11-25T13:51:23Z</time>
      </trkpt>
      <trkpt lat="47.34024" lon="0.03485">
        <ele>99</ele>
        <time>2011-11-25T13:51:27Z</time>
      </trkpt>
      <trkpt lat="47.34026" lon="0.03478">
        <ele>99</ele>
        <time>2011-11-25T13:51:31Z</time>
      </trkpt>
      <trkpt lat="47.34028" lon="0.03472">
        <ele>100</ele>
        <time>2011-11-25T13:51:35Z</time>
      </trkpt>
      <trkpt lat="47.34031" lon="0.03466">
        <ele>100</ele>
        <time>2011-11-25T13:51:39Z</time>
      </trkpt>
      <trkpt lat="47.34035" lon="0.03461">
        <ele>100</ele>
        <time>2011-11-25T13:51:43Z</time>
      </trkpt>
      <trkpt lat="47.34038" lon="0.03456">
        <ele>100</ele>
        <time>2011-11-25T13:51:47Z</time>
      </trkpt>
      <trkpt lat="47.34041" lon="0.03451">
        <ele>100</ele>
        <time>2011-11-25T13:51:51Z</time>
      </trkpt>
      <trkpt lat="47.34045" lon="0.03445">
        <ele>100</ele>
        <time>2011-11-25T13:51:56Z</time>
      </trkpt>
      <trkpt lat="47.34049" lon="0.0344">
        <ele>100</ele>
        <time>2011-11-25T13:52:01Z</time>
      </trkpt>
      <trkpt lat="47.34054" lon="0.03436">
        <ele>100</ele>
        <time>2011-11-25T13:52:06Z</time>
      </trkpt>
      <trkpt lat="47.34058" lon="0.03432">
        <ele>100</ele>
        <time>2011-11-25T13:52:11Z</time>
      </trkpt>
      <trkpt lat="47.34063" lon="0.03431">
        <ele>100</ele>
        <time>2011-11-25T13:52:21Z</time>
      </trkpt>
      <trkpt lat="47.34067" lon="0.03428">
        <ele>100</ele>
        <time>2011-11-25T13:52:29Z</time>
      </trkpt>
      <trkpt lat="47.34071" lon="0.03424">
        <ele>100</ele>
        <time>2011-11-25T13:52:37Z</time>
      </trkpt>
      <trkpt lat="47.34074" lon="0.03419">
        <ele>100</ele>
        <time>2011-11-25T13:52:42Z</time>
      </trkpt>
      <trkpt lat="47.34077" lon="0.03412">
        <ele>100</ele>
        <time>2011-11-25T13:52:46Z</time>
      </trkpt>
      <trkpt lat="47.34081" lon="0.03406">
        <ele>99</ele>
        <time>2011-11-25T13:52:50Z</time>
      </trkpt>
      <trkpt lat="47.34084" lon="0.03399">
        <ele>99</ele>
        <time>2011-11-25T13:52:54Z</time>
      </trkpt>
      <trkpt lat="47.34088" lon="0.03392">
        <ele>99</ele>
        <time>2011-11-25T13:52:57Z</time>
      </trkpt>
      <trkpt lat="47.34091" lon="0.03386">
        <ele>99</ele>
        <time>2011-11-25T13:53:00Z</time>
      </trkpt>
      <trkpt lat="47.34095" lon="0.03381">
        <ele>99</ele>
        <time>2011-11-25T13:53:03Z</time>
      </trkpt>
      <trkpt lat="47.34098" lon="0.03376">
        <ele>99</ele>
        <time>2011-11-25T13:53:06Z</time>
      </trkpt>
      <trkpt lat="47.34101" lon="0.03372">
        <ele>99</ele>
        <time>2011-11-25T13:53:09Z</time>
      </trkpt>
      <trkpt lat="47.34105" lon="0.03366">
        <ele>99</ele>
        <time>2011-11-25T13:53:14Z</time>
      </trkpt>
      <trkpt lat="47.34109" lon="0.03362">
        <ele>99</ele>
        <time>2011-11-25T13:53:18Z</time>
      </trkpt>
      <trkpt lat="47.34113" lon="0.03358">
        <ele>99</ele>
        <time>2011-11-25T13:53:22Z</time>
      </trkpt>
      <trkpt lat="47.34117" lon="0.03353">
        <ele>99</ele>
        <time>2011-11-25T13:53:26Z</time>
      </trkpt>
      <trkpt lat="47.34121" lon="0.03347">
        <ele>99</ele>
        <time>2011-11-25T13:53:30Z</time>
      </trkpt>
      <trkpt lat="47.34125" lon="0.03342">
        <ele>99</ele>
        <time>2011-11-25T13:53:34Z</time>
      </trkpt>
      <trkpt lat="47.3413" lon="0.03337">
        <ele>100</ele>
        <time>2011-11-25T13:53:38Z</time>
      </trkpt>
      <trkpt lat="47.34134" lon="0.03333">
        <ele>100</ele>
        <time>2011-11-25T13:53:42Z</time>
      </trkpt>
      <trkpt lat="47.34138" lon="0.03328">
        <ele>100</ele>
        <time>2011-11-25T13:53:46Z</time>
      </trkpt>
      <trkpt lat="47.34142" lon="0.03322">
        <ele>100</ele>
        <time>2011-11-25T13:53:50Z</time>
      </trkpt>
      <trkpt lat="47.34146" lon="0.03316">
        <ele>100</ele>
        <time>2011-11-25T13:53:54Z</time>
      </trkpt>
      <trkpt lat="47.3415" lon="0.03311">
        <ele>101</ele>
        <time>2011-11-25T13:53:58Z</time>
      </trkpt>
      <trkpt lat="47.34154" lon="0.03305">
        <ele>101</ele>
        <time>2011-11-25T13:54:02Z</time>
      </trkpt>
      <trkpt lat="47.34158" lon="0.033">
        <ele>101</ele>
        <time>2011-11-25T13:54:06Z</time>
      </trkpt>
      <trkpt lat="47.34161" lon="0.03295">
        <ele>101</ele>
        <time>2011-11-25T13:54:10Z</time>
      </trkpt>
      <trkpt lat="47.34165" lon="0.0329">
        <ele>102</ele>
        <time>2011-11-25T13:54:14Z</time>
      </trkpt>
      <trkpt lat="47.34168" lon="0.03285">
        <ele>102</ele>
        <time>2011-11-25T13:54:18Z</time>
      </trkpt>
      <trkpt lat="47.34173" lon="0.03281">
        <ele>102</ele>
        <time>2011-11-25T13:54:22Z</time>
      </trkpt>
      <trkpt lat="47.34177" lon="0.03276">
        <ele>102</ele>
        <time>2011-11-25T13:54:26Z</time>
      </trkpt>
      <trkpt lat="47.3418" lon="0.0327">
        <ele>102</ele>
        <time>2011-11-25T13:54:30Z</time>
      </trkpt>
      <trkpt lat="47.34183" lon="0.03265">
        <ele>102</ele>
        <time>2011-11-25T13:54:34Z</time>
      </trkpt>
      <trkpt lat="47.34186" lon="0.0326">
        <ele>103</ele>
        <time>2011-11-25T13:54:38Z</time>
      </trkpt>
      <trkpt lat="47.34189" lon="0.03255">
        <ele>103</ele>
        <time>2011-11-25T13:54:47Z</time>
      </trkpt>
      <trkpt lat="47.34193" lon="0.03249">
        <ele>102</ele>
        <time>2011-11-25T13:54:53Z</time>
      </trkpt>
      <trkpt lat="47.34196" lon="0.03243">
        <ele>102</ele>
        <time>2011-11-25T13:55:00Z</time>
      </trkpt>
      <trkpt lat="47.34198" lon="0.03237">
        <ele>101</ele>
        <time>2011-11-25T13:55:06Z</time>
      </trkpt>
      <trkpt lat="47.342" lon="0.03231">
        <ele>101</ele>
        <time>2011-11-25T13:55:11Z</time>
      </trkpt>
      <trkpt lat="47.34204" lon="0.03224">
        <ele>100</ele>
        <time>2011-11-25T13:55:16Z</time>
      </trkpt>
      <trkpt lat="47.34208" lon="0.03218">
        <ele>100</ele>
        <time>2011-11-25T13:55:20Z</time>
      </trkpt>
      <trkpt lat="47.34212" lon="0.03214">
        <ele>100</ele>
        <time>2011-11-25T13:55:23Z</time>
      </trkpt>
      <trkpt lat="47.34216" lon="0.03208">
        <ele>100</ele>
        <time>2011-11-25T13:55:27Z</time>
      </trkpt>
      <trkpt lat="47.3422" lon="0.03204">
        <ele>100</ele>
        <time>2011-11-25T13:55:31Z</time>
      </trkpt>
      <trkpt lat="47.34225" lon="0.03201">
        <ele>100</ele>
        <time>2011-11-25T13:55:34Z</time>
      </trkpt>
      <trkpt lat="47.34231" lon="0.03197">
        <ele>100</ele>
        <time>2011-11-25T13:55:37Z</time>
      </trkpt>
      <trkpt lat="47.34236" lon="0.03192">
        <ele>100</ele>
        <time>2011-11-25T13:55:40Z</time>
      </trkpt>
      <trkpt lat="47.3424" lon="0.03187">
        <ele>100</ele>
        <time>2011-11-25T13:55:43Z</time>
      </trkpt>
      <trkpt lat="47.34243" lon="0.03182">
        <ele>100</ele>
        <time>2011-11-25T13:55:46Z</time>
      </trkpt>
      <trkpt lat="47.34247" lon="0.03176">
        <ele>100</ele>
        <time>2011-11-25T13:55:50Z</time>
      </trkpt>
      <trkpt lat="47.3425" lon="0.0317">
        <ele>100</ele>
        <time>2011-11-25T13:55:54Z</time>
      </trkpt>
      <trkpt lat="47.34253" lon="0.03165">
        <ele>100</ele>
        <time>2011-11-25T13:55:59Z</time>
      </trkpt>
      <trkpt lat="47.34256" lon="0.0316">
        <ele>100</ele>
        <time>2011-11-25T13:56:04Z</time>
      </trkpt>
      <trkpt lat="47.3426" lon="0.03154">
        <ele>101</ele>
        <time>2011-11-25T13:56:09Z</time>
      </trkpt>
      <trkpt lat="47.34264" lon="0.03149">
        <ele>101</ele>
        <time>2011-11-25T13:56:13Z</time>
      </trkpt>
      <trkpt lat="47.34268" lon="0.03144">
        <ele>101</ele>
        <time>2011-11-25T13:56:17Z</time>
      </trkpt>
      <trkpt lat="47.34272" lon="0.03139">
        <ele>101</ele>
        <time>2011-11-25T13:56:20Z</time>
      </trkpt>
      <trkpt lat="47.34275" lon="0.03134">
        <ele>101</ele>
        <time>2011-11-25T13:56:23Z</time>
      </trkpt>
      <trkpt lat="47.34279" lon="0.03127">
        <ele>101</ele>
        <time>2011-11-25T13:56:27Z</time>
      </trkpt>
      <trkpt lat="47.34282" lon="0.03122">
        <ele>101</ele>
        <time>2011-11-25T13:56:31Z</time>
      </trkpt>
      <trkpt lat="47.34285" lon="0.03115">
        <ele>101</ele>
        <time>2011-11-25T13:56:35Z</time>
      </trkpt>
      <trkpt lat="47.34288" lon="0.0311">
        <ele>102</ele>
        <time>2011-11-25T13:56:39Z</time>
      </trkpt>
      <trkpt lat="47.34292" lon="0.03102">
        <ele>102</ele>
        <time>2011-11-25T13:56:43Z</time>
      </trkpt>
      <trkpt lat="47.34293" lon="0.03095">
        <ele>102</ele>
        <time>2011-11-25T13:56:49Z</time>
      </trkpt>
      <trkpt lat="47.34295" lon="0.03088">
        <ele>102</ele>
        <time>2011-11-25T13:56:55Z</time>
      </trkpt>
      <trkpt lat="47.34297" lon="0.03083">
        <ele>102</ele>
        <time>2011-11-25T13:57:01Z</time>
      </trkpt>
      <trkpt lat="47.34301" lon="0.03078">
        <ele>102</ele>
        <time>2011-11-25T13:57:06Z</time>
      </trkpt>
      <trkpt lat="47.34304" lon="0.03074">
        <ele>101</ele>
        <time>2011-11-25T13:57:09Z</time>
      </trkpt>
      <trkpt lat="47.34309" lon="0.03069">
        <ele>101</ele>
        <time>2011-11-25T13:57:14Z</time>
      </trkpt>
      <trkpt lat="47.34312" lon="0.03064">
        <ele>101</ele>
        <time>2011-11-25T13:57:18Z</time>
      </trkpt>
      <trkpt lat="47.34316" lon="0.03058">
        <ele>101</ele>
        <time>2011-11-25T13:57:22Z</time>
      </trkpt>
      <trkpt lat="47.3432" lon="0.03053">
        <ele>101</ele>
        <time>2011-11-25T13:57:26Z</time>
      </trkpt>
      <trkpt lat="47.34324" lon="0.03048">
        <ele>101</ele>
        <time>2011-11-25T13:57:30Z</time>
      </trkpt>
      <trkpt lat="47.34327" lon="0.03043">
        <ele>100</ele>
        <time>2011-11-25T13:57:34Z</time>
      </trkpt>
      <trkpt lat="47.3433" lon="0.03036">
        <ele>100</ele>
        <time>2011-11-25T13:57:38Z</time>
      </trkpt>
      <trkpt lat="47.34331" lon="0.03028">
        <ele>100</ele>
        <time>2011-11-25T13:57:41Z</time>
      </trkpt>
      <trkpt lat="47.34331" lon="0.0302">
        <ele>100</ele>
        <time>2011-11-25T13:57:44Z</time>
      </trkpt>
      <trkpt lat="47.34333" lon="0.03026">
        <ele>103</ele>
        <time>2011-11-25T13:58:13Z</time>
      </trkpt>
      <trkpt lat="47.34329" lon="0.03021">
        <ele>104</ele>
        <time>2011-11-25T13:58:55Z</time>
      </trkpt>
      <trkpt lat="47.34328" lon="0.03014">
        <ele>104</ele>
        <time>2011-11-25T13:58:58Z</time>
      </trkpt>
      <trkpt lat="47.34326" lon="0.03007">
        <ele>104</ele>
        <time>2011-11-25T13:59:02Z</time>
      </trkpt>
      <trkpt lat="47.34327" lon="0.03">
        <ele>104</ele>
        <time>2011-11-25T13:59:10Z</time>
      </trkpt>
      <trkpt lat="47.34328" lon="0.02993">
        <ele>104</ele>
        <time>2011-11-25T13:59:17Z</time>
      </trkpt>
      <trkpt lat="47.34324" lon="0.02992">
        <ele>105</ele>
        <time>2011-11-25T13:59:31Z</time>
      </trkpt>
      <trkpt lat="47.34325" lon="0.02999">
        <ele>105</ele>
        <time>2011-11-25T13:59:41Z</time>
      </trkpt>
      <trkpt lat="47.34327" lon="0.03005">
        <ele>105</ele>
        <time>2011-11-25T13:59:48Z</time>
      </trkpt>
      <trkpt lat="47.34328" lon="0.03012">
        <ele>106</ele>
        <time>2011-11-25T13:59:59Z</time>
      </trkpt>
      <trkpt lat="47.34329" lon="0.03018">
        <ele>107</ele>
        <time>2011-11-25T14:00:38Z</time>
      </trkpt>
      <trkpt lat="47.34326" lon="0.03013">
        <ele>108</ele>
        <time>2011-11-25T14:01:45Z</time>
      </trkpt>
      <trkpt lat="47.34322" lon="0.0301">
        <ele>108</ele>
        <time>2011-11-25T14:01:51Z</time>
      </trkpt>
      <trkpt lat="47.34317" lon="0.03006">
        <ele>108</ele>
        <time>2011-11-25T14:01:56Z</time>
      </trkpt>
      <trkpt lat="47.34312" lon="0.03001">
        <ele>109</ele>
        <time>2011-11-25T14:02:00Z</time>
      </trkpt>
      <trkpt lat="47.34309" lon="0.02996">
        <ele>109</ele>
        <time>2011-11-25T14:02:03Z</time>
      </trkpt>
      <trkpt lat="47.34305" lon="0.02992">
        <ele>109</ele>
        <time>2011-11-25T14:02:06Z</time>
      </trkpt>
      <trkpt lat="47.34301" lon="0.02989">
        <ele>110</ele>
        <time>2011-11-25T14:02:09Z</time>
      </trkpt>
      <trkpt lat="47.34296" lon="0.02985">
        <ele>110</ele>
        <time>2011-11-25T14:02:12Z</time>
      </trkpt>
      <trkpt lat="47.34292" lon="0.02982">
        <ele>110</ele>
        <time>2011-11-25T14:02:15Z</time>
      </trkpt>
      <trkpt lat="47.34287" lon="0.0298">
        <ele>111</ele>
        <time>2011-11-25T14:02:19Z</time>
      </trkpt>
      <trkpt lat="47.34282" lon="0.02976">
        <ele>111</ele>
        <time>2011-11-25T14:02:24Z</time>
      </trkpt>
      <trkpt lat="47.34278" lon="0.02972">
        <ele>111</ele>
        <time>2011-11-25T14:02:31Z</time>
      </trkpt>
      <trkpt lat="47.34274" lon="0.02969">
        <ele>112</ele>
        <time>2011-11-25T14:02:37Z</time>
      </trkpt>
      <trkpt lat="47.34269" lon="0.02966">
        <ele>112</ele>
        <time>2011-11-25T14:02:42Z</time>
      </trkpt>
      <trkpt lat="47.34265" lon="0.02963">
        <ele>112</ele>
        <time>2011-11-25T14:02:47Z</time>
      </trkpt>
      <trkpt lat="47.3426" lon="0.02959">
        <ele>112</ele>
        <time>2011-11-25T14:02:51Z</time>
      </trkpt>
      <trkpt lat="47.34256" lon="0.02956">
        <ele>113</ele>
        <time>2011-11-25T14:02:54Z</time>
      </trkpt>
      <trkpt lat="47.34251" lon="0.02952">
        <ele>113</ele>
        <time>2011-11-25T14:03:02Z</time>
      </trkpt>
      <trkpt lat="47.34247" lon="0.02948">
        <ele>113</ele>
        <time>2011-11-25T14:03:08Z</time>
      </trkpt>
      <trkpt lat="47.34243" lon="0.02944">
        <ele>113</ele>
        <time>2011-11-25T14:03:13Z</time>
      </trkpt>
      <trkpt lat="47.34239" lon="0.02939">
        <ele>113</ele>
        <time>2011-11-25T14:03:17Z</time>
      </trkpt>
      <trkpt lat="47.34235" lon="0.02935">
        <ele>113</ele>
        <time>2011-11-25T14:03:21Z</time>
      </trkpt>
      <trkpt lat="47.3423" lon="0.02929">
        <ele>113</ele>
        <time>2011-11-25T14:03:25Z</time>
      </trkpt>
      <trkpt lat="47.34226" lon="0.02925">
        <ele>113</ele>
        <time>2011-11-25T14:03:28Z</time>
      </trkpt>
      <trkpt lat="47.34221" lon="0.0292">
        <ele>113</ele>
        <time>2011-11-25T14:03:32Z</time>
      </trkpt>
      <trkpt lat="47.34217" lon="0.02916">
        <ele>113</ele>
        <time>2011-11-25T14:03:36Z</time>
      </trkpt>
      <trkpt lat="47.34213" lon="0.02912">
        <ele>113</ele>
        <time>2011-11-25T14:03:40Z</time>
      </trkpt>
      <trkpt lat="47.34209" lon="0.02908">
        <ele>113</ele>
        <time>2011-11-25T14:03:44Z</time>
      </trkpt>
      <trkpt lat="47.34205" lon="0.02904">
        <ele>114</ele>
        <time>2011-11-25T14:03:48Z</time>
      </trkpt>
      <trkpt lat="47.342" lon="0.029">
        <ele>114</ele>
        <time>2011-11-25T14:03:53Z</time>
      </trkpt>
      <trkpt lat="47.34195" lon="0.02896">
        <ele>114</ele>
        <time>2011-11-25T14:03:57Z</time>
      </trkpt>
      <trkpt lat="47.3419" lon="0.02892">
        <ele>114</ele>
        <time>2011-11-25T14:04:01Z</time>
      </trkpt>
      <trkpt lat="47.34186" lon="0.02889">
        <ele>114</ele>
        <time>2011-11-25T14:04:05Z</time>
      </trkpt>
      <trkpt lat="47.34181" lon="0.02886">
        <ele>114</ele>
        <time>2011-11-25T14:04:09Z</time>
      </trkpt>
      <trkpt lat="47.34177" lon="0.02882">
        <ele>114</ele>
        <time>2011-11-25T14:04:16Z</time>
      </trkpt>
      <trkpt lat="47.34172" lon="0.02879">
        <ele>114</ele>
        <time>2011-11-25T14:04:22Z</time>
      </trkpt>
      <trkpt lat="47.34167" lon="0.02875">
        <ele>114</ele>
        <time>2011-11-25T14:04:28Z</time>
      </trkpt>
      <trkpt lat="47.34163" lon="0.02872">
        <ele>115</ele>
        <time>2011-11-25T14:04:32Z</time>
      </trkpt>
      <trkpt lat="47.34158" lon="0.0287">
        <ele>115</ele>
        <time>2011-11-25T14:04:37Z</time>
      </trkpt>
      <trkpt lat="47.34153" lon="0.02868">
        <ele>115</ele>
        <time>2011-11-25T14:04:41Z</time>
      </trkpt>
      <trkpt lat="47.34148" lon="0.02866">
        <ele>115</ele>
        <time>2011-11-25T14:04:45Z</time>
      </trkpt>
      <trkpt lat="47.34143" lon="0.02863">
        <ele>115</ele>
        <time>2011-11-25T14:04:49Z</time>
      </trkpt>
      <trkpt lat="47.34138" lon="0.0286">
        <ele>114</ele>
        <time>2011-11-25T14:04:54Z</time>
      </trkpt>
      <trkpt lat="47.34134" lon="0.02856">
        <ele>114</ele>
        <time>2011-11-25T14:04:58Z</time>
      </trkpt>
      <trkpt lat="47.3413" lon="0.02852">
        <ele>114</ele>
        <time>2011-11-25T14:05:02Z</time>
      </trkpt>
      <trkpt lat="47.34125" lon="0.02849">
        <ele>114</ele>
        <time>2011-11-25T14:05:05Z</time>
      </trkpt>
      <trkpt lat="47.34121" lon="0.02846">
        <ele>114</ele>
        <time>2011-11-25T14:05:08Z</time>
      </trkpt>
      <trkpt lat="47.34117" lon="0.02842">
        <ele>114</ele>
        <time>2011-11-25T14:05:11Z</time>
      </trkpt>
      <trkpt lat="47.34113" lon="0.02839">
        <ele>114</ele>
        <time>2011-11-25T14:05:14Z</time>
      </trkpt>
      <trkpt lat="47.34109" lon="0.02836">
        <ele>114</ele>
        <time>2011-11-25T14:05:17Z</time>
      </trkpt>
      <trkpt lat="47.34104" lon="0.02831">
        <ele>114</ele>
        <time>2011-11-25T14:05:21Z</time>
      </trkpt>
      <trkpt lat="47.34099" lon="0.02826">
        <ele>114</ele>
        <time>2011-11-25T14:05:25Z</time>
      </trkpt>
      <trkpt lat="47.34094" lon="0.02822">
        <ele>114</ele>
        <time>2011-11-25T14:05:29Z</time>
      </trkpt>
      <trkpt lat="47.34089" lon="0.02818">
        <ele>114</ele>
        <time>2011-11-25T14:05:33Z</time>
      </trkpt>
      <trkpt lat="47.34084" lon="0.02815">
        <ele>114</ele>
        <time>2011-11-25T14:05:37Z</time>
      </trkpt>
      <trkpt lat="47.34079" lon="0.0281">
        <ele>114</ele>
        <time>2011-11-25T14:05:41Z</time>
      </trkpt>
      <trkpt lat="47.34073" lon="0.02806">
        <ele>114</ele>
        <time>2011-11-25T14:05:45Z</time>
      </trkpt>
      <trkpt lat="47.34069" lon="0.02803">
        <ele>114</ele>
        <time>2011-11-25T14:05:48Z</time>
      </trkpt>
      <trkpt lat="47.34063" lon="0.02799">
        <ele>114</ele>
        <time>2011-11-25T14:05:52Z</time>
      </trkpt>
      <trkpt lat="47.34058" lon="0.02795">
        <ele>114</ele>
        <time>2011-11-25T14:05:56Z</time>
      </trkpt>
      <trkpt lat="47.34053" lon="0.02792">
        <ele>114</ele>
        <time>2011-11-25T14:06:05Z</time>
      </trkpt>
      <trkpt lat="47.34049" lon="0.02789">
        <ele>114</ele>
        <time>2011-11-25T14:06:10Z</time>
      </trkpt>
      <trkpt lat="47.34044" lon="0.02786">
        <ele>114</ele>
        <time>2011-11-25T14:06:14Z</time>
      </trkpt>
      <trkpt lat="47.3404" lon="0.02782">
        <ele>114</ele>
        <time>2011-11-25T14:06:18Z</time>
      </trkpt>
      <trkpt lat="47.34036" lon="0.02778">
        <ele>114</ele>
        <time>2011-11-25T14:06:23Z</time>
      </trkpt>
      <trkpt lat="47.34032" lon="0.02775">
        <ele>114</ele>
        <time>2011-11-25T14:06:28Z</time>
      </trkpt>
      <trkpt lat="47.34027" lon="0.02772">
        <ele>114</ele>
        <time>2011-11-25T14:06:33Z</time>
      </trkpt>
      <trkpt lat="47.34023" lon="0.02769">
        <ele>114</ele>
        <time>2011-11-25T14:06:37Z</time>
      </trkpt>
      <trkpt lat="47.34018" lon="0.02766">
        <ele>114</ele>
        <time>2011-11-25T14:06:41Z</time>
      </trkpt>
      <trkpt lat="47.34013" lon="0.02763">
        <ele>114</ele>
        <time>2011-11-25T14:06:45Z</time>
      </trkpt>
      <trkpt lat="47.34008" lon="0.02759">
        <ele>114</ele>
        <time>2011-11-25T14:06:49Z</time>
      </trkpt>
      <trkpt lat="47.34004" lon="0.02755">
        <ele>114</ele>
        <time>2011-11-25T14:06:53Z</time>
      </trkpt>
      <trkpt lat="47.34" lon="0.02751">
        <ele>115</ele>
        <time>2011-11-25T14:06:57Z</time>
      </trkpt>
      <trkpt lat="47.33996" lon="0.02746">
        <ele>115</ele>
        <time>2011-11-25T14:07:01Z</time>
      </trkpt>
      <trkpt lat="47.33992" lon="0.02742">
        <ele>115</ele>
        <time>2011-11-25T14:07:05Z</time>
      </trkpt>
      <trkpt lat="47.33988" lon="0.02737">
        <ele>115</ele>
        <time>2011-11-25T14:07:09Z</time>
      </trkpt>
      <trkpt lat="47.33984" lon="0.02732">
        <ele>115</ele>
        <time>2011-11-25T14:07:13Z</time>
      </trkpt>
      <trkpt lat="47.3398" lon="0.02728">
        <ele>115</ele>
        <time>2011-11-25T14:07:17Z</time>
      </trkpt>
      <trkpt lat="47.33975" lon="0.02724">
        <ele>115</ele>
        <time>2011-11-25T14:07:21Z</time>
      </trkpt>
      <trkpt lat="47.33972" lon="0.0272">
        <ele>115</ele>
        <time>2011-11-25T14:07:27Z</time>
      </trkpt>
      <trkpt lat="47.33967" lon="0.02716">
        <ele>115</ele>
        <time>2011-11-25T14:07:34Z</time>
      </trkpt>
      <trkpt lat="47.33962" lon="0.02714">
        <ele>115</ele>
        <time>2011-11-25T14:07:38Z</time>
      </trkpt>
      <trkpt lat="47.33958" lon="0.02711">
        <ele>115</ele>
        <time>2011-11-25T14:07:41Z</time>
      </trkpt>
      <trkpt lat="47.33953" lon="0.02709">
        <ele>115</ele>
        <time>2011-11-25T14:07:44Z</time>
      </trkpt>
      <trkpt lat="47.33948" lon="0.02706">
        <ele>115</ele>
        <time>2011-11-25T14:07:48Z</time>
      </trkpt>
      <trkpt lat="47.33943" lon="0.02703">
        <ele>116</ele>
        <time>2011-11-25T14:07:52Z</time>
      </trkpt>
      <trkpt lat="47.33938" lon="0.027">
        <ele>116</ele>
        <time>2011-11-25T14:07:59Z</time>
      </trkpt>
      <trkpt lat="47.33933" lon="0.02696">
        <ele>116</ele>
        <time>2011-11-25T14:08:05Z</time>
      </trkpt>
      <trkpt lat="47.33928" lon="0.02696">
        <ele>116</ele>
        <time>2011-11-25T14:08:10Z</time>
      </trkpt>
      <trkpt lat="47.33924" lon="0.02695">
        <ele>116</ele>
        <time>2011-11-25T14:08:14Z</time>
      </trkpt>
      <trkpt lat="47.33918" lon="0.02696">
        <ele>116</ele>
        <time>2011-11-25T14:08:20Z</time>
      </trkpt>
      <trkpt lat="47.33914" lon="0.027">
        <ele>116</ele>
        <time>2011-11-25T14:08:27Z</time>
      </trkpt>
      <trkpt lat="47.33914" lon="0.02707">
        <ele>116</ele>
        <time>2011-11-25T14:08:47Z</time>
      </trkpt>
      <trkpt lat="47.33909" lon="0.02706">
        <ele>115</ele>
        <time>2011-11-25T14:09:21Z</time>
      </trkpt>
      <trkpt lat="47.3391" lon="0.02699">
        <ele>115</ele>
        <time>2011-11-25T14:09:35Z</time>
      </trkpt>
      <trkpt lat="47.3391" lon="0.02691">
        <ele>115</ele>
        <time>2011-11-25T14:09:42Z</time>
      </trkpt>
      <trkpt lat="47.33909" lon="0.02684">
        <ele>115</ele>
        <time>2011-11-25T14:09:49Z</time>
      </trkpt>
      <trkpt lat="47.33906" lon="0.02677">
        <ele>115</ele>
        <time>2011-11-25T14:09:55Z</time>
      </trkpt>
      <trkpt lat="47.33904" lon="0.02669">
        <ele>115</ele>
        <time>2011-11-25T14:10:01Z</time>
      </trkpt>
      <trkpt lat="47.33903" lon="0.02662">
        <ele>115</ele>
        <time>2011-11-25T14:10:05Z</time>
      </trkpt>
      <trkpt lat="47.339" lon="0.02654">
        <ele>115</ele>
        <time>2011-11-25T14:10:09Z</time>
      </trkpt>
      <trkpt lat="47.33897" lon="0.02648">
        <ele>115</ele>
        <time>2011-11-25T14:10:12Z</time>
      </trkpt>
      <trkpt lat="47.33894" lon="0.02643">
        <ele>115</ele>
        <time>2011-11-25T14:10:15Z</time>
      </trkpt>
      <trkpt lat="47.33891" lon="0.02637">
        <ele>115</ele>
        <time>2011-11-25T14:10:19Z</time>
      </trkpt>
      <trkpt lat="47.33888" lon="0.02631">
        <ele>115</ele>
        <time>2011-11-25T14:10:23Z</time>
      </trkpt>
      <trkpt lat="47.33885" lon="0.02625">
        <ele>115</ele>
        <time>2011-11-25T14:10:27Z</time>
      </trkpt>
      <trkpt lat="47.33882" lon="0.02618">
        <ele>115</ele>
        <time>2011-11-25T14:10:32Z</time>
      </trkpt>
      <trkpt lat="47.3388" lon="0.0261">
        <ele>116</ele>
        <time>2011-11-25T14:10:37Z</time>
      </trkpt>
      <trkpt lat="47.33878" lon="0.02603">
        <ele>116</ele>
        <time>2011-11-25T14:10:42Z</time>
      </trkpt>
      <trkpt lat="47.33876" lon="0.02596">
        <ele>116</ele>
        <time>2011-11-25T14:10:47Z</time>
      </trkpt>
      <trkpt lat="47.33872" lon="0.02592">
        <ele>116</ele>
        <time>2011-11-25T14:10:51Z</time>
      </trkpt>
      <trkpt lat="47.33868" lon="0.02589">
        <ele>116</ele>
        <time>2011-11-25T14:10:54Z</time>
      </trkpt>
      <trkpt lat="47.33863" lon="0.02586">
        <ele>116</ele>
        <time>2011-11-25T14:10:57Z</time>
      </trkpt>
      <trkpt lat="47.33858" lon="0.02583">
        <ele>116</ele>
        <time>2011-11-25T14:11:01Z</time>
      </trkpt>
      <trkpt lat="47.33856" lon="0.0259">
        <ele>116</ele>
        <time>2011-11-25T14:11:20Z</time>
      </trkpt>
      <trkpt lat="47.33859" lon="0.02595">
        <ele>116</ele>
        <time>2011-11-25T14:11:27Z</time>
      </trkpt>
      <trkpt lat="47.33859" lon="0.02587">
        <ele>116</ele>
        <time>2011-11-25T14:11:53Z</time>
      </trkpt>
      <trkpt lat="47.33859" lon="0.02581">
        <ele>116</ele>
        <time>2011-11-25T14:12:00Z</time>
      </trkpt>
      <trkpt lat="47.33858" lon="0.02574">
        <ele>116</ele>
        <time>2011-11-25T14:12:06Z</time>
      </trkpt>
      <trkpt lat="47.33855" lon="0.02568">
        <ele>116</ele>
        <time>2011-11-25T14:12:12Z</time>
      </trkpt>
      <trkpt lat="47.33852" lon="0.02562">
        <ele>116</ele>
        <time>2011-11-25T14:12:18Z</time>
      </trkpt>
      <trkpt lat="47.33848" lon="0.02558">
        <ele>115</ele>
        <time>2011-11-25T14:12:24Z</time>
      </trkpt>
      <trkpt lat="47.33844" lon="0.02553">
        <ele>115</ele>
        <time>2011-11-25T14:12:32Z</time>
      </trkpt>
      <trkpt lat="47.3384" lon="0.0255">
        <ele>115</ele>
        <time>2011-11-25T14:12:38Z</time>
      </trkpt>
      <trkpt lat="47.33836" lon="0.02546">
        <ele>115</ele>
        <time>2011-11-25T14:12:43Z</time>
      </trkpt>
      <trkpt lat="47.33831" lon="0.02542">
        <ele>115</ele>
        <time>2011-11-25T14:12:48Z</time>
      </trkpt>
      <trkpt lat="47.33826" lon="0.02537">
        <ele>115</ele>
        <time>2011-11-25T14:12:53Z</time>
      </trkpt>
      <trkpt lat="47.33823" lon="0.02532">
        <ele>115</ele>
        <time>2011-11-25T14:12:58Z</time>
      </trkpt>
      <trkpt lat="47.33821" lon="0.02526">
        <ele>115</ele>
        <time>2011-11-25T14:13:02Z</time>
      </trkpt>
      <trkpt lat="47.33818" lon="0.02521">
        <ele>115</ele>
        <time>2011-11-25T14:13:06Z</time>
      </trkpt>
      <trkpt lat="47.33814" lon="0.02516">
        <ele>115</ele>
        <time>2011-11-25T14:13:10Z</time>
      </trkpt>
      <trkpt lat="47.3381" lon="0.02511">
        <ele>115</ele>
        <time>2011-11-25T14:13:14Z</time>
      </trkpt>
      <trkpt lat="47.33806" lon="0.02506">
        <ele>115</ele>
        <time>2011-11-25T14:13:18Z</time>
      </trkpt>
      <trkpt lat="47.33801" lon="0.02502">
        <ele>115</ele>
        <time>2011-11-25T14:13:22Z</time>
      </trkpt>
      <trkpt lat="47.33796" lon="0.02498">
        <ele>115</ele>
        <time>2011-11-25T14:13:26Z</time>
      </trkpt>
      <trkpt lat="47.33792" lon="0.02494">
        <ele>115</ele>
        <time>2011-11-25T14:13:30Z</time>
      </trkpt>
      <trkpt lat="47.33788" lon="0.02489">
        <ele>116</ele>
        <time>2011-11-25T14:13:35Z</time>
      </trkpt>
      <trkpt lat="47.33785" lon="0.02485">
        <ele>116</ele>
        <time>2011-11-25T14:13:40Z</time>
      </trkpt>
      <trkpt lat="47.33781" lon="0.02479">
        <ele>116</ele>
        <time>2011-11-25T14:13:45Z</time>
      </trkpt>
      <trkpt lat="47.33778" lon="0.02474">
        <ele>116</ele>
        <time>2011-11-25T14:13:49Z</time>
      </trkpt>
      <trkpt lat="47.33773" lon="0.02469">
        <ele>116</ele>
        <time>2011-11-25T14:13:54Z</time>
      </trkpt>
      <trkpt lat="47.33769" lon="0.02465">
        <ele>116</ele>
        <time>2011-11-25T14:13:59Z</time>
      </trkpt>
      <trkpt lat="47.33764" lon="0.02459">
        <ele>116</ele>
        <time>2011-11-25T14:14:04Z</time>
      </trkpt>
      <trkpt lat="47.3376" lon="0.02454">
        <ele>116</ele>
        <time>2011-11-25T14:14:09Z</time>
      </trkpt>
      <trkpt lat="47.33758" lon="0.02448">
        <ele>116</ele>
        <time>2011-11-25T14:14:16Z</time>
      </trkpt>
      <trkpt lat="47.33755" lon="0.02442">
        <ele>116</ele>
        <time>2011-11-25T14:14:24Z</time>
      </trkpt>
      <trkpt lat="47.33752" lon="0.02435">
        <ele>116</ele>
        <time>2011-11-25T14:14:30Z</time>
      </trkpt>
      <trkpt lat="47.33748" lon="0.0243">
        <ele>116</ele>
        <time>2011-11-25T14:14:34Z</time>
      </trkpt>
      <trkpt lat="47.33744" lon="0.02426">
        <ele>116</ele>
        <time>2011-11-25T14:14:38Z</time>
      </trkpt>
      <trkpt lat="47.33739" lon="0.02421">
        <ele>116</ele>
        <time>2011-11-25T14:14:42Z</time>
      </trkpt>
      <trkpt lat="47.33734" lon="0.02416">
        <ele>116</ele>
        <time>2011-11-25T14:14:46Z</time>
      </trkpt>
      <trkpt lat="47.33731" lon="0.02412">
        <ele>116</ele>
        <time>2011-11-25T14:14:49Z</time>
      </trkpt>
      <trkpt lat="47.33726" lon="0.02406">
        <ele>116</ele>
        <time>2011-11-25T14:14:53Z</time>
      </trkpt>
      <trkpt lat="47.33722" lon="0.02402">
        <ele>116</ele>
        <time>2011-11-25T14:14:57Z</time>
      </trkpt>
      <trkpt lat="47.33718" lon="0.02399">
        <ele>116</ele>
        <time>2011-11-25T14:15:01Z</time>
      </trkpt>
      <trkpt lat="47.33714" lon="0.02395">
        <ele>116</ele>
        <time>2011-11-25T14:15:05Z</time>
      </trkpt>
      <trkpt lat="47.3371" lon="0.02391">
        <ele>116</ele>
        <time>2011-11-25T14:15:09Z</time>
      </trkpt>
      <trkpt lat="47.33706" lon="0.02387">
        <ele>116</ele>
        <time>2011-11-25T14:15:13Z</time>
      </trkpt>
      <trkpt lat="47.33702" lon="0.02383">
        <ele>116</ele>
        <time>2011-11-25T14:15:17Z</time>
      </trkpt>
      <trkpt lat="47.33698" lon="0.02378">
        <ele>116</ele>
        <time>2011-11-25T14:15:24Z</time>
      </trkpt>
      <trkpt lat="47.33694" lon="0.02372">
        <ele>116</ele>
        <time>2011-11-25T14:15:29Z</time>
      </trkpt>
      <trkpt lat="47.3369" lon="0.02368">
        <ele>116</ele>
        <time>2011-11-25T14:15:32Z</time>
      </trkpt>
      <trkpt lat="47.33685" lon="0.02361">
        <ele>116</ele>
        <time>2011-11-25T14:15:35Z</time>
      </trkpt>
      <trkpt lat="47.33681" lon="0.02356">
        <ele>116</ele>
        <time>2011-11-25T14:15:38Z</time>
      </trkpt>
      <trkpt lat="47.33677" lon="0.02351">
        <ele>116</ele>
        <time>2011-11-25T14:15:41Z</time>
      </trkpt>
      <trkpt lat="47.33673" lon="0.02346">
        <ele>116</ele>
        <time>2011-11-25T14:15:45Z</time>
      </trkpt>
      <trkpt lat="47.33669" lon="0.02341">
        <ele>115</ele>
        <time>2011-11-25T14:15:49Z</time>
      </trkpt>
      <trkpt lat="47.33665" lon="0.02336">
        <ele>115</ele>
        <time>2011-11-25T14:15:53Z</time>
      </trkpt>
      <trkpt lat="47.33662" lon="0.0233">
        <ele>115</ele>
        <time>2011-11-25T14:15:58Z</time>
      </trkpt>
      <trkpt lat="47.33659" lon="0.02324">
        <ele>115</ele>
        <time>2011-11-25T14:16:03Z</time>
      </trkpt>
      <trkpt lat="47.33656" lon="0.02318">
        <ele>115</ele>
        <time>2011-11-25T14:16:08Z</time>
      </trkpt>
      <trkpt lat="47.33652" lon="0.02312">
        <ele>115</ele>
        <time>2011-11-25T14:16:13Z</time>
      </trkpt>
      <trkpt lat="47.33648" lon="0.02308">
        <ele>115</ele>
        <time>2011-11-25T14:16:18Z</time>
      </trkpt>
      <trkpt lat="47.33644" lon="0.02304">
        <ele>115</ele>
        <time>2011-11-25T14:16:23Z</time>
      </trkpt>
      <trkpt lat="47.3364" lon="0.02298">
        <ele>115</ele>
        <time>2011-11-25T14:16:28Z</time>
      </trkpt>
      <trkpt lat="47.33637" lon="0.02292">
        <ele>115</ele>
        <time>2011-11-25T14:16:33Z</time>
      </trkpt>
      <trkpt lat="47.33633" lon="0.02286">
        <ele>115</ele>
        <time>2011-11-25T14:16:38Z</time>
      </trkpt>
      <trkpt lat="47.3363" lon="0.0228">
        <ele>115</ele>
        <time>2011-11-25T14:16:43Z</time>
      </trkpt>
      <trkpt lat="47.33626" lon="0.02275">
        <ele>115</ele>
        <time>2011-11-25T14:16:48Z</time>
      </trkpt>
      <trkpt lat="47.33622" lon="0.0227">
        <ele>115</ele>
        <time>2011-11-25T14:16:53Z</time>
      </trkpt>
      <trkpt lat="47.33619" lon="0.02264">
        <ele>115</ele>
        <time>2011-11-25T14:16:58Z</time>
      </trkpt>
      <trkpt lat="47.33615" lon="0.02258">
        <ele>115</ele>
        <time>2011-11-25T14:17:03Z</time>
      </trkpt>
      <trkpt lat="47.33612" lon="0.02252">
        <ele>115</ele>
        <time>2011-11-25T14:17:08Z</time>
      </trkpt>
      <trkpt lat="47.33608" lon="0.02248">
        <ele>115</ele>
        <time>2011-11-25T14:17:12Z</time>
      </trkpt>
      <trkpt lat="47.33603" lon="0.02244">
        <ele>115</ele>
        <time>2011-11-25T14:17:16Z</time>
      </trkpt>
      <trkpt lat="47.33598" lon="0.02241">
        <ele>115</ele>
        <time>2011-11-25T14:17:20Z</time>
      </trkpt>
      <trkpt lat="47.33593" lon="0.02238">
        <ele>115</ele>
        <time>2011-11-25T14:17:24Z</time>
      </trkpt>
      <trkpt lat="47.33589" lon="0.02235">
        <ele>115</ele>
        <time>2011-11-25T14:17:28Z</time>
      </trkpt>
      <trkpt lat="47.33584" lon="0.02231">
        <ele>115</ele>
        <time>2011-11-25T14:17:32Z</time>
      </trkpt>
      <trkpt lat="47.3358" lon="0.02228">
        <ele>115</ele>
        <time>2011-11-25T14:17:36Z</time>
      </trkpt>
      <trkpt lat="47.33575" lon="0.02225">
        <ele>115</ele>
        <time>2011-11-25T14:17:40Z</time>
      </trkpt>
      <trkpt lat="47.3357" lon="0.02222">
        <ele>114</ele>
        <time>2011-11-25T14:17:44Z</time>
      </trkpt>
      <trkpt lat="47.33566" lon="0.02219">
        <ele>114</ele>
        <time>2011-11-25T14:17:48Z</time>
      </trkpt>
      <trkpt lat="47.33561" lon="0.02217">
        <ele>114</ele>
        <time>2011-11-25T14:17:54Z</time>
      </trkpt>
      <trkpt lat="47.33556" lon="0.02218">
        <ele>114</ele>
        <time>2011-11-25T14:18:03Z</time>
      </trkpt>
      <trkpt lat="47.33551" lon="0.02217">
        <ele>114</ele>
        <time>2011-11-25T14:18:09Z</time>
      </trkpt>
      <trkpt lat="47.33546" lon="0.02216">
        <ele>114</ele>
        <time>2011-11-25T14:18:14Z</time>
      </trkpt>
      <trkpt lat="47.33541" lon="0.02214">
        <ele>114</ele>
        <time>2011-11-25T14:18:19Z</time>
      </trkpt>
      <trkpt lat="47.33536" lon="0.02212">
        <ele>114</ele>
        <time>2011-11-25T14:18:23Z</time>
      </trkpt>
      <trkpt lat="47.33531" lon="0.0221">
        <ele>114</ele>
        <time>2011-11-25T14:18:27Z</time>
      </trkpt>
      <trkpt lat="47.33527" lon="0.02207">
        <ele>114</ele>
        <time>2011-11-25T14:18:31Z</time>
      </trkpt>
      <trkpt lat="47.33521" lon="0.02204">
        <ele>114</ele>
        <time>2011-11-25T14:18:35Z</time>
      </trkpt>
      <trkpt lat="47.33516" lon="0.022">
        <ele>114</ele>
        <time>2011-11-25T14:18:39Z</time>
      </trkpt>
      <trkpt lat="47.3351" lon="0.02196">
        <ele>114</ele>
        <time>2011-11-25T14:18:42Z</time>
      </trkpt>
      <trkpt lat="47.33504" lon="0.02191">
        <ele>114</ele>
        <time>2011-11-25T14:18:45Z</time>
      </trkpt>
      <trkpt lat="47.33499" lon="0.02187">
        <ele>114</ele>
        <time>2011-11-25T14:18:47Z</time>
      </trkpt>
      <trkpt lat="47.33495" lon="0.02184">
        <ele>114</ele>
        <time>2011-11-25T14:18:49Z</time>
      </trkpt>
      <trkpt lat="47.33491" lon="0.02181">
        <ele>114</ele>
        <time>2011-11-25T14:18:51Z</time>
      </trkpt>
      <trkpt lat="47.33486" lon="0.02177">
        <ele>114</ele>
        <time>2011-11-25T14:18:55Z</time>
      </trkpt>
      <trkpt lat="47.33482" lon="0.02173">
        <ele>113</ele>
        <time>2011-11-25T14:19:00Z</time>
      </trkpt>
      <trkpt lat="47.33478" lon="0.02169">
        <ele>113</ele>
        <time>2011-11-25T14:19:04Z</time>
      </trkpt>
      <trkpt lat="47.33473" lon="0.02164">
        <ele>113</ele>
        <time>2011-11-25T14:19:08Z</time>
      </trkpt>
      <trkpt lat="47.33468" lon="0.02161">
        <ele>113</ele>
        <time>2011-11-25T14:19:11Z</time>
      </trkpt>
      <trkpt lat="47.33464" lon="0.02158">
        <ele>113</ele>
        <time>2011-11-25T14:19:14Z</time>
      </trkpt>
      <trkpt lat="47.33459" lon="0.02154">
        <ele>112</ele>
        <time>2011-11-25T14:19:18Z</time>
      </trkpt>
      <trkpt lat="47.33453" lon="0.02151">
        <ele>112</ele>
        <time>2011-11-25T14:19:22Z</time>
      </trkpt>
      <trkpt lat="47.33449" lon="0.02149">
        <ele>112</ele>
        <time>2011-11-25T14:19:25Z</time>
      </trkpt>
      <trkpt lat="47.33444" lon="0.02146">
        <ele>112</ele>
        <time>2011-11-25T14:19:28Z</time>
      </trkpt>
      <trkpt lat="47.3344" lon="0.02144">
        <ele>111</ele>
        <time>2011-11-25T14:19:31Z</time>
      </trkpt>
      <trkpt lat="47.33434" lon="0.02142">
        <ele>111</ele>
        <time>2011-11-25T14:19:35Z</time>
      </trkpt>
      <trkpt lat="47.3343" lon="0.02139">
        <ele>111</ele>
        <time>2011-11-25T14:19:39Z</time>
      </trkpt>
      <trkpt lat="47.33424" lon="0.02136">
        <ele>110</ele>
        <time>2011-11-25T14:19:43Z</time>
      </trkpt>
      <trkpt lat="47.33419" lon="0.02134">
        <ele>110</ele>
        <time>2011-11-25T14:19:46Z</time>
      </trkpt>
      <trkpt lat="47.33414" lon="0.02132">
        <ele>110</ele>
        <time>2011-11-25T14:19:49Z</time>
      </trkpt>
      <trkpt lat="47.3341" lon="0.0213">
        <ele>110</ele>
        <time>2011-11-25T14:19:52Z</time>
      </trkpt>
      <trkpt lat="47.33404" lon="0.02128">
        <ele>110</ele>
        <time>2011-11-25T14:19:56Z</time>
      </trkpt>
      <trkpt lat="47.33398" lon="0.02126">
        <ele>109</ele>
        <time>2011-11-25T14:20:00Z</time>
      </trkpt>
      <trkpt lat="47.33393" lon="0.02124">
        <ele>109</ele>
        <time>2011-11-25T14:20:04Z</time>
      </trkpt>
      <trkpt lat="47.33387" lon="0.02123">
        <ele>109</ele>
        <time>2011-11-25T14:20:08Z</time>
      </trkpt>
      <trkpt lat="47.33382" lon="0.02122">
        <ele>109</ele>
        <time>2011-11-25T14:20:12Z</time>
      </trkpt>
      <trkpt lat="47.33377" lon="0.02122">
        <ele>109</ele>
        <time>2011-11-25T14:20:16Z</time>
      </trkpt>
      <trkpt lat="47.33372" lon="0.02123">
        <ele>108</ele>
        <time>2011-11-25T14:20:20Z</time>
      </trkpt>
      <trkpt lat="47.33367" lon="0.02124">
        <ele>108</ele>
        <time>2011-11-25T14:20:24Z</time>
      </trkpt>
      <trkpt lat="47.33362" lon="0.02125">
        <ele>108</ele>
        <time>2011-11-25T14:20:28Z</time>
      </trkpt>
      <trkpt lat="47.33357" lon="0.02125">
        <ele>108</ele>
        <time>2011-11-25T14:20:32Z</time>
      </trkpt>
      <trkpt lat="47.33352" lon="0.02127">
        <ele>108</ele>
        <time>2011-11-25T14:20:36Z</time>
      </trkpt>
      <trkpt lat="47.33348" lon="0.02129">
        <ele>107</ele>
        <time>2011-11-25T14:20:40Z</time>
      </trkpt>
      <trkpt lat="47.33343" lon="0.0213">
        <ele>107</ele>
        <time>2011-11-25T14:20:45Z</time>
      </trkpt>
      <trkpt lat="47.33337" lon="0.0213">
        <ele>107</ele>
        <time>2011-11-25T14:20:50Z</time>
      </trkpt>
      <trkpt lat="47.33332" lon="0.02131">
        <ele>107</ele>
        <time>2011-11-25T14:20:55Z</time>
      </trkpt>
      <trkpt lat="47.33326" lon="0.02132">
        <ele>107</ele>
        <time>2011-11-25T14:21:00Z</time>
      </trkpt>
      <trkpt lat="47.33321" lon="0.02132">
        <ele>107</ele>
        <time>2011-11-25T14:21:05Z</time>
      </trkpt>
      <trkpt lat="47.33316" lon="0.02133">
        <ele>107</ele>
        <time>2011-11-25T14:21:10Z</time>
      </trkpt>
      <trkpt lat="47.3331" lon="0.02133">
        <ele>107</ele>
        <time>2011-11-25T14:21:15Z</time>
      </trkpt>
      <trkpt lat="47.33305" lon="0.02132">
        <ele>107</ele>
        <time>2011-11-25T14:21:20Z</time>
      </trkpt>
      <trkpt lat="47.333" lon="0.02132">
        <ele>107</ele>
        <time>2011-11-25T14:21:25Z</time>
      </trkpt>
      <trkpt lat="47.33295" lon="0.02132">
        <ele>107</ele>
        <time>2011-11-25T14:21:30Z</time>
      </trkpt>
      <trkpt lat="47.3329" lon="0.02131">
        <ele>107</ele>
        <time>2011-11-25T14:21:35Z</time>
      </trkpt>
      <trkpt lat="47.33285" lon="0.02129">
        <ele>107</ele>
        <time>2011-11-25T14:21:40Z</time>
      </trkpt>
      <trkpt lat="47.3328" lon="0.02125">
        <ele>107</ele>
        <time>2011-11-25T14:21:44Z</time>
      </trkpt>
      <trkpt lat="47.33275" lon="0.02119">
        <ele>107</ele>
        <time>2011-11-25T14:21:48Z</time>
      </trkpt>
      <trkpt lat="47.33272" lon="0.02114">
        <ele>107</ele>
        <time>2011-11-25T14:21:51Z</time>
      </trkpt>
      <trkpt lat="47.33269" lon="0.02108">
        <ele>107</ele>
        <time>2011-11-25T14:21:54Z</time>
      </trkpt>
      <trkpt lat="47.33266" lon="0.02101">
        <ele>107</ele>
        <time>2011-11-25T14:21:58Z</time>
      </trkpt>
      <trkpt lat="47.33263" lon="0.02095">
        <ele>107</ele>
        <time>2011-11-25T14:22:02Z</time>
      </trkpt>
      <trkpt lat="47.3326" lon="0.02088">
        <ele>107</ele>
        <time>2011-11-25T14:22:06Z</time>
      </trkpt>
      <trkpt lat="47.33258" lon="0.02082">
        <ele>107</ele>
        <time>2011-11-25T14:22:10Z</time>
      </trkpt>
      <trkpt lat="47.33254" lon="0.02076">
        <ele>107</ele>
        <time>2011-11-25T14:22:15Z</time>
      </trkpt>
      <trkpt lat="47.33251" lon="0.0207">
        <ele>107</ele>
        <time>2011-11-25T14:22:20Z</time>
      </trkpt>
      <trkpt lat="47.33249" lon="0.02062">
        <ele>107</ele>
        <time>2011-11-25T14:22:30Z</time>
      </trkpt>
      <trkpt lat="47.33247" lon="0.02056">
        <ele>107</ele>
        <time>2011-11-25T14:22:34Z</time>
      </trkpt>
      <trkpt lat="47.33244" lon="0.0205">
        <ele>107</ele>
        <time>2011-11-25T14:22:38Z</time>
      </trkpt>
      <trkpt lat="47.33242" lon="0.02044">
        <ele>107</ele>
        <time>2011-11-25T14:22:42Z</time>
      </trkpt>
      <trkpt lat="47.33239" lon="0.02038">
        <ele>107</ele>
        <time>2011-11-25T14:22:46Z</time>
      </trkpt>
      <trkpt lat="47.33237" lon="0.02032">
        <ele>107</ele>
        <time>2011-11-25T14:22:50Z</time>
      </trkpt>
      <trkpt lat="47.33235" lon="0.02024">
        <ele>107</ele>
        <time>2011-11-25T14:22:54Z</time>
      </trkpt>
      <trkpt lat="47.33232" lon="0.02017">
        <ele>107</ele>
        <time>2011-11-25T14:22:58Z</time>
      </trkpt>
      <trkpt lat="47.3323" lon="0.02011">
        <ele>107</ele>
        <time>2011-11-25T14:23:02Z</time>
      </trkpt>
      <trkpt lat="47.33228" lon="0.02005">
        <ele>107</ele>
        <time>2011-11-25T14:23:06Z</time>
      </trkpt>
      <trkpt lat="47.33226" lon="0.01998">
        <ele>107</ele>
        <time>2011-11-25T14:23:10Z</time>
      </trkpt>
      <trkpt lat="47.33223" lon="0.01992">
        <ele>107</ele>
        <time>2011-11-25T14:23:14Z</time>
      </trkpt>
      <trkpt lat="47.3322" lon="0.01986">
        <ele>107</ele>
        <time>2011-11-25T14:23:18Z</time>
      </trkpt>
      <trkpt lat="47.33216" lon="0.01979">
        <ele>106</ele>
        <time>2011-11-25T14:23:22Z</time>
      </trkpt>
      <trkpt lat="47.33213" lon="0.01973">
        <ele>106</ele>
        <time>2011-11-25T14:23:26Z</time>
      </trkpt>
      <trkpt lat="47.3321" lon="0.01967">
        <ele>106</ele>
        <time>2011-11-25T14:23:30Z</time>
      </trkpt>
      <trkpt lat="47.33206" lon="0.01961">
        <ele>106</ele>
        <time>2011-11-25T14:23:34Z</time>
      </trkpt>
      <trkpt lat="47.33202" lon="0.01956">
        <ele>106</ele>
        <time>2011-11-25T14:23:38Z</time>
      </trkpt>
      <trkpt lat="47.33197" lon="0.01951">
        <ele>105</ele>
        <time>2011-11-25T14:23:42Z</time>
      </trkpt>
      <trkpt lat="47.33193" lon="0.01947">
        <ele>105</ele>
        <time>2011-11-25T14:23:45Z</time>
      </trkpt>
      <trkpt lat="47.33188" lon="0.01942">
        <ele>105</ele>
        <time>2011-11-25T14:23:49Z</time>
      </trkpt>
      <trkpt lat="47.33184" lon="0.01937">
        <ele>104</ele>
        <time>2011-11-25T14:23:53Z</time>
      </trkpt>
      <trkpt lat="47.3318" lon="0.01931">
        <ele>104</ele>
        <time>2011-11-25T14:23:57Z</time>
      </trkpt>
      <trkpt lat="47.33176" lon="0.01926">
        <ele>104</ele>
        <time>2011-11-25T14:24:01Z</time>
      </trkpt>
      <trkpt lat="47.33172" lon="0.01921">
        <ele>104</ele>
        <time>2011-11-25T14:24:05Z</time>
      </trkpt>
      <trkpt lat="47.33168" lon="0.01916">
        <ele>103</ele>
        <time>2011-11-25T14:24:09Z</time>
      </trkpt>
      <trkpt lat="47.33165" lon="0.01912">
        <ele>103</ele>
        <time>2011-11-25T14:24:13Z</time>
      </trkpt>
      <trkpt lat="47.33162" lon="0.01907">
        <ele>103</ele>
        <time>2011-11-25T14:24:17Z</time>
      </trkpt>
      <trkpt lat="47.33158" lon="0.01901">
        <ele>103</ele>
        <time>2011-11-25T14:24:22Z</time>
      </trkpt>
      <trkpt lat="47.33155" lon="0.01896">
        <ele>102</ele>
        <time>2011-11-25T14:24:27Z</time>
      </trkpt>
      <trkpt lat="47.33152" lon="0.0189">
        <ele>102</ele>
        <time>2011-11-25T14:24:48Z</time>
      </trkpt>
      <trkpt lat="47.33147" lon="0.01886">
        <ele>102</ele>
        <time>2011-11-25T14:24:54Z</time>
      </trkpt>
      <trkpt lat="47.33142" lon="0.01884">
        <ele>101</ele>
        <time>2011-11-25T14:24:59Z</time>
      </trkpt>
      <trkpt lat="47.33138" lon="0.01881">
        <ele>101</ele>
        <time>2011-11-25T14:25:04Z</time>
      </trkpt>
      <trkpt lat="47.33133" lon="0.01877">
        <ele>101</ele>
        <time>2011-11-25T14:25:09Z</time>
      </trkpt>
      <trkpt lat="47.33129" lon="0.01873">
        <ele>101</ele>
        <time>2011-11-25T14:25:14Z</time>
      </trkpt>
      <trkpt lat="47.33125" lon="0.01868">
        <ele>101</ele>
        <time>2011-11-25T14:25:19Z</time>
      </trkpt>
      <trkpt lat="47.33121" lon="0.01864">
        <ele>100</ele>
        <time>2011-11-25T14:25:24Z</time>
      </trkpt>
      <trkpt lat="47.33117" lon="0.0186">
        <ele>100</ele>
        <time>2011-11-25T14:25:29Z</time>
      </trkpt>
      <trkpt lat="47.33113" lon="0.01856">
        <ele>100</ele>
        <time>2011-11-25T14:25:33Z</time>
      </trkpt>
      <trkpt lat="47.33108" lon="0.01853">
        <ele>100</ele>
        <time>2011-11-25T14:25:37Z</time>
      </trkpt>
      <trkpt lat="47.33104" lon="0.0185">
        <ele>100</ele>
        <time>2011-11-25T14:25:41Z</time>
      </trkpt>
      <trkpt lat="47.331" lon="0.01847">
        <ele>100</ele>
        <time>2011-11-25T14:25:45Z</time>
      </trkpt>
      <trkpt lat="47.33095" lon="0.01844">
        <ele>100</ele>
        <time>2011-11-25T14:25:49Z</time>
      </trkpt>
      <trkpt lat="47.33091" lon="0.01841">
        <ele>100</ele>
        <time>2011-11-25T14:25:53Z</time>
      </trkpt>
      <trkpt lat="47.33086" lon="0.01837">
        <ele>100</ele>
        <time>2011-11-25T14:25:58Z</time>
      </trkpt>
      <trkpt lat="47.33081" lon="0.01834">
        <ele>100</ele>
        <time>2011-11-25T14:26:03Z</time>
      </trkpt>
      <trkpt lat="47.33077" lon="0.0183">
        <ele>100</ele>
        <time>2011-11-25T14:26:07Z</time>
      </trkpt>
      <trkpt lat="47.33073" lon="0.01826">
        <ele>100</ele>
        <time>2011-11-25T14:26:11Z</time>
      </trkpt>
      <trkpt lat="47.33069" lon="0.01822">
        <ele>100</ele>
        <time>2011-11-25T14:26:15Z</time>
      </trkpt>
      <trkpt lat="47.33064" lon="0.01819">
        <ele>100</ele>
        <time>2011-11-25T14:26:19Z</time>
      </trkpt>
      <trkpt lat="47.3306" lon="0.01815">
        <ele>100</ele>
        <time>2011-11-25T14:26:23Z</time>
      </trkpt>
      <trkpt lat="47.33056" lon="0.01811">
        <ele>100</ele>
        <time>2011-11-25T14:26:27Z</time>
      </trkpt>
      <trkpt lat="47.33053" lon="0.01807">
        <ele>100</ele>
        <time>2011-11-25T14:26:31Z</time>
      </trkpt>
      <trkpt lat="47.33049" lon="0.01803">
        <ele>100</ele>
        <time>2011-11-25T14:26:35Z</time>
      </trkpt>
      <trkpt lat="47.33045" lon="0.01799">
        <ele>100</ele>
        <time>2011-11-25T14:26:39Z</time>
      </trkpt>
      <trkpt lat="47.33041" lon="0.01795">
        <ele>100</ele>
        <time>2011-11-25T14:26:43Z</time>
      </trkpt>
      <trkpt lat="47.33037" lon="0.01791">
        <ele>100</ele>
        <time>2011-11-25T14:26:47Z</time>
      </trkpt>
      <trkpt lat="47.33033" lon="0.01788">
        <ele>100</ele>
        <time>2011-11-25T14:26:51Z</time>
      </trkpt>
      <trkpt lat="47.33029" lon="0.01784">
        <ele>100</ele>
        <time>2011-11-25T14:26:55Z</time>
      </trkpt>
      <trkpt lat="47.33026" lon="0.01779">
        <ele>101</ele>
        <time>2011-11-25T14:26:59Z</time>
      </trkpt>
      <trkpt lat="47.33021" lon="0.01774">
        <ele>101</ele>
        <time>2011-11-25T14:27:04Z</time>
      </trkpt>
      <trkpt lat="47.33018" lon="0.0177">
        <ele>101</ele>
        <time>2011-11-25T14:27:08Z</time>
      </trkpt>
      <trkpt lat="47.33014" lon="0.01765">
        <ele>101</ele>
        <time>2011-11-25T14:27:12Z</time>
      </trkpt>
      <trkpt lat="47.33009" lon="0.01761">
        <ele>101</ele>
        <time>2011-11-25T14:27:16Z</time>
      </trkpt>
      <trkpt lat="47.33005" lon="0.01757">
        <ele>101</ele>
        <time>2011-11-25T14:27:20Z</time>
      </trkpt>
      <trkpt lat="47.33001" lon="0.01752">
        <ele>101</ele>
        <time>2011-11-25T14:27:24Z</time>
      </trkpt>
      <trkpt lat="47.32998" lon="0.01748">
        <ele>101</ele>
        <time>2011-11-25T14:27:28Z</time>
      </trkpt>
      <trkpt lat="47.32993" lon="0.01744">
        <ele>101</ele>
        <time>2011-11-25T14:27:32Z</time>
      </trkpt>
      <trkpt lat="47.32989" lon="0.01742">
        <ele>101</ele>
        <time>2011-11-25T14:27:36Z</time>
      </trkpt>
      <trkpt lat="47.32984" lon="0.01739">
        <ele>101</ele>
        <time>2011-11-25T14:27:40Z</time>
      </trkpt>
      <trkpt lat="47.32979" lon="0.01739">
        <ele>101</ele>
        <time>2011-11-25T14:27:44Z</time>
      </trkpt>
      <trkpt lat="47.32974" lon="0.01737">
        <ele>101</ele>
        <time>2011-11-25T14:27:48Z</time>
      </trkpt>
      <trkpt lat="47.3297" lon="0.01734">
        <ele>101</ele>
        <time>2011-11-25T14:27:52Z</time>
      </trkpt>
      <trkpt lat="47.32965" lon="0.01731">
        <ele>101</ele>
        <time>2011-11-25T14:27:56Z</time>
      </trkpt>
      <trkpt lat="47.32961" lon="0.01729">
        <ele>101</ele>
        <time>2011-11-25T14:28:00Z</time>
      </trkpt>
      <trkpt lat="47.32956" lon="0.01726">
        <ele>101</ele>
        <time>2011-11-25T14:28:04Z</time>
      </trkpt>
      <trkpt lat="47.32951" lon="0.01723">
        <ele>101</ele>
        <time>2011-11-25T14:28:08Z</time>
      </trkpt>
      <trkpt lat="47.32946" lon="0.01721">
        <ele>101</ele>
        <time>2011-11-25T14:28:12Z</time>
      </trkpt>
      <trkpt lat="47.32941" lon="0.0172">
        <ele>101</ele>
        <time>2011-11-25T14:28:16Z</time>
      </trkpt>
      <trkpt lat="47.32936" lon="0.01718">
        <ele>101</ele>
        <time>2011-11-25T14:28:20Z</time>
      </trkpt>
      <trkpt lat="47.32932" lon="0.01716">
        <ele>100</ele>
        <time>2011-11-25T14:28:24Z</time>
      </trkpt>
      <trkpt lat="47.32926" lon="0.01715">
        <ele>100</ele>
        <time>2011-11-25T14:28:28Z</time>
      </trkpt>
      <trkpt lat="47.32921" lon="0.01713">
        <ele>100</ele>
        <time>2011-11-25T14:28:32Z</time>
      </trkpt>
      <trkpt lat="47.32917" lon="0.01711">
        <ele>100</ele>
        <time>2011-11-25T14:28:36Z</time>
      </trkpt>
      <trkpt lat="47.32912" lon="0.01709">
        <ele>100</ele>
        <time>2011-11-25T14:28:41Z</time>
      </trkpt>
      <trkpt lat="47.32908" lon="0.01706">
        <ele>100</ele>
        <time>2011-11-25T14:28:45Z</time>
      </trkpt>
      <trkpt lat="47.32903" lon="0.01703">
        <ele>100</ele>
        <time>2011-11-25T14:28:49Z</time>
      </trkpt>
      <trkpt lat="47.32899" lon="0.01701">
        <ele>100</ele>
        <time>2011-11-25T14:28:53Z</time>
      </trkpt>
      <trkpt lat="47.32894" lon="0.01699">
        <ele>100</ele>
        <time>2011-11-25T14:28:57Z</time>
      </trkpt>
      <trkpt lat="47.32889" lon="0.01696">
        <ele>100</ele>
        <time>2011-11-25T14:29:01Z</time>
      </trkpt>
      <trkpt lat="47.32884" lon="0.01694">
        <ele>100</ele>
        <time>2011-11-25T14:29:05Z</time>
      </trkpt>
      <trkpt lat="47.32879" lon="0.01692">
        <ele>100</ele>
        <time>2011-11-25T14:29:09Z</time>
      </trkpt>
      <trkpt lat="47.32874" lon="0.0169">
        <ele>100</ele>
        <time>2011-11-25T14:29:13Z</time>
      </trkpt>
      <trkpt lat="47.3287" lon="0.01689">
        <ele>100</ele>
        <time>2011-11-25T14:29:17Z</time>
      </trkpt>
      <trkpt lat="47.32865" lon="0.01686">
        <ele>100</ele>
        <time>2011-11-25T14:29:21Z</time>
      </trkpt>
      <trkpt lat="47.3286" lon="0.01684">
        <ele>100</ele>
        <time>2011-11-25T14:29:25Z</time>
      </trkpt>
      <trkpt lat="47.32855" lon="0.01683">
        <ele>100</ele>
        <time>2011-11-25T14:29:29Z</time>
      </trkpt>
      <trkpt lat="47.32849" lon="0.01682">
        <ele>100</ele>
        <time>2011-11-25T14:29:33Z</time>
      </trkpt>
      <trkpt lat="47.32844" lon="0.0168">
        <ele>100</ele>
        <time>2011-11-25T14:29:37Z</time>
      </trkpt>
      <trkpt lat="47.32839" lon="0.01679">
        <ele>100</ele>
        <time>2011-11-25T14:29:41Z</time>
      </trkpt>
      <trkpt lat="47.32834" lon="0.01677">
        <ele>100</ele>
        <time>2011-11-25T14:29:45Z</time>
      </trkpt>
      <trkpt lat="47.32829" lon="0.01675">
        <ele>100</ele>
        <time>2011-11-25T14:29:49Z</time>
      </trkpt>
      <trkpt lat="47.32823" lon="0.01673">
        <ele>100</ele>
        <time>2011-11-25T14:29:53Z</time>
      </trkpt>
      <trkpt lat="47.32818" lon="0.01671">
        <ele>100</ele>
        <time>2011-11-25T14:29:57Z</time>
      </trkpt>
      <trkpt lat="47.32813" lon="0.01668">
        <ele>100</ele>
        <time>2011-11-25T14:30:01Z</time>
      </trkpt>
      <trkpt lat="47.32807" lon="0.01666">
        <ele>100</ele>
        <time>2011-11-25T14:30:05Z</time>
      </trkpt>
      <trkpt lat="47.32802" lon="0.01664">
        <ele>100</ele>
        <time>2011-11-25T14:30:09Z</time>
      </trkpt>
      <trkpt lat="47.32797" lon="0.0166">
        <ele>100</ele>
        <time>2011-11-25T14:30:13Z</time>
      </trkpt>
      <trkpt lat="47.32791" lon="0.01656">
        <ele>100</ele>
        <time>2011-11-25T14:30:17Z</time>
      </trkpt>
      <trkpt lat="47.32786" lon="0.01653">
        <ele>100</ele>
        <time>2011-11-25T14:30:21Z</time>
      </trkpt>
      <trkpt lat="47.32781" lon="0.01651">
        <ele>100</ele>
        <time>2011-11-25T14:30:25Z</time>
      </trkpt>
      <trkpt lat="47.32776" lon="0.01649">
        <ele>100</ele>
        <time>2011-11-25T14:30:29Z</time>
      </trkpt>
      <trkpt lat="47.32772" lon="0.01647">
        <ele>100</ele>
        <time>2011-11-25T14:30:33Z</time>
      </trkpt>
      <trkpt lat="47.32767" lon="0.01646">
        <ele>100</ele>
        <time>2011-11-25T14:30:37Z</time>
      </trkpt>
      <trkpt lat="47.32762" lon="0.01644">
        <ele>100</ele>
        <time>2011-11-25T14:30:41Z</time>
      </trkpt>
      <trkpt lat="47.32757" lon="0.01643">
        <ele>100</ele>
        <time>2011-11-25T14:30:45Z</time>
      </trkpt>
      <trkpt lat="47.32752" lon="0.01642">
        <ele>100</ele>
        <time>2011-11-25T14:30:49Z</time>
      </trkpt>
      <trkpt lat="47.32747" lon="0.01641">
        <ele>100</ele>
        <time>2011-11-25T14:30:53Z</time>
      </trkpt>
      <trkpt lat="47.32742" lon="0.0164">
        <ele>100</ele>
        <time>2011-11-25T14:30:57Z</time>
      </trkpt>
      <trkpt lat="47.32738" lon="0.01639">
        <ele>100</ele>
        <time>2011-11-25T14:31:01Z</time>
      </trkpt>
      <trkpt lat="47.32733" lon="0.01638">
        <ele>100</ele>
        <time>2011-11-25T14:31:05Z</time>
      </trkpt>
      <trkpt lat="47.32728" lon="0.01636">
        <ele>100</ele>
        <time>2011-11-25T14:31:09Z</time>
      </trkpt>
      <trkpt lat="47.32724" lon="0.01634">
        <ele>100</ele>
        <time>2011-11-25T14:31:13Z</time>
      </trkpt>
      <trkpt lat="47.3272" lon="0.01632">
        <ele>100</ele>
        <time>2011-11-25T14:31:17Z</time>
      </trkpt>
      <trkpt lat="47.32715" lon="0.01631">
        <ele>100</ele>
        <time>2011-11-25T14:31:21Z</time>
      </trkpt>
      <trkpt lat="47.32709" lon="0.01632">
        <ele>100</ele>
        <time>2011-11-25T14:31:26Z</time>
      </trkpt>
      <trkpt lat="47.32705" lon="0.01629">
        <ele>100</ele>
        <time>2011-11-25T14:31:30Z</time>
      </trkpt>
      <trkpt lat="47.327" lon="0.01627">
        <ele>100</ele>
        <time>2011-11-25T14:31:35Z</time>
      </trkpt>
      <trkpt lat="47.32695" lon="0.01627">
        <ele>101</ele>
        <time>2011-11-25T14:31:40Z</time>
      </trkpt>
      <trkpt lat="47.3269" lon="0.01626">
        <ele>101</ele>
        <time>2011-11-25T14:31:45Z</time>
      </trkpt>
      <trkpt lat="47.32686" lon="0.01623">
        <ele>101</ele>
        <time>2011-11-25T14:31:49Z</time>
      </trkpt>
      <trkpt lat="47.32682" lon="0.01619">
        <ele>101</ele>
        <time>2011-11-25T14:31:53Z</time>
      </trkpt>
      <trkpt lat="47.32677" lon="0.01616">
        <ele>101</ele>
        <time>2011-11-25T14:31:57Z</time>
      </trkpt>
      <trkpt lat="47.32672" lon="0.01611">
        <ele>101</ele>
        <time>2011-11-25T14:32:01Z</time>
      </trkpt>
      <trkpt lat="47.32668" lon="0.01606">
        <ele>101</ele>
        <time>2011-11-25T14:32:05Z</time>
      </trkpt>
      <trkpt lat="47.32663" lon="0.01602">
        <ele>101</ele>
        <time>2011-11-25T14:32:09Z</time>
      </trkpt>
      <trkpt lat="47.32658" lon="0.01598">
        <ele>101</ele>
        <time>2011-11-25T14:32:13Z</time>
      </trkpt>
      <trkpt lat="47.32654" lon="0.01594">
        <ele>100</ele>
        <time>2011-11-25T14:32:17Z</time>
      </trkpt>
      <trkpt lat="47.32649" lon="0.01591">
        <ele>100</ele>
        <time>2011-11-25T14:32:21Z</time>
      </trkpt>
      <trkpt lat="47.32644" lon="0.01588">
        <ele>100</ele>
        <time>2011-11-25T14:32:25Z</time>
      </trkpt>
      <trkpt lat="47.32639" lon="0.01586">
        <ele>100</ele>
        <time>2011-11-25T14:32:29Z</time>
      </trkpt>
      <trkpt lat="47.32634" lon="0.01584">
        <ele>100</ele>
        <time>2011-11-25T14:32:33Z</time>
      </trkpt>
      <trkpt lat="47.32629" lon="0.01582">
        <ele>100</ele>
        <time>2011-11-25T14:32:37Z</time>
      </trkpt>
      <trkpt lat="47.32624" lon="0.01581">
        <ele>100</ele>
        <time>2011-11-25T14:32:41Z</time>
      </trkpt>
      <trkpt lat="47.32619" lon="0.01579">
        <ele>100</ele>
        <time>2011-11-25T14:32:45Z</time>
      </trkpt>
      <trkpt lat="47.32614" lon="0.01578">
        <ele>100</ele>
        <time>2011-11-25T14:32:49Z</time>
      </trkpt>
      <trkpt lat="47.32609" lon="0.01577">
        <ele>100</ele>
        <time>2011-11-25T14:32:53Z</time>
      </trkpt>
      <trkpt lat="47.32604" lon="0.01575">
        <ele>100</ele>
        <time>2011-11-25T14:32:57Z</time>
      </trkpt>
      <trkpt lat="47.32599" lon="0.01574">
        <ele>100</ele>
        <time>2011-11-25T14:33:01Z</time>
      </trkpt>
      <trkpt lat="47.32593" lon="0.01572">
        <ele>100</ele>
        <time>2011-11-25T14:33:05Z</time>
      </trkpt>
      <trkpt lat="47.32588" lon="0.0157">
        <ele>100</ele>
        <time>2011-11-25T14:33:09Z</time>
      </trkpt>
      <trkpt lat="47.32583" lon="0.01567">
        <ele>100</ele>
        <time>2011-11-25T14:33:13Z</time>
      </trkpt>
      <trkpt lat="47.32578" lon="0.01565">
        <ele>100</ele>
        <time>2011-11-25T14:33:17Z</time>
      </trkpt>
      <trkpt lat="47.32573" lon="0.01563">
        <ele>100</ele>
        <time>2011-11-25T14:33:21Z</time>
      </trkpt>
      <trkpt lat="47.32568" lon="0.01561">
        <ele>100</ele>
        <time>2011-11-25T14:33:25Z</time>
      </trkpt>
      <trkpt lat="47.32564" lon="0.01559">
        <ele>100</ele>
        <time>2011-11-25T14:33:29Z</time>
      </trkpt>
      <trkpt lat="47.32559" lon="0.01557">
        <ele>100</ele>
        <time>2011-11-25T14:33:33Z</time>
      </trkpt>
      <trkpt lat="47.32555" lon="0.01554">
        <ele>100</ele>
        <time>2011-11-25T14:33:37Z</time>
      </trkpt>
      <trkpt lat="47.3255" lon="0.01552">
        <ele>100</ele>
        <time>2011-11-25T14:33:41Z</time>
      </trkpt>
      <trkpt lat="47.32546" lon="0.01549">
        <ele>100</ele>
        <time>2011-11-25T14:33:45Z</time>
      </trkpt>
      <trkpt lat="47.32541" lon="0.01545">
        <ele>100</ele>
        <time>2011-11-25T14:33:50Z</time>
      </trkpt>
      <trkpt lat="47.32536" lon="0.01542">
        <ele>100</ele>
        <time>2011-11-25T14:33:55Z</time>
      </trkpt>
      <trkpt lat="47.32532" lon="0.01538">
        <ele>100</ele>
        <time>2011-11-25T14:33:59Z</time>
      </trkpt>
      <trkpt lat="47.32527" lon="0.01534">
        <ele>100</ele>
        <time>2011-11-25T14:34:03Z</time>
      </trkpt>
      <trkpt lat="47.32523" lon="0.0153">
        <ele>100</ele>
        <time>2011-11-25T14:34:07Z</time>
      </trkpt>
      <trkpt lat="47.32518" lon="0.01525">
        <ele>100</ele>
        <time>2011-11-25T14:34:11Z</time>
      </trkpt>
      <trkpt lat="47.32514" lon="0.01521">
        <ele>100</ele>
        <time>2011-11-25T14:34:15Z</time>
      </trkpt>
      <trkpt lat="47.32509" lon="0.01517">
        <ele>99</ele>
        <time>2011-11-25T14:34:19Z</time>
      </trkpt>
      <trkpt lat="47.32505" lon="0.01512">
        <ele>99</ele>
        <time>2011-11-25T14:34:23Z</time>
      </trkpt>
      <trkpt lat="47.32501" lon="0.01507">
        <ele>99</ele>
        <time>2011-11-25T14:34:27Z</time>
      </trkpt>
      <trkpt lat="47.32497" lon="0.01502">
        <ele>99</ele>
        <time>2011-11-25T14:34:31Z</time>
      </trkpt>
      <trkpt lat="47.32492" lon="0.01498">
        <ele>99</ele>
        <time>2011-11-25T14:34:35Z</time>
      </trkpt>
      <trkpt lat="47.32488" lon="0.01493">
        <ele>99</ele>
        <time>2011-11-25T14:34:39Z</time>
      </trkpt>
      <trkpt lat="47.32484" lon="0.01488">
        <ele>99</ele>
        <time>2011-11-25T14:34:43Z</time>
      </trkpt>
      <trkpt lat="47.3248" lon="0.01484">
        <ele>99</ele>
        <time>2011-11-25T14:34:47Z</time>
      </trkpt>
      <trkpt lat="47.32476" lon="0.01479">
        <ele>99</ele>
        <time>2011-11-25T14:34:51Z</time>
      </trkpt>
      <trkpt lat="47.32473" lon="0.01474">
        <ele>99</ele>
        <time>2011-11-25T14:34:55Z</time>
      </trkpt>
      <trkpt lat="47.32469" lon="0.0147">
        <ele>99</ele>
        <time>2011-11-25T14:34:59Z</time>
      </trkpt>
      <trkpt lat="47.32465" lon="0.01465">
        <ele>99</ele>
        <time>2011-11-25T14:35:03Z</time>
      </trkpt>
      <trkpt lat="47.32461" lon="0.0146">
        <ele>99</ele>
        <time>2011-11-25T14:35:07Z</time>
      </trkpt>
      <trkpt lat="47.32457" lon="0.01456">
        <ele>99</ele>
        <time>2011-11-25T14:35:11Z</time>
      </trkpt>
      <trkpt lat="47.32453" lon="0.01452">
        <ele>99</ele>
        <time>2011-11-25T14:35:15Z</time>
      </trkpt>
      <trkpt lat="47.32448" lon="0.01449">
        <ele>99</ele>
        <time>2011-11-25T14:35:19Z</time>
      </trkpt>
      <trkpt lat="47.32444" lon="0.01445">
        <ele>99</ele>
        <time>2011-11-25T14:35:23Z</time>
      </trkpt>
      <trkpt lat="47.3244" lon="0.01442">
        <ele>99</ele>
        <time>2011-11-25T14:35:27Z</time>
      </trkpt>
      <trkpt lat="47.32436" lon="0.01438">
        <ele>99</ele>
        <time>2011-11-25T14:35:31Z</time>
      </trkpt>
      <trkpt lat="47.32432" lon="0.01434">
        <ele>99</ele>
        <time>2011-11-25T14:35:35Z</time>
      </trkpt>
      <trkpt lat="47.32428" lon="0.0143">
        <ele>99</ele>
        <time>2011-11-25T14:35:39Z</time>
      </trkpt>
      <trkpt lat="47.32423" lon="0.01427">
        <ele>99</ele>
        <time>2011-11-25T14:35:43Z</time>
      </trkpt>
      <trkpt lat="47.32418" lon="0.01424">
        <ele>99</ele>
        <time>2011-11-25T14:35:47Z</time>
      </trkpt>
      <trkpt lat="47.32413" lon="0.0142">
        <ele>99</ele>
        <time>2011-11-25T14:35:51Z</time>
      </trkpt>
      <trkpt lat="47.32408" lon="0.01415">
        <ele>99</ele>
        <time>2011-11-25T14:35:55Z</time>
      </trkpt>
      <trkpt lat="47.32403" lon="0.01411">
        <ele>99</ele>
        <time>2011-11-25T14:35:59Z</time>
      </trkpt>
      <trkpt lat="47.32398" lon="0.01407">
        <ele>99</ele>
        <time>2011-11-25T14:36:03Z</time>
      </trkpt>
      <trkpt lat="47.32394" lon="0.01403">
        <ele>99</ele>
        <time>2011-11-25T14:36:07Z</time>
      </trkpt>
      <trkpt lat="47.32389" lon="0.01398">
        <ele>99</ele>
        <time>2011-11-25T14:36:11Z</time>
      </trkpt>
      <trkpt lat="47.32384" lon="0.01395">
        <ele>99</ele>
        <time>2011-11-25T14:36:15Z</time>
      </trkpt>
      <trkpt lat="47.3238" lon="0.01392">
        <ele>99</ele>
        <time>2011-11-25T14:36:19Z</time>
      </trkpt>
      <trkpt lat="47.32376" lon="0.01388">
        <ele>99</ele>
        <time>2011-11-25T14:36:23Z</time>
      </trkpt>
      <trkpt lat="47.32371" lon="0.01385">
        <ele>99</ele>
        <time>2011-11-25T14:36:27Z</time>
      </trkpt>
      <trkpt lat="47.32367" lon="0.01383">
        <ele>99</ele>
        <time>2011-11-25T14:36:31Z</time>
      </trkpt>
      <trkpt lat="47.32362" lon="0.0138">
        <ele>99</ele>
        <time>2011-11-25T14:36:35Z</time>
      </trkpt>
      <trkpt lat="47.32358" lon="0.01377">
        <ele>99</ele>
        <time>2011-11-25T14:36:39Z</time>
      </trkpt>
      <trkpt lat="47.32354" lon="0.01374">
        <ele>99</ele>
        <time>2011-11-25T14:36:43Z</time>
      </trkpt>
      <trkpt lat="47.3235" lon="0.0137">
        <ele>99</ele>
        <time>2011-11-25T14:36:48Z</time>
      </trkpt>
      <trkpt lat="47.32345" lon="0.01367">
        <ele>99</ele>
        <time>2011-11-25T14:36:53Z</time>
      </trkpt>
      <trkpt lat="47.3234" lon="0.01363">
        <ele>99</ele>
        <time>2011-11-25T14:36:58Z</time>
      </trkpt>
      <trkpt lat="47.32335" lon="0.0136">
        <ele>99</ele>
        <time>2011-11-25T14:37:03Z</time>
      </trkpt>
      <trkpt lat="47.32331" lon="0.01356">
        <ele>99</ele>
        <time>2011-11-25T14:37:08Z</time>
      </trkpt>
      <trkpt lat="47.32327" lon="0.01351">
        <ele>99</ele>
        <time>2011-11-25T14:37:13Z</time>
      </trkpt>
      <trkpt lat="47.32323" lon="0.01346">
        <ele>99</ele>
        <time>2011-11-25T14:37:18Z</time>
      </trkpt>
      <trkpt lat="47.32319" lon="0.01342">
        <ele>99</ele>
        <time>2011-11-25T14:37:23Z</time>
      </trkpt>
      <trkpt lat="47.32315" lon="0.01337">
        <ele>99</ele>
        <time>2011-11-25T14:37:28Z</time>
      </trkpt>
      <trkpt lat="47.32311" lon="0.01334">
        <ele>99</ele>
        <time>2011-11-25T14:37:34Z</time>
      </trkpt>
      <trkpt lat="47.32315" lon="0.0134">
        <ele>99</ele>
        <time>2011-11-25T14:37:39Z</time>
      </trkpt>
      <trkpt lat="47.32318" lon="0.01344">
        <ele>99</ele>
        <time>2011-11-25T14:37:42Z</time>
      </trkpt>
      <trkpt lat="47.32322" lon="0.01349">
        <ele>99</ele>
        <time>2011-11-25T14:37:45Z</time>
      </trkpt>
      <trkpt lat="47.32323" lon="0.01356">
        <ele>99</ele>
        <time>2011-11-25T14:37:51Z</time>
      </trkpt>
      <trkpt lat="47.32322" lon="0.01363">
        <ele>99</ele>
        <time>2011-11-25T14:37:56Z</time>
      </trkpt>
      <trkpt lat="47.32322" lon="0.0137">
        <ele>99</ele>
        <time>2011-11-25T14:38:03Z</time>
      </trkpt>
      <trkpt lat="47.3232" lon="0.01376">
        <ele>99</ele>
        <time>2011-11-25T14:38:12Z</time>
      </trkpt>
      <trkpt lat="47.32316" lon="0.01373">
        <ele>98</ele>
        <time>2011-11-25T14:38:43Z</time>
      </trkpt>
      <trkpt lat="47.32316" lon="0.0138">
        <ele>98</ele>
        <time>2011-11-25T14:39:11Z</time>
      </trkpt>
      <trkpt lat="47.32313" lon="0.01386">
        <ele>98</ele>
        <time>2011-11-25T14:39:51Z</time>
      </trkpt>
      <trkpt lat="47.32309" lon="0.0139">
        <ele>98</ele>
        <time>2011-11-25T14:39:57Z</time>
      </trkpt>
      <trkpt lat="47.32306" lon="0.01396">
        <ele>97</ele>
        <time>2011-11-25T14:40:01Z</time>
      </trkpt>
      <trkpt lat="47.32304" lon="0.01403">
        <ele>97</ele>
        <time>2011-11-25T14:40:05Z</time>
      </trkpt>
      <trkpt lat="47.32301" lon="0.0141">
        <ele>97</ele>
        <time>2011-11-25T14:40:09Z</time>
      </trkpt>
      <trkpt lat="47.323" lon="0.01417">
        <ele>96</ele>
        <time>2011-11-25T14:40:13Z</time>
      </trkpt>
      <trkpt lat="47.32297" lon="0.01423">
        <ele>96</ele>
        <time>2011-11-25T14:40:18Z</time>
      </trkpt>
      <trkpt lat="47.32295" lon="0.01429">
        <ele>96</ele>
        <time>2011-11-25T14:40:22Z</time>
      </trkpt>
      <trkpt lat="47.32292" lon="0.01435">
        <ele>95</ele>
        <time>2011-11-25T14:40:26Z</time>
      </trkpt>
      <trkpt lat="47.3229" lon="0.01441">
        <ele>95</ele>
        <time>2011-11-25T14:40:30Z</time>
      </trkpt>
      <trkpt lat="47.32287" lon="0.01446">
        <ele>95</ele>
        <time>2011-11-25T14:40:34Z</time>
      </trkpt>
      <trkpt lat="47.32284" lon="0.01452">
        <ele>94</ele>
        <time>2011-11-25T14:40:39Z</time>
      </trkpt>
      <trkpt lat="47.3228" lon="0.01457">
        <ele>94</ele>
        <time>2011-11-25T14:40:43Z</time>
      </trkpt>
      <trkpt lat="47.32277" lon="0.01462">
        <ele>94</ele>
        <time>2011-11-25T14:40:47Z</time>
      </trkpt>
      <trkpt lat="47.32273" lon="0.01467">
        <ele>94</ele>
        <time>2011-11-25T14:40:51Z</time>
      </trkpt>
      <trkpt lat="47.32269" lon="0.01471">
        <ele>94</ele>
        <time>2011-11-25T14:40:55Z</time>
      </trkpt>
      <trkpt lat="47.32265" lon="0.01475">
        <ele>94</ele>
        <time>2011-11-25T14:40:59Z</time>
      </trkpt>
      <trkpt lat="47.32261" lon="0.01478">
        <ele>93</ele>
        <time>2011-11-25T14:41:03Z</time>
      </trkpt>
      <trkpt lat="47.32256" lon="0.01482">
        <ele>93</ele>
        <time>2011-11-25T14:41:08Z</time>
      </trkpt>
      <trkpt lat="47.32251" lon="0.01485">
        <ele>93</ele>
        <time>2011-11-25T14:41:13Z</time>
      </trkpt>
      <trkpt lat="47.32246" lon="0.01487">
        <ele>93</ele>
        <time>2011-11-25T14:41:17Z</time>
      </trkpt>
      <trkpt lat="47.32241" lon="0.01488">
        <ele>93</ele>
        <time>2011-11-25T14:41:21Z</time>
      </trkpt>
      <trkpt lat="47.32236" lon="0.01489">
        <ele>93</ele>
        <time>2011-11-25T14:41:25Z</time>
      </trkpt>
      <trkpt lat="47.32231" lon="0.01489">
        <ele>93</ele>
        <time>2011-11-25T14:41:29Z</time>
      </trkpt>
      <trkpt lat="47.32226" lon="0.01489">
        <ele>93</ele>
        <time>2011-11-25T14:41:33Z</time>
      </trkpt>
      <trkpt lat="47.3222" lon="0.01489">
        <ele>93</ele>
        <time>2011-11-25T14:41:37Z</time>
      </trkpt>
      <trkpt lat="47.32215" lon="0.0149">
        <ele>93</ele>
        <time>2011-11-25T14:41:41Z</time>
      </trkpt>
      <trkpt lat="47.3221" lon="0.01491">
        <ele>94</ele>
        <time>2011-11-25T14:41:45Z</time>
      </trkpt>
      <trkpt lat="47.32205" lon="0.01493">
        <ele>94</ele>
        <time>2011-11-25T14:41:49Z</time>
      </trkpt>
      <trkpt lat="47.322" lon="0.01494">
        <ele>94</ele>
        <time>2011-11-25T14:41:53Z</time>
      </trkpt>
      <trkpt lat="47.32195" lon="0.01495">
        <ele>94</ele>
        <time>2011-11-25T14:41:57Z</time>
      </trkpt>
      <trkpt lat="47.32191" lon="0.01497">
        <ele>94</ele>
        <time>2011-11-25T14:42:01Z</time>
      </trkpt>
      <trkpt lat="47.32186" lon="0.01499">
        <ele>94</ele>
        <time>2011-11-25T14:42:05Z</time>
      </trkpt>
      <trkpt lat="47.32182" lon="0.01502">
        <ele>94</ele>
        <time>2011-11-25T14:42:09Z</time>
      </trkpt>
      <trkpt lat="47.32177" lon="0.01504">
        <ele>94</ele>
        <time>2011-11-25T14:42:13Z</time>
      </trkpt>
      <trkpt lat="47.32173" lon="0.01507">
        <ele>94</ele>
        <time>2011-11-25T14:42:17Z</time>
      </trkpt>
      <trkpt lat="47.32168" lon="0.01508">
        <ele>94</ele>
        <time>2011-11-25T14:42:21Z</time>
      </trkpt>
      <trkpt lat="47.32163" lon="0.01509">
        <ele>95</ele>
        <time>2011-11-25T14:42:25Z</time>
      </trkpt>
      <trkpt lat="47.32159" lon="0.01511">
        <ele>95</ele>
        <time>2011-11-25T14:42:29Z</time>
      </trkpt>
      <trkpt lat="47.32154" lon="0.01513">
        <ele>95</ele>
        <time>2011-11-25T14:42:33Z</time>
      </trkpt>
      <trkpt lat="47.32149" lon="0.01515">
        <ele>95</ele>
        <time>2011-11-25T14:42:37Z</time>
      </trkpt>
      <trkpt lat="47.32145" lon="0.01517">
        <ele>95</ele>
        <time>2011-11-25T14:42:41Z</time>
      </trkpt>
      <trkpt lat="47.32141" lon="0.0152">
        <ele>95</ele>
        <time>2011-11-25T14:42:45Z</time>
      </trkpt>
      <trkpt lat="47.32136" lon="0.01523">
        <ele>95</ele>
        <time>2011-11-25T14:42:49Z</time>
      </trkpt>
      <trkpt lat="47.32132" lon="0.01525">
        <ele>95</ele>
        <time>2011-11-25T14:42:53Z</time>
      </trkpt>
      <trkpt lat="47.32127" lon="0.01528">
        <ele>95</ele>
        <time>2011-11-25T14:42:57Z</time>
      </trkpt>
      <trkpt lat="47.32122" lon="0.0153">
        <ele>95</ele>
        <time>2011-11-25T14:43:01Z</time>
      </trkpt>
      <trkpt lat="47.32118" lon="0.01534">
        <ele>95</ele>
        <time>2011-11-25T14:43:05Z</time>
      </trkpt>
      <trkpt lat="47.32114" lon="0.01539">
        <ele>95</ele>
        <time>2011-11-25T14:43:09Z</time>
      </trkpt>
      <trkpt lat="47.3211" lon="0.01543">
        <ele>95</ele>
        <time>2011-11-25T14:43:13Z</time>
      </trkpt>
      <trkpt lat="47.32108" lon="0.0155">
        <ele>95</ele>
        <time>2011-11-25T14:43:17Z</time>
      </trkpt>
      <trkpt lat="47.32106" lon="0.01558">
        <ele>95</ele>
        <time>2011-11-25T14:43:21Z</time>
      </trkpt>
      <trkpt lat="47.32104" lon="0.01565">
        <ele>95</ele>
        <time>2011-11-25T14:43:25Z</time>
      </trkpt>
      <trkpt lat="47.32102" lon="0.01572">
        <ele>95</ele>
        <time>2011-11-25T14:43:29Z</time>
      </trkpt>
      <trkpt lat="47.321" lon="0.01579">
        <ele>95</ele>
        <time>2011-11-25T14:43:33Z</time>
      </trkpt>
      <trkpt lat="47.32098" lon="0.01585">
        <ele>95</ele>
        <time>2011-11-25T14:43:37Z</time>
      </trkpt>
      <trkpt lat="47.32096" lon="0.01592">
        <ele>95</ele>
        <time>2011-11-25T14:43:41Z</time>
      </trkpt>
      <trkpt lat="47.32094" lon="0.01599">
        <ele>95</ele>
        <time>2011-11-25T14:43:45Z</time>
      </trkpt>
      <trkpt lat="47.32093" lon="0.01606">
        <ele>95</ele>
        <time>2011-11-25T14:43:49Z</time>
      </trkpt>
      <trkpt lat="47.32093" lon="0.01614">
        <ele>94</ele>
        <time>2011-11-25T14:43:53Z</time>
      </trkpt>
      <trkpt lat="47.32092" lon="0.01621">
        <ele>94</ele>
        <time>2011-11-25T14:43:57Z</time>
      </trkpt>
      <trkpt lat="47.32092" lon="0.01628">
        <ele>94</ele>
        <time>2011-11-25T14:44:01Z</time>
      </trkpt>
      <trkpt lat="47.32092" lon="0.01635">
        <ele>94</ele>
        <time>2011-11-25T14:44:05Z</time>
      </trkpt>
      <trkpt lat="47.32093" lon="0.01642">
        <ele>94</ele>
        <time>2011-11-25T14:44:09Z</time>
      </trkpt>
      <trkpt lat="47.32094" lon="0.0165">
        <ele>94</ele>
        <time>2011-11-25T14:44:13Z</time>
      </trkpt>
      <trkpt lat="47.32095" lon="0.01656">
        <ele>94</ele>
        <time>2011-11-25T14:44:17Z</time>
      </trkpt>
      <trkpt lat="47.32096" lon="0.01663">
        <ele>94</ele>
        <time>2011-11-25T14:44:23Z</time>
      </trkpt>
      <trkpt lat="47.32097" lon="0.01671">
        <ele>94</ele>
        <time>2011-11-25T14:44:29Z</time>
      </trkpt>
      <trkpt lat="47.32099" lon="0.01677">
        <ele>94</ele>
        <time>2011-11-25T14:44:35Z</time>
      </trkpt>
      <trkpt lat="47.321" lon="0.01684">
        <ele>94</ele>
        <time>2011-11-25T14:44:40Z</time>
      </trkpt>
      <trkpt lat="47.32101" lon="0.01692">
        <ele>94</ele>
        <time>2011-11-25T14:44:45Z</time>
      </trkpt>
      <trkpt lat="47.32102" lon="0.01699">
        <ele>94</ele>
        <time>2011-11-25T14:44:50Z</time>
      </trkpt>
      <trkpt lat="47.32102" lon="0.01706">
        <ele>94</ele>
        <time>2011-11-25T14:44:55Z</time>
      </trkpt>
      <trkpt lat="47.32103" lon="0.01713">
        <ele>94</ele>
        <time>2011-11-25T14:45:01Z</time>
      </trkpt>
      <trkpt lat="47.32103" lon="0.0172">
        <ele>93</ele>
        <time>2011-11-25T14:45:07Z</time>
      </trkpt>
      <trkpt lat="47.32102" lon="0.01727">
        <ele>93</ele>
        <time>2011-11-25T14:45:12Z</time>
      </trkpt>
      <trkpt lat="47.32102" lon="0.01734">
        <ele>93</ele>
        <time>2011-11-25T14:45:17Z</time>
      </trkpt>
      <trkpt lat="47.32102" lon="0.01742">
        <ele>93</ele>
        <time>2011-11-25T14:45:22Z</time>
      </trkpt>
      <trkpt lat="47.32102" lon="0.0175">
        <ele>93</ele>
        <time>2011-11-25T14:45:27Z</time>
      </trkpt>
      <trkpt lat="47.32102" lon="0.01758">
        <ele>93</ele>
        <time>2011-11-25T14:45:32Z</time>
      </trkpt>
      <trkpt lat="47.32102" lon="0.01765">
        <ele>92</ele>
        <time>2011-11-25T14:45:37Z</time>
      </trkpt>
      <trkpt lat="47.32101" lon="0.01772">
        <ele>92</ele>
        <time>2011-11-25T14:45:41Z</time>
      </trkpt>
      <trkpt lat="47.321" lon="0.01779">
        <ele>92</ele>
        <time>2011-11-25T14:45:45Z</time>
      </trkpt>
      <trkpt lat="47.32099" lon="0.01785">
        <ele>92</ele>
        <time>2011-11-25T14:45:49Z</time>
      </trkpt>
      <trkpt lat="47.32098" lon="0.01792">
        <ele>92</ele>
        <time>2011-11-25T14:45:53Z</time>
      </trkpt>
      <trkpt lat="47.32088" lon="0.01806">
        <ele>87</ele>
        <time>2011-11-25T14:46:02Z</time>
      </trkpt>
      <trkpt lat="47.32088" lon="0.01806">
        <ele>87</ele>
        <time>2011-11-25T14:46:02Z</time>
      </trkpt>
      <trkpt lat="47.32088" lon="0.01806">
        <ele>87</ele>
        <time>2011-11-25T14:46:14Z</time>
      </trkpt>
      <trkpt lat="47.32091" lon="0.0182">
        <ele>90</ele>
        <time>2011-11-25T14:46:15Z</time>
      </trkpt>
      <trkpt lat="47.32091" lon="0.0182">
        <ele>90</ele>
        <time>2011-11-25T14:46:15Z</time>
      </trkpt>
      <trkpt lat="47.32091" lon="0.0182">
        <ele>90</ele>
        <time>2011-11-25T14:46:21Z</time>
      </trkpt>
      <trkpt lat="47.3209" lon="0.01836">
        <ele>88</ele>
        <time>2011-11-25T14:46:22Z</time>
      </trkpt>
      <trkpt lat="47.3209" lon="0.01836">
        <ele>88</ele>
        <time>2011-11-25T14:46:22Z</time>
      </trkpt>
      <trkpt lat="47.3209" lon="0.01836">
        <ele>88</ele>
        <time>2011-11-25T14:46:24Z</time>
      </trkpt>
      <trkpt lat="47.32088" lon="0.01849">
        <ele>88</ele>
        <time>2011-11-25T14:46:29Z</time>
      </trkpt>
      <trkpt lat="47.32088" lon="0.01856">
        <ele>88</ele>
        <time>2011-11-25T14:46:33Z</time>
      </trkpt>
      <trkpt lat="47.32088" lon="0.01864">
        <ele>88</ele>
        <time>2011-11-25T14:46:37Z</time>
      </trkpt>
      <trkpt lat="47.32088" lon="0.01871">
        <ele>88</ele>
        <time>2011-11-25T14:46:41Z</time>
      </trkpt>
      <trkpt lat="47.32088" lon="0.01879">
        <ele>88</ele>
        <time>2011-11-25T14:46:45Z</time>
      </trkpt>
      <trkpt lat="47.32088" lon="0.01886">
        <ele>88</ele>
        <time>2011-11-25T14:46:49Z</time>
      </trkpt>
      <trkpt lat="47.32088" lon="0.01895">
        <ele>88</ele>
        <time>2011-11-25T14:46:53Z</time>
      </trkpt>
      <trkpt lat="47.32088" lon="0.01902">
        <ele>88</ele>
        <time>2011-11-25T14:46:57Z</time>
      </trkpt>
      <trkpt lat="47.32087" lon="0.0191">
        <ele>89</ele>
        <time>2011-11-25T14:47:01Z</time>
      </trkpt>
      <trkpt lat="47.32086" lon="0.01916">
        <ele>89</ele>
        <time>2011-11-25T14:47:05Z</time>
      </trkpt>
      <trkpt lat="47.32085" lon="0.01923">
        <ele>89</ele>
        <time>2011-11-25T14:47:09Z</time>
      </trkpt>
      <trkpt lat="47.32085" lon="0.01931">
        <ele>89</ele>
        <time>2011-11-25T14:47:13Z</time>
      </trkpt>
      <trkpt lat="47.32085" lon="0.01938">
        <ele>89</ele>
        <time>2011-11-25T14:47:17Z</time>
      </trkpt>
      <trkpt lat="47.32085" lon="0.01946">
        <ele>89</ele>
        <time>2011-11-25T14:47:21Z</time>
      </trkpt>
      <trkpt lat="47.32086" lon="0.01953">
        <ele>89</ele>
        <time>2011-11-25T14:47:25Z</time>
      </trkpt>
      <trkpt lat="47.32085" lon="0.0196">
        <ele>89</ele>
        <time>2011-11-25T14:47:29Z</time>
      </trkpt>
      <trkpt lat="47.32085" lon="0.01967">
        <ele>89</ele>
        <time>2011-11-25T14:47:33Z</time>
      </trkpt>
      <trkpt lat="47.32085" lon="0.01974">
        <ele>89</ele>
        <time>2011-11-25T14:47:37Z</time>
      </trkpt>
      <trkpt lat="47.32085" lon="0.01981">
        <ele>89</ele>
        <time>2011-11-25T14:47:41Z</time>
      </trkpt>
      <trkpt lat="47.32085" lon="0.01988">
        <ele>89</ele>
        <time>2011-11-25T14:47:45Z</time>
      </trkpt>
      <trkpt lat="47.32086" lon="0.01994">
        <ele>89</ele>
        <time>2011-11-25T14:47:49Z</time>
      </trkpt>
      <trkpt lat="47.32087" lon="0.02001">
        <ele>89</ele>
        <time>2011-11-25T14:47:53Z</time>
      </trkpt>
      <trkpt lat="47.32091" lon="0.02008">
        <ele>90</ele>
        <time>2011-11-25T14:47:57Z</time>
      </trkpt>
      <trkpt lat="47.32094" lon="0.02013">
        <ele>90</ele>
        <time>2011-11-25T14:48:00Z</time>
      </trkpt>
      <trkpt lat="47.32098" lon="0.02018">
        <ele>90</ele>
        <time>2011-11-25T14:48:03Z</time>
      </trkpt>
      <trkpt lat="47.32102" lon="0.02022">
        <ele>90</ele>
        <time>2011-11-25T14:48:06Z</time>
      </trkpt>
      <trkpt lat="47.32106" lon="0.02025">
        <ele>90</ele>
        <time>2011-11-25T14:48:09Z</time>
      </trkpt>
      <trkpt lat="47.3211" lon="0.02028">
        <ele>90</ele>
        <time>2011-11-25T14:48:12Z</time>
      </trkpt>
      <trkpt lat="47.32115" lon="0.02032">
        <ele>90</ele>
        <time>2011-11-25T14:48:16Z</time>
      </trkpt>
      <trkpt lat="47.32119" lon="0.02035">
        <ele>90</ele>
        <time>2011-11-25T14:48:20Z</time>
      </trkpt>
      <trkpt lat="47.32124" lon="0.02038">
        <ele>90</ele>
        <time>2011-11-25T14:48:24Z</time>
      </trkpt>
      <trkpt lat="47.32129" lon="0.02039">
        <ele>90</ele>
        <time>2011-11-25T14:48:28Z</time>
      </trkpt>
      <trkpt lat="47.32134" lon="0.02041">
        <ele>90</ele>
        <time>2011-11-25T14:48:32Z</time>
      </trkpt>
      <trkpt lat="47.32139" lon="0.02043">
        <ele>90</ele>
        <time>2011-11-25T14:48:36Z</time>
      </trkpt>
      <trkpt lat="47.32144" lon="0.02045">
        <ele>90</ele>
        <time>2011-11-25T14:48:40Z</time>
      </trkpt>
      <trkpt lat="47.32149" lon="0.02048">
        <ele>90</ele>
        <time>2011-11-25T14:48:44Z</time>
      </trkpt>
      <trkpt lat="47.32154" lon="0.0205">
        <ele>90</ele>
        <time>2011-11-25T14:48:48Z</time>
      </trkpt>
      <trkpt lat="47.32158" lon="0.02053">
        <ele>90</ele>
        <time>2011-11-25T14:48:52Z</time>
      </trkpt>
      <trkpt lat="47.32163" lon="0.02055">
        <ele>90</ele>
        <time>2011-11-25T14:48:56Z</time>
      </trkpt>
      <trkpt lat="47.32168" lon="0.02057">
        <ele>90</ele>
        <time>2011-11-25T14:49:01Z</time>
      </trkpt>
      <trkpt lat="47.32173" lon="0.0206">
        <ele>90</ele>
        <time>2011-11-25T14:49:06Z</time>
      </trkpt>
      <trkpt lat="47.32177" lon="0.02064">
        <ele>90</ele>
        <time>2011-11-25T14:49:10Z</time>
      </trkpt>
      <trkpt lat="47.32182" lon="0.02068">
        <ele>91</ele>
        <time>2011-11-25T14:49:15Z</time>
      </trkpt>
      <trkpt lat="47.32186" lon="0.02071">
        <ele>91</ele>
        <time>2011-11-25T14:49:19Z</time>
      </trkpt>
      <trkpt lat="47.3219" lon="0.02074">
        <ele>91</ele>
        <time>2011-11-25T14:49:23Z</time>
      </trkpt>
      <trkpt lat="47.32194" lon="0.02078">
        <ele>91</ele>
        <time>2011-11-25T14:49:27Z</time>
      </trkpt>
      <trkpt lat="47.32198" lon="0.02082">
        <ele>91</ele>
        <time>2011-11-25T14:49:31Z</time>
      </trkpt>
      <trkpt lat="47.32202" lon="0.02084">
        <ele>91</ele>
        <time>2011-11-25T14:49:35Z</time>
      </trkpt>
      <trkpt lat="47.32208" lon="0.02086">
        <ele>91</ele>
        <time>2011-11-25T14:49:40Z</time>
      </trkpt>
      <trkpt lat="47.32212" lon="0.02087">
        <ele>91</ele>
        <time>2011-11-25T14:49:44Z</time>
      </trkpt>
      <trkpt lat="47.32217" lon="0.02089">
        <ele>92</ele>
        <time>2011-11-25T14:49:49Z</time>
      </trkpt>
      <trkpt lat="47.32222" lon="0.02091">
        <ele>92</ele>
        <time>2011-11-25T14:49:54Z</time>
      </trkpt>
      <trkpt lat="47.32227" lon="0.02094">
        <ele>92</ele>
        <time>2011-11-25T14:49:59Z</time>
      </trkpt>
      <trkpt lat="47.32232" lon="0.02094">
        <ele>92</ele>
        <time>2011-11-25T14:50:03Z</time>
      </trkpt>
      <trkpt lat="47.32237" lon="0.02096">
        <ele>92</ele>
        <time>2011-11-25T14:50:07Z</time>
      </trkpt>
      <trkpt lat="47.32242" lon="0.02097">
        <ele>92</ele>
        <time>2011-11-25T14:50:11Z</time>
      </trkpt>
      <trkpt lat="47.32246" lon="0.02099">
        <ele>92</ele>
        <time>2011-11-25T14:50:15Z</time>
      </trkpt>
      <trkpt lat="47.32251" lon="0.02102">
        <ele>92</ele>
        <time>2011-11-25T14:50:19Z</time>
      </trkpt>
      <trkpt lat="47.32255" lon="0.02104">
        <ele>92</ele>
        <time>2011-11-25T14:50:23Z</time>
      </trkpt>
      <trkpt lat="47.3226" lon="0.02106">
        <ele>92</ele>
        <time>2011-11-25T14:50:27Z</time>
      </trkpt>
      <trkpt lat="47.32264" lon="0.02109">
        <ele>92</ele>
        <time>2011-11-25T14:50:31Z</time>
      </trkpt>
      <trkpt lat="47.32269" lon="0.02112">
        <ele>92</ele>
        <time>2011-11-25T14:50:35Z</time>
      </trkpt>
      <trkpt lat="47.32274" lon="0.02115">
        <ele>92</ele>
        <time>2011-11-25T14:50:39Z</time>
      </trkpt>
      <trkpt lat="47.32278" lon="0.02118">
        <ele>92</ele>
        <time>2011-11-25T14:50:43Z</time>
      </trkpt>
      <trkpt lat="47.32282" lon="0.02121">
        <ele>92</ele>
        <time>2011-11-25T14:50:47Z</time>
      </trkpt>
      <trkpt lat="47.32287" lon="0.02124">
        <ele>92</ele>
        <time>2011-11-25T14:50:51Z</time>
      </trkpt>
      <trkpt lat="47.32292" lon="0.02126">
        <ele>92</ele>
        <time>2011-11-25T14:50:55Z</time>
      </trkpt>
      <trkpt lat="47.32296" lon="0.02129">
        <ele>92</ele>
        <time>2011-11-25T14:50:59Z</time>
      </trkpt>
      <trkpt lat="47.32301" lon="0.02131">
        <ele>92</ele>
        <time>2011-11-25T14:51:03Z</time>
      </trkpt>
      <trkpt lat="47.32305" lon="0.02134">
        <ele>92</ele>
        <time>2011-11-25T14:51:07Z</time>
      </trkpt>
      <trkpt lat="47.3231" lon="0.02137">
        <ele>92</ele>
        <time>2011-11-25T14:51:11Z</time>
      </trkpt>
      <trkpt lat="47.32315" lon="0.0214">
        <ele>92</ele>
        <time>2011-11-25T14:51:15Z</time>
      </trkpt>
      <trkpt lat="47.32319" lon="0.02143">
        <ele>92</ele>
        <time>2011-11-25T14:51:19Z</time>
      </trkpt>
      <trkpt lat="47.32324" lon="0.02146">
        <ele>92</ele>
        <time>2011-11-25T14:51:23Z</time>
      </trkpt>
      <trkpt lat="47.32329" lon="0.02149">
        <ele>92</ele>
        <time>2011-11-25T14:51:27Z</time>
      </trkpt>
      <trkpt lat="47.32334" lon="0.02152">
        <ele>92</ele>
        <time>2011-11-25T14:51:31Z</time>
      </trkpt>
      <trkpt lat="47.32338" lon="0.02154">
        <ele>92</ele>
        <time>2011-11-25T14:51:35Z</time>
      </trkpt>
      <trkpt lat="47.32343" lon="0.02157">
        <ele>92</ele>
        <time>2011-11-25T14:51:39Z</time>
      </trkpt>
      <trkpt lat="47.32347" lon="0.0216">
        <ele>92</ele>
        <time>2011-11-25T14:51:43Z</time>
      </trkpt>
      <trkpt lat="47.32352" lon="0.02163">
        <ele>92</ele>
        <time>2011-11-25T14:51:47Z</time>
      </trkpt>
      <trkpt lat="47.32356" lon="0.02166">
        <ele>92</ele>
        <time>2011-11-25T14:51:51Z</time>
      </trkpt>
      <trkpt lat="47.3236" lon="0.0217">
        <ele>92</ele>
        <time>2011-11-25T14:51:55Z</time>
      </trkpt>
      <trkpt lat="47.32365" lon="0.02173">
        <ele>92</ele>
        <time>2011-11-25T14:51:59Z</time>
      </trkpt>
      <trkpt lat="47.32369" lon="0.02176">
        <ele>92</ele>
        <time>2011-11-25T14:52:03Z</time>
      </trkpt>
      <trkpt lat="47.32374" lon="0.02179">
        <ele>92</ele>
        <time>2011-11-25T14:52:07Z</time>
      </trkpt>
      <trkpt lat="47.32378" lon="0.02181">
        <ele>92</ele>
        <time>2011-11-25T14:52:11Z</time>
      </trkpt>
      <trkpt lat="47.32382" lon="0.02184">
        <ele>92</ele>
        <time>2011-11-25T14:52:15Z</time>
      </trkpt>
      <trkpt lat="47.32387" lon="0.02186">
        <ele>92</ele>
        <time>2011-11-25T14:52:19Z</time>
      </trkpt>
      <trkpt lat="47.32392" lon="0.02188">
        <ele>92</ele>
        <time>2011-11-25T14:52:23Z</time>
      </trkpt>
      <trkpt lat="47.32396" lon="0.02192">
        <ele>92</ele>
        <time>2011-11-25T14:52:27Z</time>
      </trkpt>
      <trkpt lat="47.32401" lon="0.02195">
        <ele>92</ele>
        <time>2011-11-25T14:52:31Z</time>
      </trkpt>
      <trkpt lat="47.32405" lon="0.02198">
        <ele>92</ele>
        <time>2011-11-25T14:52:35Z</time>
      </trkpt>
      <trkpt lat="47.32409" lon="0.02202">
        <ele>92</ele>
        <time>2011-11-25T14:52:39Z</time>
      </trkpt>
      <trkpt lat="47.32413" lon="0.02206">
        <ele>92</ele>
        <time>2011-11-25T14:52:43Z</time>
      </trkpt>
      <trkpt lat="47.32418" lon="0.02209">
        <ele>92</ele>
        <time>2011-11-25T14:52:47Z</time>
      </trkpt>
      <trkpt lat="47.32422" lon="0.02212">
        <ele>92</ele>
        <time>2011-11-25T14:52:51Z</time>
      </trkpt>
      <trkpt lat="47.32427" lon="0.02214">
        <ele>92</ele>
        <time>2011-11-25T14:52:55Z</time>
      </trkpt>
      <trkpt lat="47.32432" lon="0.02216">
        <ele>92</ele>
        <time>2011-11-25T14:52:59Z</time>
      </trkpt>
      <trkpt lat="47.32436" lon="0.02218">
        <ele>92</ele>
        <time>2011-11-25T14:53:03Z</time>
      </trkpt>
      <trkpt lat="47.32441" lon="0.0222">
        <ele>92</ele>
        <time>2011-11-25T14:53:07Z</time>
      </trkpt>
      <trkpt lat="47.32446" lon="0.02221">
        <ele>92</ele>
        <time>2011-11-25T14:53:11Z</time>
      </trkpt>
      <trkpt lat="47.32451" lon="0.02222">
        <ele>92</ele>
        <time>2011-11-25T14:53:15Z</time>
      </trkpt>
      <trkpt lat="47.32456" lon="0.02224">
        <ele>92</ele>
        <time>2011-11-25T14:53:19Z</time>
      </trkpt>
      <trkpt lat="47.32461" lon="0.02226">
        <ele>91</ele>
        <time>2011-11-25T14:53:23Z</time>
      </trkpt>
      <trkpt lat="47.32466" lon="0.02229">
        <ele>91</ele>
        <time>2011-11-25T14:53:27Z</time>
      </trkpt>
      <trkpt lat="47.3247" lon="0.02231">
        <ele>91</ele>
        <time>2011-11-25T14:53:31Z</time>
      </trkpt>
      <trkpt lat="47.32475" lon="0.02234">
        <ele>91</ele>
        <time>2011-11-25T14:53:35Z</time>
      </trkpt>
      <trkpt lat="47.32479" lon="0.02237">
        <ele>91</ele>
        <time>2011-11-25T14:53:39Z</time>
      </trkpt>
      <trkpt lat="47.32484" lon="0.02239">
        <ele>91</ele>
        <time>2011-11-25T14:53:43Z</time>
      </trkpt>
      <trkpt lat="47.32488" lon="0.02241">
        <ele>91</ele>
        <time>2011-11-25T14:53:47Z</time>
      </trkpt>
      <trkpt lat="47.32492" lon="0.02244">
        <ele>91</ele>
        <time>2011-11-25T14:53:51Z</time>
      </trkpt>
      <trkpt lat="47.32496" lon="0.02248">
        <ele>91</ele>
        <time>2011-11-25T14:53:55Z</time>
      </trkpt>
      <trkpt lat="47.32501" lon="0.02251">
        <ele>92</ele>
        <time>2011-11-25T14:53:59Z</time>
      </trkpt>
      <trkpt lat="47.32506" lon="0.02254">
        <ele>92</ele>
        <time>2011-11-25T14:54:03Z</time>
      </trkpt>
      <trkpt lat="47.3251" lon="0.02259">
        <ele>92</ele>
        <time>2011-11-25T14:54:07Z</time>
      </trkpt>
      <trkpt lat="47.32513" lon="0.02264">
        <ele>92</ele>
        <time>2011-11-25T14:54:11Z</time>
      </trkpt>
      <trkpt lat="47.32517" lon="0.02267">
        <ele>92</ele>
        <time>2011-11-25T14:54:15Z</time>
      </trkpt>
      <trkpt lat="47.32522" lon="0.0227">
        <ele>92</ele>
        <time>2011-11-25T14:54:19Z</time>
      </trkpt>
      <trkpt lat="47.32526" lon="0.02273">
        <ele>92</ele>
        <time>2011-11-25T14:54:23Z</time>
      </trkpt>
      <trkpt lat="47.3253" lon="0.02276">
        <ele>92</ele>
        <time>2011-11-25T14:54:27Z</time>
      </trkpt>
      <trkpt lat="47.32535" lon="0.02279">
        <ele>92</ele>
        <time>2011-11-25T14:54:31Z</time>
      </trkpt>
      <trkpt lat="47.32539" lon="0.02282">
        <ele>92</ele>
        <time>2011-11-25T14:54:35Z</time>
      </trkpt>
      <trkpt lat="47.32543" lon="0.02286">
        <ele>92</ele>
        <time>2011-11-25T14:54:39Z</time>
      </trkpt>
      <trkpt lat="47.32548" lon="0.02289">
        <ele>92</ele>
        <time>2011-11-25T14:54:43Z</time>
      </trkpt>
      <trkpt lat="47.32552" lon="0.02292">
        <ele>92</ele>
        <time>2011-11-25T14:54:47Z</time>
      </trkpt>
      <trkpt lat="47.32556" lon="0.02296">
        <ele>92</ele>
        <time>2011-11-25T14:54:51Z</time>
      </trkpt>
      <trkpt lat="47.32561" lon="0.02299">
        <ele>92</ele>
        <time>2011-11-25T14:54:55Z</time>
      </trkpt>
      <trkpt lat="47.32565" lon="0.02302">
        <ele>92</ele>
        <time>2011-11-25T14:54:59Z</time>
      </trkpt>
      <trkpt lat="47.3257" lon="0.02305">
        <ele>92</ele>
        <time>2011-11-25T14:55:03Z</time>
      </trkpt>
      <trkpt lat="47.32574" lon="0.02309">
        <ele>92</ele>
        <time>2011-11-25T14:55:07Z</time>
      </trkpt>
      <trkpt lat="47.32578" lon="0.02314">
        <ele>92</ele>
        <time>2011-11-25T14:55:11Z</time>
      </trkpt>
      <trkpt lat="47.32582" lon="0.02318">
        <ele>92</ele>
        <time>2011-11-25T14:55:15Z</time>
      </trkpt>
      <trkpt lat="47.32587" lon="0.02321">
        <ele>93</ele>
        <time>2011-11-25T14:55:19Z</time>
      </trkpt>
      <trkpt lat="47.32591" lon="0.02325">
        <ele>93</ele>
        <time>2011-11-25T14:55:23Z</time>
      </trkpt>
      <trkpt lat="47.32596" lon="0.02328">
        <ele>93</ele>
        <time>2011-11-25T14:55:27Z</time>
      </trkpt>
      <trkpt lat="47.326" lon="0.02332">
        <ele>93</ele>
        <time>2011-11-25T14:55:31Z</time>
      </trkpt>
      <trkpt lat="47.32605" lon="0.02335">
        <ele>93</ele>
        <time>2011-11-25T14:55:35Z</time>
      </trkpt>
      <trkpt lat="47.3261" lon="0.02339">
        <ele>93</ele>
        <time>2011-11-25T14:55:39Z</time>
      </trkpt>
      <trkpt lat="47.32614" lon="0.02343">
        <ele>93</ele>
        <time>2011-11-25T14:55:43Z</time>
      </trkpt>
      <trkpt lat="47.32618" lon="0.02346">
        <ele>93</ele>
        <time>2011-11-25T14:55:47Z</time>
      </trkpt>
      <trkpt lat="47.32623" lon="0.0235">
        <ele>93</ele>
        <time>2011-11-25T14:55:51Z</time>
      </trkpt>
      <trkpt lat="47.32627" lon="0.02353">
        <ele>93</ele>
        <time>2011-11-25T14:55:55Z</time>
      </trkpt>
      <trkpt lat="47.32632" lon="0.02357">
        <ele>93</ele>
        <time>2011-11-25T14:55:59Z</time>
      </trkpt>
      <trkpt lat="47.32636" lon="0.0236">
        <ele>94</ele>
        <time>2011-11-25T14:56:03Z</time>
      </trkpt>
      <trkpt lat="47.32641" lon="0.02364">
        <ele>94</ele>
        <time>2011-11-25T14:56:07Z</time>
      </trkpt>
      <trkpt lat="47.32645" lon="0.02367">
        <ele>94</ele>
        <time>2011-11-25T14:56:11Z</time>
      </trkpt>
      <trkpt lat="47.3265" lon="0.0237">
        <ele>94</ele>
        <time>2011-11-25T14:56:15Z</time>
      </trkpt>
      <trkpt lat="47.32655" lon="0.02373">
        <ele>94</ele>
        <time>2011-11-25T14:56:19Z</time>
      </trkpt>
      <trkpt lat="47.3266" lon="0.02376">
        <ele>94</ele>
        <time>2011-11-25T14:56:23Z</time>
      </trkpt>
      <trkpt lat="47.32665" lon="0.0238">
        <ele>94</ele>
        <time>2011-11-25T14:56:27Z</time>
      </trkpt>
      <trkpt lat="47.3267" lon="0.02383">
        <ele>94</ele>
        <time>2011-11-25T14:56:31Z</time>
      </trkpt>
      <trkpt lat="47.32675" lon="0.02386">
        <ele>94</ele>
        <time>2011-11-25T14:56:35Z</time>
      </trkpt>
      <trkpt lat="47.3268" lon="0.02389">
        <ele>94</ele>
        <time>2011-11-25T14:56:39Z</time>
      </trkpt>
      <trkpt lat="47.32684" lon="0.02392">
        <ele>94</ele>
        <time>2011-11-25T14:56:43Z</time>
      </trkpt>
      <trkpt lat="47.32689" lon="0.02394">
        <ele>94</ele>
        <time>2011-11-25T14:56:47Z</time>
      </trkpt>
      <trkpt lat="47.32693" lon="0.02397">
        <ele>94</ele>
        <time>2011-11-25T14:56:51Z</time>
      </trkpt>
      <trkpt lat="47.32698" lon="0.02399">
        <ele>94</ele>
        <time>2011-11-25T14:56:55Z</time>
      </trkpt>
      <trkpt lat="47.32702" lon="0.02402">
        <ele>94</ele>
        <time>2011-11-25T14:56:59Z</time>
      </trkpt>
      <trkpt lat="47.32706" lon="0.02405">
        <ele>94</ele>
        <time>2011-11-25T14:57:03Z</time>
      </trkpt>
      <trkpt lat="47.32711" lon="0.02407">
        <ele>94</ele>
        <time>2011-11-25T14:57:07Z</time>
      </trkpt>
      <trkpt lat="47.32716" lon="0.02408">
        <ele>95</ele>
        <time>2011-11-25T14:57:11Z</time>
      </trkpt>
      <trkpt lat="47.3272" lon="0.02412">
        <ele>95</ele>
        <time>2011-11-25T14:57:15Z</time>
      </trkpt>
      <trkpt lat="47.32724" lon="0.02415">
        <ele>95</ele>
        <time>2011-11-25T14:57:19Z</time>
      </trkpt>
      <trkpt lat="47.32728" lon="0.02418">
        <ele>95</ele>
        <time>2011-11-25T14:57:23Z</time>
      </trkpt>
      <trkpt lat="47.32733" lon="0.02421">
        <ele>95</ele>
        <time>2011-11-25T14:57:28Z</time>
      </trkpt>
      <trkpt lat="47.32738" lon="0.02424">
        <ele>95</ele>
        <time>2011-11-25T14:57:33Z</time>
      </trkpt>
      <trkpt lat="47.32742" lon="0.02426">
        <ele>95</ele>
        <time>2011-11-25T14:57:37Z</time>
      </trkpt>
      <trkpt lat="47.32747" lon="0.02429">
        <ele>95</ele>
        <time>2011-11-25T14:57:41Z</time>
      </trkpt>
      <trkpt lat="47.32751" lon="0.02433">
        <ele>95</ele>
        <time>2011-11-25T14:57:45Z</time>
      </trkpt>
      <trkpt lat="47.32756" lon="0.02437">
        <ele>95</ele>
        <time>2011-11-25T14:57:49Z</time>
      </trkpt>
      <trkpt lat="47.3276" lon="0.02441">
        <ele>95</ele>
        <time>2011-11-25T14:57:53Z</time>
      </trkpt>
      <trkpt lat="47.32764" lon="0.02444">
        <ele>95</ele>
        <time>2011-11-25T14:57:57Z</time>
      </trkpt>
      <trkpt lat="47.32769" lon="0.02447">
        <ele>95</ele>
        <time>2011-11-25T14:58:01Z</time>
      </trkpt>
      <trkpt lat="47.32774" lon="0.0245">
        <ele>95</ele>
        <time>2011-11-25T14:58:05Z</time>
      </trkpt>
      <trkpt lat="47.32778" lon="0.02453">
        <ele>96</ele>
        <time>2011-11-25T14:58:09Z</time>
      </trkpt>
      <trkpt lat="47.32782" lon="0.02456">
        <ele>96</ele>
        <time>2011-11-25T14:58:13Z</time>
      </trkpt>
      <trkpt lat="47.32786" lon="0.0246">
        <ele>96</ele>
        <time>2011-11-25T14:58:17Z</time>
      </trkpt>
      <trkpt lat="47.3279" lon="0.02464">
        <ele>96</ele>
        <time>2011-11-25T14:58:21Z</time>
      </trkpt>
      <trkpt lat="47.32794" lon="0.02467">
        <ele>96</ele>
        <time>2011-11-25T14:58:25Z</time>
      </trkpt>
      <trkpt lat="47.32799" lon="0.02472">
        <ele>96</ele>
        <time>2011-11-25T14:58:30Z</time>
      </trkpt>
      <trkpt lat="47.32803" lon="0.02476">
        <ele>96</ele>
        <time>2011-11-25T14:58:34Z</time>
      </trkpt>
      <trkpt lat="47.32807" lon="0.0248">
        <ele>96</ele>
        <time>2011-11-25T14:58:39Z</time>
      </trkpt>
      <trkpt lat="47.32811" lon="0.02484">
        <ele>96</ele>
        <time>2011-11-25T14:58:43Z</time>
      </trkpt>
      <trkpt lat="47.32815" lon="0.02489">
        <ele>96</ele>
        <time>2011-11-25T14:58:47Z</time>
      </trkpt>
      <trkpt lat="47.32818" lon="0.02494">
        <ele>96</ele>
        <time>2011-11-25T14:58:51Z</time>
      </trkpt>
      <trkpt lat="47.32821" lon="0.02498">
        <ele>96</ele>
        <time>2011-11-25T14:58:55Z</time>
      </trkpt>
      <trkpt lat="47.32825" lon="0.02504">
        <ele>96</ele>
        <time>2011-11-25T14:58:59Z</time>
      </trkpt>
      <trkpt lat="47.32829" lon="0.02508">
        <ele>96</ele>
        <time>2011-11-25T14:59:03Z</time>
      </trkpt>
      <trkpt lat="47.32834" lon="0.02512">
        <ele>97</ele>
        <time>2011-11-25T14:59:07Z</time>
      </trkpt>
      <trkpt lat="47.32838" lon="0.02514">
        <ele>97</ele>
        <time>2011-11-25T14:59:11Z</time>
      </trkpt>
      <trkpt lat="47.32842" lon="0.02516">
        <ele>97</ele>
        <time>2011-11-25T14:59:15Z</time>
      </trkpt>
      <trkpt lat="47.32848" lon="0.02518">
        <ele>97</ele>
        <time>2011-11-25T14:59:20Z</time>
      </trkpt>
      <trkpt lat="47.32853" lon="0.02519">
        <ele>97</ele>
        <time>2011-11-25T14:59:25Z</time>
      </trkpt>
      <trkpt lat="47.32858" lon="0.02516">
        <ele>97</ele>
        <time>2011-11-25T14:59:31Z</time>
      </trkpt>
      <trkpt lat="47.32861" lon="0.02511">
        <ele>97</ele>
        <time>2011-11-25T14:59:35Z</time>
      </trkpt>
      <trkpt lat="47.32862" lon="0.02504">
        <ele>97</ele>
        <time>2011-11-25T14:59:38Z</time>
      </trkpt>
      <trkpt lat="47.32863" lon="0.02497">
        <ele>97</ele>
        <time>2011-11-25T14:59:41Z</time>
      </trkpt>
      <trkpt lat="47.32865" lon="0.0249">
        <ele>97</ele>
        <time>2011-11-25T14:59:44Z</time>
      </trkpt>
      <trkpt lat="47.32866" lon="0.02483">
        <ele>97</ele>
        <time>2011-11-25T14:59:46Z</time>
      </trkpt>
      <trkpt lat="47.32866" lon="0.02476">
        <ele>97</ele>
        <time>2011-11-25T14:59:48Z</time>
      </trkpt>
      <trkpt lat="47.32867" lon="0.02468">
        <ele>97</ele>
        <time>2011-11-25T14:59:51Z</time>
      </trkpt>
      <trkpt lat="47.32868" lon="0.02461">
        <ele>97</ele>
        <time>2011-11-25T14:59:54Z</time>
      </trkpt>
      <trkpt lat="47.3287" lon="0.02454">
        <ele>97</ele>
        <time>2011-11-25T14:59:57Z</time>
      </trkpt>
      <trkpt lat="47.32873" lon="0.02446">
        <ele>97</ele>
        <time>2011-11-25T15:00:01Z</time>
      </trkpt>
      <trkpt lat="47.32876" lon="0.02439">
        <ele>97</ele>
        <time>2011-11-25T15:00:04Z</time>
      </trkpt>
      <trkpt lat="47.32879" lon="0.02433">
        <ele>97</ele>
        <time>2011-11-25T15:00:07Z</time>
      </trkpt>
      <trkpt lat="47.32882" lon="0.02428">
        <ele>97</ele>
        <time>2011-11-25T15:00:10Z</time>
      </trkpt>
      <trkpt lat="47.32887" lon="0.02422">
        <ele>97</ele>
        <time>2011-11-25T15:00:14Z</time>
      </trkpt>
      <trkpt lat="47.3289" lon="0.02416">
        <ele>97</ele>
        <time>2011-11-25T15:00:18Z</time>
      </trkpt>
      <trkpt lat="47.32893" lon="0.0241">
        <ele>97</ele>
        <time>2011-11-25T15:00:22Z</time>
      </trkpt>
      <trkpt lat="47.32896" lon="0.02403">
        <ele>97</ele>
        <time>2011-11-25T15:00:26Z</time>
      </trkpt>
      <trkpt lat="47.329" lon="0.02396">
        <ele>97</ele>
        <time>2011-11-25T15:00:30Z</time>
      </trkpt>
      <trkpt lat="47.32903" lon="0.0239">
        <ele>97</ele>
        <time>2011-11-25T15:00:34Z</time>
      </trkpt>
      <trkpt lat="47.32907" lon="0.02384">
        <ele>97</ele>
        <time>2011-11-25T15:00:38Z</time>
      </trkpt>
      <trkpt lat="47.3291" lon="0.02377">
        <ele>97</ele>
        <time>2011-11-25T15:00:42Z</time>
      </trkpt>
      <trkpt lat="47.32914" lon="0.02371">
        <ele>97</ele>
        <time>2011-11-25T15:00:46Z</time>
      </trkpt>
      <trkpt lat="47.32916" lon="0.02364">
        <ele>97</ele>
        <time>2011-11-25T15:00:50Z</time>
      </trkpt>
      <trkpt lat="47.3292" lon="0.02357">
        <ele>97</ele>
        <time>2011-11-25T15:00:54Z</time>
      </trkpt>
      <trkpt lat="47.32945" lon="0.02337">
        <ele>88</ele>
        <time>2011-11-25T15:01:02Z</time>
      </trkpt>
      <trkpt lat="47.32945" lon="0.02337">
        <ele>88</ele>
        <time>2011-11-25T15:01:02Z</time>
      </trkpt>
      <trkpt lat="47.32945" lon="0.02337">
        <ele>88</ele>
        <time>2011-11-25T15:01:16Z</time>
      </trkpt>
      <trkpt lat="47.32945" lon="0.02323">
        <ele>94</ele>
        <time>2011-11-25T15:01:17Z</time>
      </trkpt>
      <trkpt lat="47.32945" lon="0.02323">
        <ele>94</ele>
        <time>2011-11-25T15:01:17Z</time>
      </trkpt>
      <trkpt lat="47.32945" lon="0.02323">
        <ele>94</ele>
        <time>2011-11-25T15:01:25Z</time>
      </trkpt>
      <trkpt lat="47.3295" lon="0.02314">
        <ele>95</ele>
        <time>2011-11-25T15:01:26Z</time>
      </trkpt>
      <trkpt lat="47.3295" lon="0.02314">
        <ele>95</ele>
        <time>2011-11-25T15:01:26Z</time>
      </trkpt>
    </trkseg>
  </trk>
</gpx>